<?xml version='1.0' encoding='UTF-8'?>
<gpx version="1.1" creator="https://www.komoot.de" xmlns="http://www.topografix.com/GPX/1/1" xmlns:xsi="http://www.w3.org/2001/XMLSchema-instance" xsi:schemaLocation="http://www.topografix.com/GPX/1/1 http://www.topografix.com/GPX/1/1/gpx.xsd">
  <metadata>
    <name>Lemgo radelt-6-09 08 2025-An der Emma zum Schiedersee</name>
    <author>
      <link href="https://www.komoot.de">
        <text>komoot</text>
        <type>text/html</type>
      </link>
    </author>
  </metadata>
  <trk>
    <name>Lemgo radelt-6-09 08 2025-An der Emma zum Schiedersee</name>
    <trkseg>
      <trkpt lat="52.024446" lon="8.907343">
        <ele>98.467008</ele>
        <time>2024-10-22T08:07:12.535Z</time>
      </trkpt>
      <trkpt lat="52.024501" lon="8.907135">
        <ele>98.467008</ele>
        <time>2024-10-22T08:07:16.546Z</time>
      </trkpt>
      <trkpt lat="52.024398" lon="8.907059">
        <ele>98.467008</ele>
        <time>2024-10-22T08:07:19.752Z</time>
      </trkpt>
      <trkpt lat="52.024216" lon="8.906957">
        <ele>98.467008</ele>
        <time>2024-10-22T08:07:33.151Z</time>
      </trkpt>
      <trkpt lat="52.024153" lon="8.906922">
        <ele>98.467008</ele>
        <time>2024-10-22T08:07:37.778Z</time>
      </trkpt>
      <trkpt lat="52.024033" lon="8.906855">
        <ele>98.467008</ele>
        <time>2024-10-22T08:07:46.596Z</time>
      </trkpt>
      <trkpt lat="52.023941" lon="8.906803">
        <ele>98.467008</ele>
        <time>2024-10-22T08:07:53.386Z</time>
      </trkpt>
      <trkpt lat="52.023647" lon="8.906621">
        <ele>98.582422</ele>
        <time>2024-10-22T08:08:03.874Z</time>
      </trkpt>
      <trkpt lat="52.023541" lon="8.906738">
        <ele>98.680298</ele>
        <time>2024-10-22T08:08:07.851Z</time>
      </trkpt>
      <trkpt lat="52.023389" lon="8.906748">
        <ele>98.796496</ele>
        <time>2024-10-22T08:08:12.849Z</time>
      </trkpt>
      <trkpt lat="52.023063" lon="8.906691">
        <ele>99.046944</ele>
        <time>2024-10-22T08:08:23.619Z</time>
      </trkpt>
      <trkpt lat="52.022848" lon="8.906660">
        <ele>99.211815</ele>
        <time>2024-10-22T08:08:30.161Z</time>
      </trkpt>
      <trkpt lat="52.022703" lon="8.906665">
        <ele>99.322596</ele>
        <time>2024-10-22T08:08:34.423Z</time>
      </trkpt>
      <trkpt lat="52.022675" lon="8.906666">
        <ele>99.343989</ele>
        <time>2024-10-22T08:08:35.258Z</time>
      </trkpt>
      <trkpt lat="52.022509" lon="8.906907">
        <ele>99.514016</ele>
        <time>2024-10-22T08:08:41.833Z</time>
      </trkpt>
      <trkpt lat="52.022224" lon="8.906914">
        <ele>99.731734</ele>
        <time>2024-10-22T08:08:50.426Z</time>
      </trkpt>
      <trkpt lat="52.022158" lon="8.907265">
        <ele>99.837383</ele>
        <time>2024-10-22T08:08:57.133Z</time>
      </trkpt>
      <trkpt lat="52.022055" lon="8.907815">
        <ele>99.822472</ele>
        <time>2024-10-22T08:09:07.232Z</time>
      </trkpt>
      <trkpt lat="52.022052" lon="8.907828">
        <ele>99.822112</ele>
        <time>2024-10-22T08:09:07.474Z</time>
      </trkpt>
      <trkpt lat="52.021859" lon="8.908524">
        <ele>99.802312</ele>
        <time>2024-10-22T08:09:19.928Z</time>
      </trkpt>
      <trkpt lat="52.021805" lon="8.908717">
        <ele>99.796813</ele>
        <time>2024-10-22T08:09:23.145Z</time>
      </trkpt>
      <trkpt lat="52.020836" lon="8.911377">
        <ele>99.571033</ele>
        <time>2024-10-22T08:10:11.399Z</time>
      </trkpt>
      <trkpt lat="52.020823" lon="8.911402">
        <ele>99.567631</ele>
        <time>2024-10-22T08:10:11.953Z</time>
      </trkpt>
      <trkpt lat="52.020783" lon="8.911477">
        <ele>99.557318</ele>
        <time>2024-10-22T08:10:13.580Z</time>
      </trkpt>
      <trkpt lat="52.020756" lon="8.911525">
        <ele>99.550560</ele>
        <time>2024-10-22T08:10:14.613Z</time>
      </trkpt>
      <trkpt lat="52.020443" lon="8.912355">
        <ele>99.476496</ele>
        <time>2024-10-22T08:10:30.519Z</time>
      </trkpt>
      <trkpt lat="52.020346" lon="8.912897">
        <ele>99.550978</ele>
        <time>2024-10-22T08:10:40.056Z</time>
      </trkpt>
      <trkpt lat="52.020022" lon="8.913835">
        <ele>99.692917</ele>
        <time>2024-10-22T08:10:58.747Z</time>
      </trkpt>
      <trkpt lat="52.019780" lon="8.915176">
        <ele>99.957003</ele>
        <time>2024-10-22T08:11:22.413Z</time>
      </trkpt>
      <trkpt lat="52.019646" lon="8.915129">
        <ele>100.063687</ele>
        <time>2024-10-22T08:11:26.310Z</time>
      </trkpt>
      <trkpt lat="52.019473" lon="8.915070">
        <ele>100.201254</ele>
        <time>2024-10-22T08:11:31.450Z</time>
      </trkpt>
      <trkpt lat="52.019462" lon="8.915227">
        <ele>100.276930</ele>
        <time>2024-10-22T08:11:34.259Z</time>
      </trkpt>
      <trkpt lat="52.019520" lon="8.915910">
        <ele>100.607130</ele>
        <time>2024-10-22T08:11:46.525Z</time>
      </trkpt>
      <trkpt lat="52.019484" lon="8.917161">
        <ele>101.206911</ele>
        <time>2024-10-22T08:12:11.155Z</time>
      </trkpt>
      <trkpt lat="52.019497" lon="8.917567">
        <ele>101.449978</ele>
        <time>2024-10-22T08:12:19.731Z</time>
      </trkpt>
      <trkpt lat="52.019523" lon="8.917940">
        <ele>101.685910</ele>
        <time>2024-10-22T08:12:27.685Z</time>
      </trkpt>
      <trkpt lat="52.019493" lon="8.918215">
        <ele>101.861443</ele>
        <time>2024-10-22T08:12:33.525Z</time>
      </trkpt>
      <trkpt lat="52.019578" lon="8.918906">
        <ele>102.304331</ele>
        <time>2024-10-22T08:12:47.892Z</time>
      </trkpt>
      <trkpt lat="52.019857" lon="8.920077">
        <ele>103.078160</ele>
        <time>2024-10-22T08:13:11.627Z</time>
      </trkpt>
      <trkpt lat="52.019955" lon="8.920705">
        <ele>102.846382</ele>
        <time>2024-10-22T08:13:22.143Z</time>
      </trkpt>
      <trkpt lat="52.020005" lon="8.921107">
        <ele>102.699658</ele>
        <time>2024-10-22T08:13:28.429Z</time>
      </trkpt>
      <trkpt lat="52.020175" lon="8.922496">
        <ele>102.193013</ele>
        <time>2024-10-22T08:13:48.816Z</time>
      </trkpt>
      <trkpt lat="52.020275" lon="8.922458">
        <ele>102.133310</ele>
        <time>2024-10-22T08:13:51.158Z</time>
      </trkpt>
      <trkpt lat="52.020448" lon="8.922408">
        <ele>102.029151</ele>
        <time>2024-10-22T08:13:55.122Z</time>
      </trkpt>
      <trkpt lat="52.020564" lon="8.922395">
        <ele>101.942028</ele>
        <time>2024-10-22T08:13:57.750Z</time>
      </trkpt>
      <trkpt lat="52.020753" lon="8.922363">
        <ele>101.799646</ele>
        <time>2024-10-22T08:14:02.027Z</time>
      </trkpt>
      <trkpt lat="52.021566" lon="8.922226">
        <ele>101.187210</ele>
        <time>2024-10-22T08:14:20.424Z</time>
      </trkpt>
      <trkpt lat="52.021523" lon="8.922926">
        <ele>100.862847</ele>
        <time>2024-10-22T08:14:34.664Z</time>
      </trkpt>
      <trkpt lat="52.021519" lon="8.922997">
        <ele>100.829973</ele>
        <time>2024-10-22T08:14:36.199Z</time>
      </trkpt>
      <trkpt lat="52.021581" lon="8.923268">
        <ele>100.696663</ele>
        <time>2024-10-22T08:14:42.709Z</time>
      </trkpt>
      <trkpt lat="52.021759" lon="8.924048">
        <ele>101.169669</ele>
        <time>2024-10-22T08:15:02.486Z</time>
      </trkpt>
      <trkpt lat="52.021943" lon="8.924896">
        <ele>101.696245</ele>
        <time>2024-10-22T08:15:24.920Z</time>
      </trkpt>
      <trkpt lat="52.021950" lon="8.925180">
        <ele>101.862695</ele>
        <time>2024-10-22T08:15:32.072Z</time>
      </trkpt>
      <trkpt lat="52.021956" lon="8.925406">
        <ele>101.995168</ele>
        <time>2024-10-22T08:15:37.808Z</time>
      </trkpt>
      <trkpt lat="52.021900" lon="8.926571">
        <ele>102.434636</ele>
        <time>2024-10-22T08:16:08.074Z</time>
      </trkpt>
      <trkpt lat="52.021876" lon="8.927141">
        <ele>102.473839</ele>
        <time>2024-10-22T08:16:21.763Z</time>
      </trkpt>
      <trkpt lat="52.021749" lon="8.928032">
        <ele>102.536596</ele>
        <time>2024-10-22T08:16:41.278Z</time>
      </trkpt>
      <trkpt lat="52.021767" lon="8.928278">
        <ele>102.553595</ele>
        <time>2024-10-22T08:16:46.231Z</time>
      </trkpt>
      <trkpt lat="52.021977" lon="8.928629">
        <ele>102.587187</ele>
        <time>2024-10-22T08:16:55.830Z</time>
      </trkpt>
      <trkpt lat="52.022040" lon="8.928829">
        <ele>102.602604</ele>
        <time>2024-10-22T08:17:00.259Z</time>
      </trkpt>
      <trkpt lat="52.022118" lon="8.928939">
        <ele>102.529378</ele>
        <time>2024-10-22T08:17:03.572Z</time>
      </trkpt>
      <trkpt lat="52.022360" lon="8.929237">
        <ele>102.311989</ele>
        <time>2024-10-22T08:17:13.239Z</time>
      </trkpt>
      <trkpt lat="52.022736" lon="8.929755">
        <ele>101.959067</ele>
        <time>2024-10-22T08:17:28.329Z</time>
      </trkpt>
      <trkpt lat="52.023002" lon="8.930207">
        <ele>101.683520</ele>
        <time>2024-10-22T08:17:40.283Z</time>
      </trkpt>
      <trkpt lat="52.023207" lon="8.930864">
        <ele>101.358982</ele>
        <time>2024-10-22T08:17:55.618Z</time>
      </trkpt>
      <trkpt lat="52.023372" lon="8.931591">
        <ele>101.499908</ele>
        <time>2024-10-22T08:18:12.996Z</time>
      </trkpt>
      <trkpt lat="52.023411" lon="8.931762">
        <ele>101.549894</ele>
        <time>2024-10-22T08:18:17.101Z</time>
      </trkpt>
      <trkpt lat="52.023679" lon="8.933537">
        <ele>102.050839</ele>
        <time>2024-10-22T08:18:59.857Z</time>
      </trkpt>
      <trkpt lat="52.023721" lon="8.934431">
        <ele>102.324863</ele>
        <time>2024-10-22T08:19:21.310Z</time>
      </trkpt>
      <trkpt lat="52.023682" lon="8.935457">
        <ele>102.650753</ele>
        <time>2024-10-22T08:19:45.443Z</time>
      </trkpt>
      <trkpt lat="52.023661" lon="8.935800">
        <ele>102.760031</ele>
        <time>2024-10-22T08:19:53.412Z</time>
      </trkpt>
      <trkpt lat="52.023562" lon="8.936590">
        <ele>103.015624</ele>
        <time>2024-10-22T08:20:11.587Z</time>
      </trkpt>
      <trkpt lat="52.023487" lon="8.937003">
        <ele>103.067778</ele>
        <time>2024-10-22T08:20:21.151Z</time>
      </trkpt>
      <trkpt lat="52.023341" lon="8.937702">
        <ele>103.121262</ele>
        <time>2024-10-22T08:20:37.430Z</time>
      </trkpt>
      <trkpt lat="52.022576" lon="8.940836">
        <ele>103.444903</ele>
        <time>2024-10-22T08:21:50.610Z</time>
      </trkpt>
      <trkpt lat="52.022409" lon="8.941242">
        <ele>103.505588</ele>
        <time>2024-10-22T08:22:01.517Z</time>
      </trkpt>
      <trkpt lat="52.022363" lon="8.941686">
        <ele>103.561537</ele>
        <time>2024-10-22T08:22:11.687Z</time>
      </trkpt>
      <trkpt lat="52.021558" lon="8.945002">
        <ele>104.469103</ele>
        <time>2024-10-22T08:23:34.588Z</time>
      </trkpt>
      <trkpt lat="52.020960" lon="8.947411">
        <ele>104.217815</ele>
        <time>2024-10-22T08:24:28.910Z</time>
      </trkpt>
      <trkpt lat="52.020867" lon="8.947526">
        <ele>104.199801</ele>
        <time>2024-10-22T08:24:32.768Z</time>
      </trkpt>
      <trkpt lat="52.020792" lon="8.947540">
        <ele>104.188747</ele>
        <time>2024-10-22T08:24:35.228Z</time>
      </trkpt>
      <trkpt lat="52.020660" lon="8.947575">
        <ele>104.169163</ele>
        <time>2024-10-22T08:24:39.633Z</time>
      </trkpt>
      <trkpt lat="52.020476" lon="8.948242">
        <ele>104.103299</ele>
        <time>2024-10-22T08:24:54.640Z</time>
      </trkpt>
      <trkpt lat="52.020504" lon="8.948397">
        <ele>104.088743</ele>
        <time>2024-10-22T08:24:57.999Z</time>
      </trkpt>
      <trkpt lat="52.020618" lon="8.948597">
        <ele>104.064179</ele>
        <time>2024-10-22T08:25:03.633Z</time>
      </trkpt>
      <trkpt lat="52.020619" lon="8.948769">
        <ele>104.048680</ele>
        <time>2024-10-22T08:25:07.190Z</time>
      </trkpt>
      <trkpt lat="52.020506" lon="8.949153">
        <ele>104.010326</ele>
        <time>2024-10-22T08:25:16.238Z</time>
      </trkpt>
      <trkpt lat="52.020351" lon="8.949569">
        <ele>103.966506</ele>
        <time>2024-10-22T08:25:27.201Z</time>
      </trkpt>
      <trkpt lat="52.020173" lon="8.949818">
        <ele>103.964976</ele>
        <time>2024-10-22T08:25:35.892Z</time>
      </trkpt>
      <trkpt lat="52.020083" lon="8.950095">
        <ele>104.037946</ele>
        <time>2024-10-22T08:25:43.072Z</time>
      </trkpt>
      <trkpt lat="52.019210" lon="8.953868">
        <ele>104.992247</ele>
        <time>2024-10-22T08:27:14.928Z</time>
      </trkpt>
      <trkpt lat="52.019016" lon="8.954617">
        <ele>105.189714</ele>
        <time>2024-10-22T08:27:33.153Z</time>
      </trkpt>
      <trkpt lat="52.018710" lon="8.955161">
        <ele>105.382969</ele>
        <time>2024-10-22T08:27:45.996Z</time>
      </trkpt>
      <trkpt lat="52.018360" lon="8.955781">
        <ele>105.666879</ele>
        <time>2024-10-22T08:28:01.015Z</time>
      </trkpt>
      <trkpt lat="52.017767" lon="8.956864">
        <ele>106.156056</ele>
        <time>2024-10-22T08:28:27.814Z</time>
      </trkpt>
      <trkpt lat="52.017710" lon="8.957134">
        <ele>106.252381</ele>
        <time>2024-10-22T08:28:32.928Z</time>
      </trkpt>
      <trkpt lat="52.017632" lon="8.957631">
        <ele>106.564871</ele>
        <time>2024-10-22T08:28:41.970Z</time>
      </trkpt>
      <trkpt lat="52.017559" lon="8.957962">
        <ele>106.838348</ele>
        <time>2024-10-22T08:28:48.084Z</time>
      </trkpt>
      <trkpt lat="52.016835" lon="8.958846">
        <ele>107.982894</ele>
        <time>2024-10-22T08:29:15.256Z</time>
      </trkpt>
      <trkpt lat="52.016214" lon="8.959424">
        <ele>109.734679</ele>
        <time>2024-10-22T08:29:42.710Z</time>
      </trkpt>
      <trkpt lat="52.016097" lon="8.959567">
        <ele>110.450120</ele>
        <time>2024-10-22T08:29:49.365Z</time>
      </trkpt>
      <trkpt lat="52.016008" lon="8.959613">
        <ele>110.906511</ele>
        <time>2024-10-22T08:29:53.801Z</time>
      </trkpt>
      <trkpt lat="52.016032" lon="8.959662">
        <ele>111.094852</ele>
        <time>2024-10-22T08:29:55.604Z</time>
      </trkpt>
      <trkpt lat="52.016078" lon="8.959826">
        <ele>111.636889</ele>
        <time>2024-10-22T08:30:01.135Z</time>
      </trkpt>
      <trkpt lat="52.015947" lon="8.960074">
        <ele>112.619798</ele>
        <time>2024-10-22T08:30:11.503Z</time>
      </trkpt>
      <trkpt lat="52.014875" lon="8.962093">
        <ele>120.005417</ele>
        <time>2024-10-22T08:31:42.718Z</time>
      </trkpt>
      <trkpt lat="52.014309" lon="8.963492">
        <ele>124.060891</ele>
        <time>2024-10-22T08:32:27.205Z</time>
      </trkpt>
      <trkpt lat="52.013984" lon="8.964325">
        <ele>123.865228</ele>
        <time>2024-10-22T08:32:55.926Z</time>
      </trkpt>
      <trkpt lat="52.013939" lon="8.964578">
        <ele>123.674394</ele>
        <time>2024-10-22T08:33:02.674Z</time>
      </trkpt>
      <trkpt lat="52.013968" lon="8.965053">
        <ele>123.328503</ele>
        <time>2024-10-22T08:33:14.228Z</time>
      </trkpt>
      <trkpt lat="52.013926" lon="8.965223">
        <ele>123.195760</ele>
        <time>2024-10-22T08:33:18.449Z</time>
      </trkpt>
      <trkpt lat="52.013829" lon="8.965943">
        <ele>122.661669</ele>
        <time>2024-10-22T08:33:34.930Z</time>
      </trkpt>
      <trkpt lat="52.013725" lon="8.967542">
        <ele>120.677658</ele>
        <time>2024-10-22T08:34:09.697Z</time>
      </trkpt>
      <trkpt lat="52.013712" lon="8.968182">
        <ele>119.764613</ele>
        <time>2024-10-22T08:34:24.038Z</time>
      </trkpt>
      <trkpt lat="52.013807" lon="8.969054">
        <ele>118.501938</ele>
        <time>2024-10-22T08:34:44.901Z</time>
      </trkpt>
      <trkpt lat="52.013818" lon="8.969384">
        <ele>118.194410</ele>
        <time>2024-10-22T08:34:53.163Z</time>
      </trkpt>
      <trkpt lat="52.013737" lon="8.969743">
        <ele>118.264169</ele>
        <time>2024-10-22T08:35:03.100Z</time>
      </trkpt>
      <trkpt lat="52.013489" lon="8.970565">
        <ele>118.431185</ele>
        <time>2024-10-22T08:35:28.617Z</time>
      </trkpt>
      <trkpt lat="52.013434" lon="8.970702">
        <ele>118.461027</ele>
        <time>2024-10-22T08:35:33.365Z</time>
      </trkpt>
      <trkpt lat="52.013331" lon="8.970812">
        <ele>118.497564</ele>
        <time>2024-10-22T08:35:39.205Z</time>
      </trkpt>
      <trkpt lat="52.013398" lon="8.971035">
        <ele>118.542837</ele>
        <time>2024-10-22T08:35:43.788Z</time>
      </trkpt>
      <trkpt lat="52.013475" lon="8.971291">
        <ele>118.594821</ele>
        <time>2024-10-22T08:35:49.118Z</time>
      </trkpt>
      <trkpt lat="52.013582" lon="8.971782">
        <ele>118.689850</ele>
        <time>2024-10-22T08:35:59.236Z</time>
      </trkpt>
      <trkpt lat="52.013634" lon="8.972297">
        <ele>119.192622</ele>
        <time>2024-10-22T08:36:10.086Z</time>
      </trkpt>
      <trkpt lat="52.013739" lon="8.973189">
        <ele>120.246132</ele>
        <time>2024-10-22T08:36:29.928Z</time>
      </trkpt>
      <trkpt lat="52.013844" lon="8.973724">
        <ele>120.897541</ele>
        <time>2024-10-22T08:36:42.456Z</time>
      </trkpt>
      <trkpt lat="52.014195" lon="8.974914">
        <ele>122.496150</ele>
        <time>2024-10-22T08:37:12.786Z</time>
      </trkpt>
      <trkpt lat="52.014410" lon="8.975983">
        <ele>124.069541</ele>
        <time>2024-10-22T08:37:40.027Z</time>
      </trkpt>
      <trkpt lat="52.014575" lon="8.976833">
        <ele>125.316458</ele>
        <time>2024-10-22T08:38:01.193Z</time>
      </trkpt>
      <trkpt lat="52.014649" lon="8.977292">
        <ele>125.980274</ele>
        <time>2024-10-22T08:38:11.803Z</time>
      </trkpt>
      <trkpt lat="52.014757" lon="8.977907">
        <ele>126.531593</ele>
        <time>2024-10-22T08:38:25.319Z</time>
      </trkpt>
      <trkpt lat="52.014808" lon="8.978273">
        <ele>126.794307</ele>
        <time>2024-10-22T08:38:32.839Z</time>
      </trkpt>
      <trkpt lat="52.014831" lon="8.978586">
        <ele>127.014988</ele>
        <time>2024-10-22T08:38:38.953Z</time>
      </trkpt>
      <trkpt lat="52.014853" lon="8.978882">
        <ele>127.223716</ele>
        <time>2024-10-22T08:38:44.543Z</time>
      </trkpt>
      <trkpt lat="52.014868" lon="8.979028">
        <ele>127.327342</ele>
        <time>2024-10-22T08:38:47.183Z</time>
      </trkpt>
      <trkpt lat="52.014708" lon="8.980498">
        <ele>128.459194</ele>
        <time>2024-10-22T08:39:14.474Z</time>
      </trkpt>
      <trkpt lat="52.014737" lon="8.982537">
        <ele>130.779181</ele>
        <time>2024-10-22T08:39:59.531Z</time>
      </trkpt>
      <trkpt lat="52.014763" lon="8.982974">
        <ele>131.278587</ele>
        <time>2024-10-22T08:40:09.991Z</time>
      </trkpt>
      <trkpt lat="52.014626" lon="8.985254">
        <ele>134.479972</ele>
        <time>2024-10-22T08:41:03.602Z</time>
      </trkpt>
      <trkpt lat="52.014541" lon="8.986649">
        <ele>136.454264</ele>
        <time>2024-10-22T08:41:36.162Z</time>
      </trkpt>
      <trkpt lat="52.014503" lon="8.987186">
        <ele>137.197203</ele>
        <time>2024-10-22T08:41:48.662Z</time>
      </trkpt>
      <trkpt lat="52.014416" lon="8.987823">
        <ele>138.094024</ele>
        <time>2024-10-22T08:42:03.732Z</time>
      </trkpt>
      <trkpt lat="52.013873" lon="8.990299">
        <ele>141.740436</ele>
        <time>2024-10-22T08:43:04.037Z</time>
      </trkpt>
      <trkpt lat="52.013837" lon="8.990613">
        <ele>142.186995</ele>
        <time>2024-10-22T08:43:11.358Z</time>
      </trkpt>
      <trkpt lat="52.013832" lon="8.990656">
        <ele>142.248177</ele>
        <time>2024-10-22T08:43:12.357Z</time>
      </trkpt>
      <trkpt lat="52.013822" lon="8.991036">
        <ele>142.779946</ele>
        <time>2024-10-22T08:43:21.147Z</time>
      </trkpt>
      <trkpt lat="52.013865" lon="8.991624">
        <ele>143.607818</ele>
        <time>2024-10-22T08:43:34.932Z</time>
      </trkpt>
      <trkpt lat="52.013976" lon="8.992290">
        <ele>144.592486</ele>
        <time>2024-10-22T08:43:51.154Z</time>
      </trkpt>
      <trkpt lat="52.014338" lon="8.994147">
        <ele>147.389759</ele>
        <time>2024-10-22T08:44:37.064Z</time>
      </trkpt>
      <trkpt lat="52.014782" lon="8.996223">
        <ele>149.904617</ele>
        <time>2024-10-22T08:45:26.438Z</time>
      </trkpt>
      <trkpt lat="52.014809" lon="8.996340">
        <ele>150.038280</ele>
        <time>2024-10-22T08:45:29.067Z</time>
      </trkpt>
      <trkpt lat="52.015267" lon="8.998541">
        <ele>152.327046</ele>
        <time>2024-10-22T08:46:15.311Z</time>
      </trkpt>
      <trkpt lat="52.015441" lon="8.999497">
        <ele>153.239912</ele>
        <time>2024-10-22T08:46:36.188Z</time>
      </trkpt>
      <trkpt lat="52.015464" lon="8.999812">
        <ele>153.530374</ele>
        <time>2024-10-22T08:46:43.246Z</time>
      </trkpt>
      <trkpt lat="52.015417" lon="9.002360">
        <ele>155.955264</ele>
        <time>2024-10-22T08:47:40.210Z</time>
      </trkpt>
      <trkpt lat="52.015410" lon="9.002685">
        <ele>156.266345</ele>
        <time>2024-10-22T08:47:46.434Z</time>
      </trkpt>
      <trkpt lat="52.015432" lon="9.003100">
        <ele>156.643953</ele>
        <time>2024-10-22T08:47:54.024Z</time>
      </trkpt>
      <trkpt lat="52.015305" lon="9.003834">
        <ele>156.935636</ele>
        <time>2024-10-22T08:48:06.879Z</time>
      </trkpt>
      <trkpt lat="52.015265" lon="9.004230">
        <ele>157.089157</ele>
        <time>2024-10-22T08:48:13.212Z</time>
      </trkpt>
      <trkpt lat="52.015229" lon="9.004748">
        <ele>157.288582</ele>
        <time>2024-10-22T08:48:21.758Z</time>
      </trkpt>
      <trkpt lat="52.015246" lon="9.005380">
        <ele>157.530591</ele>
        <time>2024-10-22T08:48:33.177Z</time>
      </trkpt>
      <trkpt lat="52.015232" lon="9.005907">
        <ele>157.732387</ele>
        <time>2024-10-22T08:48:43.648Z</time>
      </trkpt>
      <trkpt lat="52.015201" lon="9.006200">
        <ele>158.091975</ele>
        <time>2024-10-22T08:48:49.863Z</time>
      </trkpt>
      <trkpt lat="52.015076" lon="9.006968">
        <ele>159.157987</ele>
        <time>2024-10-22T08:49:07.954Z</time>
      </trkpt>
      <trkpt lat="52.014937" lon="9.007635">
        <ele>160.102959</ele>
        <time>2024-10-22T08:49:25.525Z</time>
      </trkpt>
      <trkpt lat="52.014921" lon="9.007868">
        <ele>160.417565</ele>
        <time>2024-10-22T08:49:31.573Z</time>
      </trkpt>
      <trkpt lat="52.014961" lon="9.008544">
        <ele>161.328879</ele>
        <time>2024-10-22T08:49:48.272Z</time>
      </trkpt>
      <trkpt lat="52.015168" lon="9.009456">
        <ele>161.645461</ele>
        <time>2024-10-22T08:50:09.797Z</time>
      </trkpt>
      <trkpt lat="52.015785" lon="9.011770">
        <ele>161.144024</ele>
        <time>2024-10-22T08:50:46.820Z</time>
      </trkpt>
      <trkpt lat="52.016207" lon="9.014124">
        <ele>157.846493</ele>
        <time>2024-10-22T08:51:17.352Z</time>
      </trkpt>
      <trkpt lat="52.016589" lon="9.016278">
        <ele>155.224643</ele>
        <time>2024-10-22T08:51:46.490Z</time>
      </trkpt>
      <trkpt lat="52.016626" lon="9.016486">
        <ele>154.974194</ele>
        <time>2024-10-22T08:51:49.417Z</time>
      </trkpt>
      <trkpt lat="52.016670" lon="9.016735">
        <ele>154.674530</ele>
        <time>2024-10-22T08:51:52.928Z</time>
      </trkpt>
      <trkpt lat="52.016660" lon="9.016823">
        <ele>154.571017</ele>
        <time>2024-10-22T08:51:54.112Z</time>
      </trkpt>
      <trkpt lat="52.016695" lon="9.016884">
        <ele>154.474548</ele>
        <time>2024-10-22T08:51:55.278Z</time>
      </trkpt>
      <trkpt lat="52.016677" lon="9.017001">
        <ele>154.335046</ele>
        <time>2024-10-22T08:51:56.902Z</time>
      </trkpt>
      <trkpt lat="52.018312" lon="9.021535">
        <ele>149.496003</ele>
        <time>2024-10-22T08:53:08.428Z</time>
      </trkpt>
      <trkpt lat="52.018781" lon="9.022812">
        <ele>147.988219</ele>
        <time>2024-10-22T08:53:28.273Z</time>
      </trkpt>
      <trkpt lat="52.018841" lon="9.022908">
        <ele>147.841548</ele>
        <time>2024-10-22T08:53:30.087Z</time>
      </trkpt>
      <trkpt lat="52.019078" lon="9.023472">
        <ele>147.109477</ele>
        <time>2024-10-22T08:53:39.098Z</time>
      </trkpt>
      <trkpt lat="52.019213" lon="9.023697">
        <ele>146.772630</ele>
        <time>2024-10-22T08:53:43.250Z</time>
      </trkpt>
      <trkpt lat="52.019401" lon="9.023922">
        <ele>146.365930</ele>
        <time>2024-10-22T08:53:48.255Z</time>
      </trkpt>
      <trkpt lat="52.023562" lon="9.027854">
        <ele>137.649026</ele>
        <time>2024-10-22T08:55:31.555Z</time>
      </trkpt>
      <trkpt lat="52.025110" lon="9.028466">
        <ele>135.826402</ele>
        <time>2024-10-22T08:56:05.240Z</time>
      </trkpt>
      <trkpt lat="52.025247" lon="9.028621">
        <ele>135.808132</ele>
        <time>2024-10-22T08:56:09.352Z</time>
      </trkpt>
      <trkpt lat="52.025336" lon="9.028605">
        <ele>135.798331</ele>
        <time>2024-10-22T08:56:11.629Z</time>
      </trkpt>
      <trkpt lat="52.025309" lon="9.028719">
        <ele>135.790105</ele>
        <time>2024-10-22T08:56:13.598Z</time>
      </trkpt>
      <trkpt lat="52.024215" lon="9.031372">
        <ele>137.578718</ele>
        <time>2024-10-22T08:57:20.095Z</time>
      </trkpt>
      <trkpt lat="52.020804" lon="9.039643">
        <ele>148.735579</ele>
        <time>2024-10-22T09:00:59.457Z</time>
      </trkpt>
      <trkpt lat="52.020628" lon="9.039959">
        <ele>148.970651</ele>
        <time>2024-10-22T09:01:07.793Z</time>
      </trkpt>
      <trkpt lat="52.019003" lon="9.042198">
        <ele>151.367955</ele>
        <time>2024-10-22T09:02:11.328Z</time>
      </trkpt>
      <trkpt lat="52.018235" lon="9.043276">
        <ele>153.005833</ele>
        <time>2024-10-22T09:02:47.932Z</time>
      </trkpt>
      <trkpt lat="52.018066" lon="9.043468">
        <ele>153.450783</ele>
        <time>2024-10-22T09:02:56.173Z</time>
      </trkpt>
      <trkpt lat="52.017673" lon="9.043782">
        <ele>154.638422</ele>
        <time>2024-10-22T09:03:14.153Z</time>
      </trkpt>
      <trkpt lat="52.017181" lon="9.044091">
        <ele>156.068862</ele>
        <time>2024-10-22T09:03:35.633Z</time>
      </trkpt>
      <trkpt lat="52.016930" lon="9.044203">
        <ele>156.774743</ele>
        <time>2024-10-22T09:03:46.458Z</time>
      </trkpt>
      <trkpt lat="52.016781" lon="9.044138">
        <ele>157.193122</ele>
        <time>2024-10-22T09:03:52.821Z</time>
      </trkpt>
      <trkpt lat="52.016656" lon="9.043972">
        <ele>157.630920</ele>
        <time>2024-10-22T09:03:59.424Z</time>
      </trkpt>
      <trkpt lat="52.016438" lon="9.043508">
        <ele>158.090993</ele>
        <time>2024-10-22T09:04:14.099Z</time>
      </trkpt>
      <trkpt lat="52.016315" lon="9.043453">
        <ele>158.115673</ele>
        <time>2024-10-22T09:04:19.381Z</time>
      </trkpt>
      <trkpt lat="52.016248" lon="9.043460">
        <ele>158.128661</ele>
        <time>2024-10-22T09:04:22.014Z</time>
      </trkpt>
      <trkpt lat="52.016177" lon="9.043490">
        <ele>158.142853</ele>
        <time>2024-10-22T09:04:24.878Z</time>
      </trkpt>
      <trkpt lat="52.016034" lon="9.043677">
        <ele>158.178364</ele>
        <time>2024-10-22T09:04:31.478Z</time>
      </trkpt>
      <trkpt lat="52.015619" lon="9.044431">
        <ele>158.298799</ele>
        <time>2024-10-22T09:04:49.066Z</time>
      </trkpt>
      <trkpt lat="52.015548" lon="9.044601">
        <ele>158.323260</ele>
        <time>2024-10-22T09:04:52.035Z</time>
      </trkpt>
      <trkpt lat="52.015689" lon="9.044808">
        <ele>158.360023</ele>
        <time>2024-10-22T09:04:56.086Z</time>
      </trkpt>
      <trkpt lat="52.015953" lon="9.045661">
        <ele>157.518948</ele>
        <time>2024-10-22T09:05:07.809Z</time>
      </trkpt>
      <trkpt lat="52.016097" lon="9.045955">
        <ele>156.988424</ele>
        <time>2024-10-22T09:05:12.213Z</time>
      </trkpt>
      <trkpt lat="52.016495" lon="9.046688">
        <ele>155.608266</ele>
        <time>2024-10-22T09:05:23.795Z</time>
      </trkpt>
      <trkpt lat="52.016632" lon="9.047057">
        <ele>154.999803</ele>
        <time>2024-10-22T09:05:29.359Z</time>
      </trkpt>
      <trkpt lat="52.016652" lon="9.047238">
        <ele>154.740160</ele>
        <time>2024-10-22T09:05:31.864Z</time>
      </trkpt>
      <trkpt lat="52.016640" lon="9.047351">
        <ele>154.578255</ele>
        <time>2024-10-22T09:05:33.468Z</time>
      </trkpt>
      <trkpt lat="52.016559" lon="9.047552">
        <ele>154.276549</ele>
        <time>2024-10-22T09:05:37.169Z</time>
      </trkpt>
      <trkpt lat="52.015834" lon="9.048529">
        <ele>154.500463</ele>
        <time>2024-10-22T09:06:05.369Z</time>
      </trkpt>
      <trkpt lat="52.015678" lon="9.048899">
        <ele>154.566082</ele>
        <time>2024-10-22T09:06:14.178Z</time>
      </trkpt>
      <trkpt lat="52.014852" lon="9.051436">
        <ele>154.676858</ele>
        <time>2024-10-22T09:07:01.837Z</time>
      </trkpt>
      <trkpt lat="52.014693" lon="9.051985">
        <ele>154.669469</ele>
        <time>2024-10-22T09:07:11.523Z</time>
      </trkpt>
      <trkpt lat="52.014353" lon="9.053783">
        <ele>154.324067</ele>
        <time>2024-10-22T09:07:41.376Z</time>
      </trkpt>
      <trkpt lat="52.014306" lon="9.054063">
        <ele>154.258787</ele>
        <time>2024-10-22T09:07:45.814Z</time>
      </trkpt>
      <trkpt lat="52.014324" lon="9.054364">
        <ele>154.190765</ele>
        <time>2024-10-22T09:07:50.368Z</time>
      </trkpt>
      <trkpt lat="52.014604" lon="9.054897">
        <ele>154.033147</ele>
        <time>2024-10-22T09:08:00.989Z</time>
      </trkpt>
      <trkpt lat="52.014640" lon="9.055031">
        <ele>153.981090</ele>
        <time>2024-10-22T09:08:03.216Z</time>
      </trkpt>
      <trkpt lat="52.014639" lon="9.055113">
        <ele>153.915070</ele>
        <time>2024-10-22T09:08:04.483Z</time>
      </trkpt>
      <trkpt lat="52.014592" lon="9.055269">
        <ele>153.775258</ele>
        <time>2024-10-22T09:08:07.148Z</time>
      </trkpt>
      <trkpt lat="52.014347" lon="9.055487">
        <ele>153.409921</ele>
        <time>2024-10-22T09:08:13.765Z</time>
      </trkpt>
      <trkpt lat="52.014173" lon="9.055740">
        <ele>153.104527</ele>
        <time>2024-10-22T09:08:19.068Z</time>
      </trkpt>
      <trkpt lat="52.013947" lon="9.056146">
        <ele>152.663870</ele>
        <time>2024-10-22T09:08:26.514Z</time>
      </trkpt>
      <trkpt lat="52.013854" lon="9.056521">
        <ele>152.338421</ele>
        <time>2024-10-22T09:08:31.907Z</time>
      </trkpt>
      <trkpt lat="52.013615" lon="9.057818">
        <ele>151.346694</ele>
        <time>2024-10-22T09:08:49.866Z</time>
      </trkpt>
      <trkpt lat="52.013419" lon="9.058362">
        <ele>150.961690</ele>
        <time>2024-10-22T09:08:58.165Z</time>
      </trkpt>
      <trkpt lat="52.013265" lon="9.058591">
        <ele>150.754523</ele>
        <time>2024-10-22T09:09:02.769Z</time>
      </trkpt>
      <trkpt lat="52.013101" lon="9.058734">
        <ele>150.569821</ele>
        <time>2024-10-22T09:09:07.004Z</time>
      </trkpt>
      <trkpt lat="52.011999" lon="9.059203">
        <ele>149.873623</ele>
        <time>2024-10-22T09:09:36.984Z</time>
      </trkpt>
      <trkpt lat="52.011676" lon="9.059340">
        <ele>149.876132</ele>
        <time>2024-10-22T09:09:46.071Z</time>
      </trkpt>
      <trkpt lat="52.011548" lon="9.059385">
        <ele>149.877116</ele>
        <time>2024-10-22T09:09:49.579Z</time>
      </trkpt>
      <trkpt lat="52.010521" lon="9.059583">
        <ele>149.989371</ele>
        <time>2024-10-22T09:10:16.760Z</time>
      </trkpt>
      <trkpt lat="52.009896" lon="9.059571">
        <ele>150.478950</ele>
        <time>2024-10-22T09:10:34.490Z</time>
      </trkpt>
      <trkpt lat="52.009562" lon="9.059557">
        <ele>150.740651</ele>
        <time>2024-10-22T09:10:44.918Z</time>
      </trkpt>
      <trkpt lat="52.009518" lon="9.059552">
        <ele>150.775199</ele>
        <time>2024-10-22T09:10:46.360Z</time>
      </trkpt>
      <trkpt lat="52.009354" lon="9.059549">
        <ele>150.903664</ele>
        <time>2024-10-22T09:10:51.694Z</time>
      </trkpt>
      <trkpt lat="52.008787" lon="9.059488">
        <ele>151.373434</ele>
        <time>2024-10-22T09:11:10.634Z</time>
      </trkpt>
      <trkpt lat="52.007593" lon="9.059273">
        <ele>152.728761</ele>
        <time>2024-10-22T09:11:52.237Z</time>
      </trkpt>
      <trkpt lat="52.007511" lon="9.059270">
        <ele>152.821297</ele>
        <time>2024-10-22T09:11:54.721Z</time>
      </trkpt>
      <trkpt lat="52.007331" lon="9.059348">
        <ele>153.031475</ele>
        <time>2024-10-22T09:12:00.160Z</time>
      </trkpt>
      <trkpt lat="52.007251" lon="9.059424">
        <ele>153.136031</ele>
        <time>2024-10-22T09:12:02.761Z</time>
      </trkpt>
      <trkpt lat="52.007028" lon="9.059850">
        <ele>153.367131</ele>
        <time>2024-10-22T09:12:11.749Z</time>
      </trkpt>
      <trkpt lat="52.006923" lon="9.060135">
        <ele>153.418615</ele>
        <time>2024-10-22T09:12:16.888Z</time>
      </trkpt>
      <trkpt lat="52.006786" lon="9.060364">
        <ele>153.468114</ele>
        <time>2024-10-22T09:12:21.924Z</time>
      </trkpt>
      <trkpt lat="52.006659" lon="9.060546">
        <ele>153.510759</ele>
        <time>2024-10-22T09:12:26.228Z</time>
      </trkpt>
      <trkpt lat="52.006235" lon="9.061034">
        <ele>153.641608</ele>
        <time>2024-10-22T09:12:39.266Z</time>
      </trkpt>
      <trkpt lat="52.006111" lon="9.061178">
        <ele>153.679990</ele>
        <time>2024-10-22T09:12:43.652Z</time>
      </trkpt>
      <trkpt lat="52.005648" lon="9.061708">
        <ele>153.943535</ele>
        <time>2024-10-22T09:13:02.035Z</time>
      </trkpt>
      <trkpt lat="52.005423" lon="9.062009">
        <ele>154.202783</ele>
        <time>2024-10-22T09:13:11.998Z</time>
      </trkpt>
      <trkpt lat="52.005285" lon="9.062193">
        <ele>154.361576</ele>
        <time>2024-10-22T09:13:18.041Z</time>
      </trkpt>
      <trkpt lat="52.005100" lon="9.062493">
        <ele>154.594075</ele>
        <time>2024-10-22T09:13:26.418Z</time>
      </trkpt>
      <trkpt lat="52.004939" lon="9.062823">
        <ele>154.824624</ele>
        <time>2024-10-22T09:13:34.544Z</time>
      </trkpt>
      <trkpt lat="52.004843" lon="9.063096">
        <ele>154.996768</ele>
        <time>2024-10-22T09:13:40.459Z</time>
      </trkpt>
      <trkpt lat="52.004730" lon="9.063417">
        <ele>155.199234</ele>
        <time>2024-10-22T09:13:47.257Z</time>
      </trkpt>
      <trkpt lat="52.004604" lon="9.063993">
        <ele>155.474366</ele>
        <time>2024-10-22T09:13:57.722Z</time>
      </trkpt>
      <trkpt lat="52.004502" lon="9.064716">
        <ele>155.728629</ele>
        <time>2024-10-22T09:14:09.954Z</time>
      </trkpt>
      <trkpt lat="52.004366" lon="9.065683">
        <ele>156.068649</ele>
        <time>2024-10-22T09:14:28.332Z</time>
      </trkpt>
      <trkpt lat="52.004402" lon="9.066037">
        <ele>156.191642</ele>
        <time>2024-10-22T09:14:35.628Z</time>
      </trkpt>
      <trkpt lat="52.004260" lon="9.066159">
        <ele>156.281091</ele>
        <time>2024-10-22T09:14:40.750Z</time>
      </trkpt>
      <trkpt lat="52.004162" lon="9.066330">
        <ele>156.361179</ele>
        <time>2024-10-22T09:14:45.150Z</time>
      </trkpt>
      <trkpt lat="52.003990" lon="9.066760">
        <ele>156.174780</ele>
        <time>2024-10-22T09:14:54.378Z</time>
      </trkpt>
      <trkpt lat="52.003844" lon="9.067272">
        <ele>155.932449</ele>
        <time>2024-10-22T09:15:03.655Z</time>
      </trkpt>
      <trkpt lat="52.003761" lon="9.067910">
        <ele>155.652398</ele>
        <time>2024-10-22T09:15:13.330Z</time>
      </trkpt>
      <trkpt lat="52.003666" lon="9.068839">
        <ele>155.247955</ele>
        <time>2024-10-22T09:15:25.838Z</time>
      </trkpt>
      <trkpt lat="52.003371" lon="9.069829">
        <ele>154.694392</ele>
        <time>2024-10-22T09:15:40.421Z</time>
      </trkpt>
      <trkpt lat="52.003317" lon="9.069839">
        <ele>154.647573</ele>
        <time>2024-10-22T09:15:44.237Z</time>
      </trkpt>
      <trkpt lat="52.003247" lon="9.069918">
        <ele>154.574148</ele>
        <time>2024-10-22T09:15:50.175Z</time>
      </trkpt>
      <trkpt lat="52.003219" lon="9.070000">
        <ele>154.524420</ele>
        <time>2024-10-22T09:15:54.166Z</time>
      </trkpt>
      <trkpt lat="52.003149" lon="9.070204">
        <ele>154.400566</ele>
        <time>2024-10-22T09:15:57.459Z</time>
      </trkpt>
      <trkpt lat="52.003070" lon="9.070438">
        <ele>154.259037</ele>
        <time>2024-10-22T09:16:01.290Z</time>
      </trkpt>
      <trkpt lat="52.002717" lon="9.071478">
        <ele>153.629231</ele>
        <time>2024-10-22T09:16:19.673Z</time>
      </trkpt>
      <trkpt lat="52.001500" lon="9.073987">
        <ele>154.277446</ele>
        <time>2024-10-22T09:17:15.621Z</time>
      </trkpt>
      <trkpt lat="52.000785" lon="9.075461">
        <ele>155.682999</ele>
        <time>2024-10-22T09:17:51.271Z</time>
      </trkpt>
      <trkpt lat="52.000228" lon="9.076590">
        <ele>157.102795</ele>
        <time>2024-10-22T09:18:23.905Z</time>
      </trkpt>
      <trkpt lat="51.999642" lon="9.078328">
        <ele>159.762919</ele>
        <time>2024-10-22T09:19:11.772Z</time>
      </trkpt>
      <trkpt lat="51.998082" lon="9.083970">
        <ele>164.102699</ele>
        <time>2024-10-22T09:21:13.607Z</time>
      </trkpt>
      <trkpt lat="51.998059" lon="9.084110">
        <ele>164.089934</ele>
        <time>2024-10-22T09:21:15.992Z</time>
      </trkpt>
      <trkpt lat="51.998025" lon="9.084283">
        <ele>164.040531</ele>
        <time>2024-10-22T09:21:18.989Z</time>
      </trkpt>
      <trkpt lat="51.997819" lon="9.084963">
        <ele>163.834358</ele>
        <time>2024-10-22T09:21:30.914Z</time>
      </trkpt>
      <trkpt lat="51.997692" lon="9.085500">
        <ele>163.677861</ele>
        <time>2024-10-22T09:21:39.493Z</time>
      </trkpt>
      <trkpt lat="51.997225" lon="9.087189">
        <ele>163.146495</ele>
        <time>2024-10-22T09:22:06.184Z</time>
      </trkpt>
      <trkpt lat="51.997157" lon="9.087293">
        <ele>163.097707</ele>
        <time>2024-10-22T09:22:08.420Z</time>
      </trkpt>
      <trkpt lat="51.996170" lon="9.090822">
        <ele>162.424511</ele>
        <time>2024-10-22T09:23:08.198Z</time>
      </trkpt>
      <trkpt lat="51.995916" lon="9.091754">
        <ele>162.447744</ele>
        <time>2024-10-22T09:23:26.801Z</time>
      </trkpt>
      <trkpt lat="51.995896" lon="9.091950">
        <ele>162.452272</ele>
        <time>2024-10-22T09:23:30.417Z</time>
      </trkpt>
      <trkpt lat="51.995790" lon="9.092312">
        <ele>162.496011</ele>
        <time>2024-10-22T09:23:37.691Z</time>
      </trkpt>
      <trkpt lat="51.995740" lon="9.092479">
        <ele>162.517979</ele>
        <time>2024-10-22T09:23:41.076Z</time>
      </trkpt>
      <trkpt lat="51.995502" lon="9.093305">
        <ele>162.625866</ele>
        <time>2024-10-22T09:23:56.818Z</time>
      </trkpt>
      <trkpt lat="51.995443" lon="9.093764">
        <ele>162.681337</ele>
        <time>2024-10-22T09:24:04.450Z</time>
      </trkpt>
      <trkpt lat="51.995420" lon="9.094150">
        <ele>162.727215</ele>
        <time>2024-10-22T09:24:10.511Z</time>
      </trkpt>
      <trkpt lat="51.995391" lon="9.094793">
        <ele>162.833321</ele>
        <time>2024-10-22T09:24:20.595Z</time>
      </trkpt>
      <trkpt lat="51.995361" lon="9.094928">
        <ele>162.956833</ele>
        <time>2024-10-22T09:24:22.925Z</time>
      </trkpt>
      <trkpt lat="51.995329" lon="9.094997">
        <ele>163.031171</ele>
        <time>2024-10-22T09:24:24.307Z</time>
      </trkpt>
      <trkpt lat="51.995144" lon="9.095196">
        <ele>163.341306</ele>
        <time>2024-10-22T09:24:30.441Z</time>
      </trkpt>
      <trkpt lat="51.995030" lon="9.095219">
        <ele>163.501863</ele>
        <time>2024-10-22T09:24:34.030Z</time>
      </trkpt>
      <trkpt lat="51.994934" lon="9.095441">
        <ele>163.735320</ele>
        <time>2024-10-22T09:24:39.357Z</time>
      </trkpt>
      <trkpt lat="51.994679" lon="9.095884">
        <ele>164.257204</ele>
        <time>2024-10-22T09:24:52.163Z</time>
      </trkpt>
      <trkpt lat="51.994412" lon="9.096133">
        <ele>164.687525</ele>
        <time>2024-10-22T09:25:03.544Z</time>
      </trkpt>
      <trkpt lat="51.994278" lon="9.096428">
        <ele>165.003005</ele>
        <time>2024-10-22T09:25:12.238Z</time>
      </trkpt>
      <trkpt lat="51.994066" lon="9.096910">
        <ele>165.541611</ele>
        <time>2024-10-22T09:25:26.283Z</time>
      </trkpt>
      <trkpt lat="51.993864" lon="9.097173">
        <ele>165.955604</ele>
        <time>2024-10-22T09:25:36.082Z</time>
      </trkpt>
      <trkpt lat="51.993810" lon="9.097330">
        <ele>166.132669</ele>
        <time>2024-10-22T09:25:40.188Z</time>
      </trkpt>
      <trkpt lat="51.993779" lon="9.097421">
        <ele>166.235067</ele>
        <time>2024-10-22T09:25:42.594Z</time>
      </trkpt>
      <trkpt lat="51.993245" lon="9.098418">
        <ele>167.536141</ele>
        <time>2024-10-22T09:26:10.213Z</time>
      </trkpt>
      <trkpt lat="51.992209" lon="9.102245">
        <ele>170.406595</ele>
        <time>2024-10-22T09:27:29.288Z</time>
      </trkpt>
      <trkpt lat="51.991988" lon="9.102923">
        <ele>171.204581</ele>
        <time>2024-10-22T09:27:46.142Z</time>
      </trkpt>
      <trkpt lat="51.991898" lon="9.103141">
        <ele>171.477600</ele>
        <time>2024-10-22T09:27:51.959Z</time>
      </trkpt>
      <trkpt lat="51.991780" lon="9.103302">
        <ele>171.737953</ele>
        <time>2024-10-22T09:27:57.602Z</time>
      </trkpt>
      <trkpt lat="51.991690" lon="9.103530">
        <ele>172.019672</ele>
        <time>2024-10-22T09:28:03.727Z</time>
      </trkpt>
      <trkpt lat="51.991389" lon="9.103983">
        <ele>172.712928</ele>
        <time>2024-10-22T09:28:18.997Z</time>
      </trkpt>
      <trkpt lat="51.991209" lon="9.103768">
        <ele>172.975796</ele>
        <time>2024-10-22T09:28:27.170Z</time>
      </trkpt>
      <trkpt lat="51.990845" lon="9.105023">
        <ele>173.797344</ele>
        <time>2024-10-22T09:28:56.666Z</time>
      </trkpt>
      <trkpt lat="51.990783" lon="9.105182">
        <ele>173.908798</ele>
        <time>2024-10-22T09:28:59.898Z</time>
      </trkpt>
      <trkpt lat="51.990689" lon="9.105432">
        <ele>174.082271</ele>
        <time>2024-10-22T09:29:04.728Z</time>
      </trkpt>
      <trkpt lat="51.990965" lon="9.105772">
        <ele>174.415438</ele>
        <time>2024-10-22T09:29:13.977Z</time>
      </trkpt>
      <trkpt lat="51.990352" lon="9.106091">
        <ele>174.688326</ele>
        <time>2024-10-22T09:29:31.326Z</time>
      </trkpt>
      <trkpt lat="51.990225" lon="9.106172">
        <ele>174.724985</ele>
        <time>2024-10-22T09:29:37.451Z</time>
      </trkpt>
      <trkpt lat="51.990044" lon="9.106521">
        <ele>174.800478</ele>
        <time>2024-10-22T09:29:49.785Z</time>
      </trkpt>
      <trkpt lat="51.989637" lon="9.108038">
        <ele>175.190327</ele>
        <time>2024-10-22T09:30:37.171Z</time>
      </trkpt>
      <trkpt lat="51.989587" lon="9.108222">
        <ele>175.328331</ele>
        <time>2024-10-22T09:30:43.542Z</time>
      </trkpt>
      <trkpt lat="51.989397" lon="9.108728">
        <ele>175.734995</ele>
        <time>2024-10-22T09:31:02.417Z</time>
      </trkpt>
      <trkpt lat="51.989080" lon="9.109175">
        <ele>176.202809</ele>
        <time>2024-10-22T09:31:23.690Z</time>
      </trkpt>
      <trkpt lat="51.988864" lon="9.109858">
        <ele>176.729666</ele>
        <time>2024-10-22T09:31:47.776Z</time>
      </trkpt>
      <trkpt lat="51.988751" lon="9.110548">
        <ele>177.078225</ele>
        <time>2024-10-22T09:32:10.136Z</time>
      </trkpt>
      <trkpt lat="51.988609" lon="9.110867">
        <ele>177.133835</ele>
        <time>2024-10-22T09:32:21.701Z</time>
      </trkpt>
      <trkpt lat="51.988518" lon="9.111758">
        <ele>177.261435</ele>
        <time>2024-10-22T09:32:45.867Z</time>
      </trkpt>
      <trkpt lat="51.988502" lon="9.112136">
        <ele>177.314965</ele>
        <time>2024-10-22T09:32:55.993Z</time>
      </trkpt>
      <trkpt lat="51.988444" lon="9.112239">
        <ele>177.334684</ele>
        <time>2024-10-22T09:32:59.781Z</time>
      </trkpt>
      <trkpt lat="51.988307" lon="9.112247">
        <ele>177.366134</ele>
        <time>2024-10-22T09:33:05.841Z</time>
      </trkpt>
      <trkpt lat="51.988047" lon="9.112179">
        <ele>177.426552</ele>
        <time>2024-10-22T09:33:17.545Z</time>
      </trkpt>
      <trkpt lat="51.987988" lon="9.112166">
        <ele>177.440212</ele>
        <time>2024-10-22T09:33:20.204Z</time>
      </trkpt>
      <trkpt lat="51.987925" lon="9.112148">
        <ele>177.456721</ele>
        <time>2024-10-22T09:33:23.077Z</time>
      </trkpt>
      <trkpt lat="51.987874" lon="9.112150">
        <ele>177.500341</ele>
        <time>2024-10-22T09:33:25.324Z</time>
      </trkpt>
      <trkpt lat="51.987909" lon="9.112750">
        <ele>177.817693</ele>
        <time>2024-10-22T09:33:35.497Z</time>
      </trkpt>
      <trkpt lat="51.987928" lon="9.113277">
        <ele>178.095666</ele>
        <time>2024-10-22T09:33:44.536Z</time>
      </trkpt>
      <trkpt lat="51.987862" lon="9.114330">
        <ele>178.653000</ele>
        <time>2024-10-22T09:34:05.693Z</time>
      </trkpt>
      <trkpt lat="51.987698" lon="9.115348">
        <ele>179.461843</ele>
        <time>2024-10-22T09:34:27.901Z</time>
      </trkpt>
      <trkpt lat="51.987792" lon="9.115347">
        <ele>179.637487</ele>
        <time>2024-10-22T09:34:31.271Z</time>
      </trkpt>
      <trkpt lat="51.987829" lon="9.115339">
        <ele>179.707232</ele>
        <time>2024-10-22T09:34:32.593Z</time>
      </trkpt>
      <trkpt lat="51.987798" lon="9.115618">
        <ele>180.033456</ele>
        <time>2024-10-22T09:34:40.372Z</time>
      </trkpt>
      <trkpt lat="51.987747" lon="9.115853">
        <ele>180.320167</ele>
        <time>2024-10-22T09:34:47.308Z</time>
      </trkpt>
      <trkpt lat="51.987742" lon="9.116025">
        <ele>180.518306</ele>
        <time>2024-10-22T09:34:52.065Z</time>
      </trkpt>
      <trkpt lat="51.987782" lon="9.116225">
        <ele>180.760275</ele>
        <time>2024-10-22T09:34:57.883Z</time>
      </trkpt>
      <trkpt lat="51.987920" lon="9.116462">
        <ele>181.135589</ele>
        <time>2024-10-22T09:35:06.895Z</time>
      </trkpt>
      <trkpt lat="51.988007" lon="9.116612">
        <ele>181.372692</ele>
        <time>2024-10-22T09:35:12.557Z</time>
      </trkpt>
      <trkpt lat="51.988024" lon="9.116887">
        <ele>181.690719</ele>
        <time>2024-10-22T09:35:20.105Z</time>
      </trkpt>
      <trkpt lat="51.988056" lon="9.117423">
        <ele>182.310374</ele>
        <time>2024-10-22T09:35:34.878Z</time>
      </trkpt>
      <trkpt lat="51.988094" lon="9.117669">
        <ele>182.507380</ele>
        <time>2024-10-22T09:35:41.877Z</time>
      </trkpt>
      <trkpt lat="51.988168" lon="9.118157">
        <ele>182.865690</ele>
        <time>2024-10-22T09:35:55.338Z</time>
      </trkpt>
      <trkpt lat="51.988114" lon="9.118577">
        <ele>183.171584</ele>
        <time>2024-10-22T09:36:06.351Z</time>
      </trkpt>
      <trkpt lat="51.988201" lon="9.118590">
        <ele>183.272730</ele>
        <time>2024-10-22T09:36:09.951Z</time>
      </trkpt>
      <trkpt lat="51.988196" lon="9.118657">
        <ele>183.320847</ele>
        <time>2024-10-22T09:36:11.312Z</time>
      </trkpt>
      <trkpt lat="51.988205" lon="9.121078">
        <ele>185.014523</ele>
        <time>2024-10-22T09:36:57.975Z</time>
      </trkpt>
      <trkpt lat="51.988213" lon="9.121425">
        <ele>185.248976</ele>
        <time>2024-10-22T09:37:04.861Z</time>
      </trkpt>
      <trkpt lat="51.988279" lon="9.121641">
        <ele>185.411782</ele>
        <time>2024-10-22T09:37:09.730Z</time>
      </trkpt>
      <trkpt lat="51.988189" lon="9.121754">
        <ele>185.536513</ele>
        <time>2024-10-22T09:37:13.469Z</time>
      </trkpt>
      <trkpt lat="51.987755" lon="9.122386">
        <ele>186.175660</ele>
        <time>2024-10-22T09:37:32.909Z</time>
      </trkpt>
      <trkpt lat="51.987680" lon="9.122450">
        <ele>186.268553</ele>
        <time>2024-10-22T09:37:35.752Z</time>
      </trkpt>
      <trkpt lat="51.987418" lon="9.122647">
        <ele>186.651333</ele>
        <time>2024-10-22T09:37:45.084Z</time>
      </trkpt>
      <trkpt lat="51.987112" lon="9.122799">
        <ele>187.132811</ele>
        <time>2024-10-22T09:37:54.923Z</time>
      </trkpt>
      <trkpt lat="51.986897" lon="9.122836">
        <ele>187.458119</ele>
        <time>2024-10-22T09:38:01.809Z</time>
      </trkpt>
      <trkpt lat="51.986455" lon="9.122841">
        <ele>188.123183</ele>
        <time>2024-10-22T09:38:16.403Z</time>
      </trkpt>
      <trkpt lat="51.986276" lon="9.122862">
        <ele>188.393215</ele>
        <time>2024-10-22T09:38:22.445Z</time>
      </trkpt>
      <trkpt lat="51.986179" lon="9.122928">
        <ele>188.551460</ele>
        <time>2024-10-22T09:38:26.050Z</time>
      </trkpt>
      <trkpt lat="51.986081" lon="9.123162">
        <ele>188.813679</ele>
        <time>2024-10-22T09:38:32.210Z</time>
      </trkpt>
      <trkpt lat="51.985824" lon="9.124077">
        <ele>190.345767</ele>
        <time>2024-10-22T09:38:56.133Z</time>
      </trkpt>
      <trkpt lat="51.985729" lon="9.124548">
        <ele>191.241167</ele>
        <time>2024-10-22T09:39:09.417Z</time>
      </trkpt>
      <trkpt lat="51.985646" lon="9.125187">
        <ele>192.421007</ele>
        <time>2024-10-22T09:39:28.004Z</time>
      </trkpt>
      <trkpt lat="51.985613" lon="9.125871">
        <ele>193.660537</ele>
        <time>2024-10-22T09:39:46.942Z</time>
      </trkpt>
      <trkpt lat="51.985584" lon="9.126622">
        <ele>194.608869</ele>
        <time>2024-10-22T09:40:06.163Z</time>
      </trkpt>
      <trkpt lat="51.985538" lon="9.127048">
        <ele>194.880382</ele>
        <time>2024-10-22T09:40:16.345Z</time>
      </trkpt>
      <trkpt lat="51.985465" lon="9.127141">
        <ele>194.974965</ele>
        <time>2024-10-22T09:40:19.736Z</time>
      </trkpt>
      <trkpt lat="51.984692" lon="9.127168">
        <ele>195.763108</ele>
        <time>2024-10-22T09:40:44.309Z</time>
      </trkpt>
      <trkpt lat="51.984372" lon="9.127255">
        <ele>196.093842</ele>
        <time>2024-10-22T09:40:52.900Z</time>
      </trkpt>
      <trkpt lat="51.984239" lon="9.127327">
        <ele>196.215099</ele>
        <time>2024-10-22T09:40:56.401Z</time>
      </trkpt>
      <trkpt lat="51.984165" lon="9.127417">
        <ele>196.156648</ele>
        <time>2024-10-22T09:40:58.689Z</time>
      </trkpt>
      <trkpt lat="51.984081" lon="9.127598">
        <ele>196.068406</ele>
        <time>2024-10-22T09:41:02.102Z</time>
      </trkpt>
      <trkpt lat="51.983819" lon="9.128516">
        <ele>195.674462</ele>
        <time>2024-10-22T09:41:16.977Z</time>
      </trkpt>
      <trkpt lat="51.983696" lon="9.128770">
        <ele>195.548656</ele>
        <time>2024-10-22T09:41:21.777Z</time>
      </trkpt>
      <trkpt lat="51.983357" lon="9.129321">
        <ele>195.245411</ele>
        <time>2024-10-22T09:41:33.733Z</time>
      </trkpt>
      <trkpt lat="51.983294" lon="9.129496">
        <ele>195.166486</ele>
        <time>2024-10-22T09:41:37.007Z</time>
      </trkpt>
      <trkpt lat="51.982759" lon="9.130173">
        <ele>195.536749</ele>
        <time>2024-10-22T09:41:55.418Z</time>
      </trkpt>
      <trkpt lat="51.982438" lon="9.131759">
        <ele>196.376657</ele>
        <time>2024-10-22T09:42:27.761Z</time>
      </trkpt>
      <trkpt lat="51.981691" lon="9.131338">
        <ele>197.990376</ele>
        <time>2024-10-22T09:42:55.937Z</time>
      </trkpt>
      <trkpt lat="51.981241" lon="9.132713">
        <ele>200.397137</ele>
        <time>2024-10-22T09:43:33.632Z</time>
      </trkpt>
      <trkpt lat="51.980573" lon="9.134751">
        <ele>205.039557</ele>
        <time>2024-10-22T09:44:35.895Z</time>
      </trkpt>
      <trkpt lat="51.980470" lon="9.135448">
        <ele>206.558355</ele>
        <time>2024-10-22T09:44:55.465Z</time>
      </trkpt>
      <trkpt lat="51.980242" lon="9.136121">
        <ele>207.880719</ele>
        <time>2024-10-22T09:45:15.544Z</time>
      </trkpt>
      <trkpt lat="51.980187" lon="9.136313">
        <ele>208.181981</ele>
        <time>2024-10-22T09:45:20.990Z</time>
      </trkpt>
      <trkpt lat="51.980142" lon="9.136284">
        <ele>208.293815</ele>
        <time>2024-10-22T09:45:22.899Z</time>
      </trkpt>
      <trkpt lat="51.980106" lon="9.136465">
        <ele>208.564424</ele>
        <time>2024-10-22T09:45:27.747Z</time>
      </trkpt>
      <trkpt lat="51.980103" lon="9.136764">
        <ele>208.989879</ele>
        <time>2024-10-22T09:45:35.087Z</time>
      </trkpt>
      <trkpt lat="51.979827" lon="9.138558">
        <ele>211.487530</ele>
        <time>2024-10-22T09:46:16.026Z</time>
      </trkpt>
      <trkpt lat="51.979667" lon="9.139592">
        <ele>212.037561</ele>
        <time>2024-10-22T09:46:35.989Z</time>
      </trkpt>
      <trkpt lat="51.979556" lon="9.140313">
        <ele>212.420979</ele>
        <time>2024-10-22T09:46:49.459Z</time>
      </trkpt>
      <trkpt lat="51.979510" lon="9.140631">
        <ele>212.589504</ele>
        <time>2024-10-22T09:46:55.297Z</time>
      </trkpt>
      <trkpt lat="51.979393" lon="9.141371">
        <ele>212.975065</ele>
        <time>2024-10-22T09:47:08.896Z</time>
      </trkpt>
      <trkpt lat="51.979358" lon="9.141599">
        <ele>213.080346</ele>
        <time>2024-10-22T09:47:13.116Z</time>
      </trkpt>
      <trkpt lat="51.978800" lon="9.145253">
        <ele>215.217555</ele>
        <time>2024-10-22T09:48:23.923Z</time>
      </trkpt>
      <trkpt lat="51.978784" lon="9.145373">
        <ele>215.318420</ele>
        <time>2024-10-22T09:48:26.265Z</time>
      </trkpt>
      <trkpt lat="51.978654" lon="9.146197">
        <ele>216.017208</ele>
        <time>2024-10-22T09:48:43.313Z</time>
      </trkpt>
      <trkpt lat="51.978105" lon="9.149715">
        <ele>220.686867</ele>
        <time>2024-10-22T09:50:07.945Z</time>
      </trkpt>
      <trkpt lat="51.977935" lon="9.150808">
        <ele>222.005420</ele>
        <time>2024-10-22T09:50:33.891Z</time>
      </trkpt>
      <trkpt lat="51.977758" lon="9.151936">
        <ele>223.359017</ele>
        <time>2024-10-22T09:50:58.613Z</time>
      </trkpt>
      <trkpt lat="51.977586" lon="9.153064">
        <ele>224.665963</ele>
        <time>2024-10-22T09:51:23.184Z</time>
      </trkpt>
      <trkpt lat="51.977365" lon="9.154495">
        <ele>226.251132</ele>
        <time>2024-10-22T09:51:54.558Z</time>
      </trkpt>
      <trkpt lat="51.977312" lon="9.154855">
        <ele>226.648840</ele>
        <time>2024-10-22T09:52:02.871Z</time>
      </trkpt>
      <trkpt lat="51.977176" lon="9.155722">
        <ele>227.609814</ele>
        <time>2024-10-22T09:52:23.386Z</time>
      </trkpt>
      <trkpt lat="51.976823" lon="9.157995">
        <ele>230.126117</ele>
        <time>2024-10-22T09:53:14.539Z</time>
      </trkpt>
      <trkpt lat="51.976684" lon="9.159029">
        <ele>231.006640</ele>
        <time>2024-10-22T09:53:34.943Z</time>
      </trkpt>
      <trkpt lat="51.976635" lon="9.159547">
        <ele>231.402715</ele>
        <time>2024-10-22T09:53:44.978Z</time>
      </trkpt>
      <trkpt lat="51.976582" lon="9.160235">
        <ele>231.926731</ele>
        <time>2024-10-22T09:53:58.395Z</time>
      </trkpt>
      <trkpt lat="51.976537" lon="9.161796">
        <ele>233.368030</ele>
        <time>2024-10-22T09:54:31.107Z</time>
      </trkpt>
      <trkpt lat="51.976479" lon="9.164616">
        <ele>237.102870</ele>
        <time>2024-10-22T09:55:33.404Z</time>
      </trkpt>
      <trkpt lat="51.976414" lon="9.165545">
        <ele>238.997053</ele>
        <time>2024-10-22T09:55:57.836Z</time>
      </trkpt>
      <trkpt lat="51.976380" lon="9.165966">
        <ele>239.857267</ele>
        <time>2024-10-22T09:56:09.687Z</time>
      </trkpt>
      <trkpt lat="51.976168" lon="9.167139">
        <ele>242.297498</ele>
        <time>2024-10-22T09:56:45.604Z</time>
      </trkpt>
      <trkpt lat="51.975546" lon="9.169674">
        <ele>247.391293</ele>
        <time>2024-10-22T09:57:54.617Z</time>
      </trkpt>
      <trkpt lat="51.975023" lon="9.169408">
        <ele>249.056661</ele>
        <time>2024-10-22T09:58:13.219Z</time>
      </trkpt>
      <trkpt lat="51.974818" lon="9.169325">
        <ele>249.698659</ele>
        <time>2024-10-22T09:58:20.745Z</time>
      </trkpt>
      <trkpt lat="51.974767" lon="9.169319">
        <ele>249.854035</ele>
        <time>2024-10-22T09:58:22.596Z</time>
      </trkpt>
      <trkpt lat="51.974670" lon="9.169308">
        <ele>250.149500</ele>
        <time>2024-10-22T09:58:26.128Z</time>
      </trkpt>
      <trkpt lat="51.972329" lon="9.169595">
        <ele>257.524998</ele>
        <time>2024-10-22T10:00:15.242Z</time>
      </trkpt>
      <trkpt lat="51.972006" lon="9.169676">
        <ele>258.531536</ele>
        <time>2024-10-22T10:00:26.400Z</time>
      </trkpt>
      <trkpt lat="51.971760" lon="9.169797">
        <ele>258.032351</ele>
        <time>2024-10-22T10:00:33.697Z</time>
      </trkpt>
      <trkpt lat="51.970228" lon="9.170859">
        <ele>254.296968</ele>
        <time>2024-10-22T10:01:07.234Z</time>
      </trkpt>
      <trkpt lat="51.969917" lon="9.170984">
        <ele>252.460783</ele>
        <time>2024-10-22T10:01:13.232Z</time>
      </trkpt>
      <trkpt lat="51.969536" lon="9.171016">
        <ele>250.274333</ele>
        <time>2024-10-22T10:01:20.063Z</time>
      </trkpt>
      <trkpt lat="51.969356" lon="9.171024">
        <ele>249.242357</ele>
        <time>2024-10-22T10:01:23.211Z</time>
      </trkpt>
      <trkpt lat="51.968943" lon="9.171051">
        <ele>246.873516</ele>
        <time>2024-10-22T10:01:30.320Z</time>
      </trkpt>
      <trkpt lat="51.968592" lon="9.171029">
        <ele>244.860419</ele>
        <time>2024-10-22T10:01:36.247Z</time>
      </trkpt>
      <trkpt lat="51.968385" lon="9.170906">
        <ele>243.475503</ele>
        <time>2024-10-22T10:01:39.995Z</time>
      </trkpt>
      <trkpt lat="51.968118" lon="9.170677">
        <ele>241.561582</ele>
        <time>2024-10-22T10:01:45.154Z</time>
      </trkpt>
      <trkpt lat="51.968009" lon="9.170665">
        <ele>240.869173</ele>
        <time>2024-10-22T10:01:47.006Z</time>
      </trkpt>
      <trkpt lat="51.967913" lon="9.170705">
        <ele>240.241014</ele>
        <time>2024-10-22T10:01:48.692Z</time>
      </trkpt>
      <trkpt lat="51.967642" lon="9.171019">
        <ele>238.130734</ele>
        <time>2024-10-22T10:01:54.384Z</time>
      </trkpt>
      <trkpt lat="51.967459" lon="9.171192">
        <ele>236.788526</ele>
        <time>2024-10-22T10:01:58.101Z</time>
      </trkpt>
      <trkpt lat="51.967341" lon="9.171239">
        <ele>236.018474</ele>
        <time>2024-10-22T10:02:00.269Z</time>
      </trkpt>
      <trkpt lat="51.967272" lon="9.171229">
        <ele>235.579425</ele>
        <time>2024-10-22T10:02:01.522Z</time>
      </trkpt>
      <trkpt lat="51.967163" lon="9.171410">
        <ele>234.591113</ele>
        <time>2024-10-22T10:02:04.347Z</time>
      </trkpt>
      <trkpt lat="51.967130" lon="9.171902">
        <ele>233.090584</ele>
        <time>2024-10-22T10:02:09.952Z</time>
      </trkpt>
      <trkpt lat="51.967043" lon="9.172503">
        <ele>232.194691</ele>
        <time>2024-10-22T10:02:17.209Z</time>
      </trkpt>
      <trkpt lat="51.966980" lon="9.172650">
        <ele>231.934837</ele>
        <time>2024-10-22T10:02:19.381Z</time>
      </trkpt>
      <trkpt lat="51.966804" lon="9.172823">
        <ele>231.450204</ele>
        <time>2024-10-22T10:02:23.518Z</time>
      </trkpt>
      <trkpt lat="51.966579" lon="9.173021">
        <ele>230.847372</ele>
        <time>2024-10-22T10:02:28.990Z</time>
      </trkpt>
      <trkpt lat="51.966135" lon="9.173512">
        <ele>229.581936</ele>
        <time>2024-10-22T10:02:41.753Z</time>
      </trkpt>
      <trkpt lat="51.965953" lon="9.173832">
        <ele>228.976325</ele>
        <time>2024-10-22T10:02:48.185Z</time>
      </trkpt>
      <trkpt lat="51.965848" lon="9.174117">
        <ele>228.574016</ele>
        <time>2024-10-22T10:02:52.894Z</time>
      </trkpt>
      <trkpt lat="51.965733" lon="9.175037">
        <ele>227.436694</ele>
        <time>2024-10-22T10:03:06.004Z</time>
      </trkpt>
      <trkpt lat="51.965782" lon="9.175971">
        <ele>226.301023</ele>
        <time>2024-10-22T10:03:18.065Z</time>
      </trkpt>
      <trkpt lat="51.965773" lon="9.176199">
        <ele>226.024226</ele>
        <time>2024-10-22T10:03:20.818Z</time>
      </trkpt>
      <trkpt lat="51.965560" lon="9.177998">
        <ele>222.749227</ele>
        <time>2024-10-22T10:03:42.499Z</time>
      </trkpt>
      <trkpt lat="51.965535" lon="9.178105">
        <ele>222.527814</ele>
        <time>2024-10-22T10:03:43.878Z</time>
      </trkpt>
      <trkpt lat="51.965323" lon="9.178987">
        <ele>220.696022</ele>
        <time>2024-10-22T10:03:55.375Z</time>
      </trkpt>
      <trkpt lat="51.965159" lon="9.179625">
        <ele>219.451156</ele>
        <time>2024-10-22T10:04:03.996Z</time>
      </trkpt>
      <trkpt lat="51.964846" lon="9.181242">
        <ele>216.708622</ele>
        <time>2024-10-22T10:04:25.128Z</time>
      </trkpt>
      <trkpt lat="51.964855" lon="9.181430">
        <ele>216.403503</ele>
        <time>2024-10-22T10:04:27.527Z</time>
      </trkpt>
      <trkpt lat="51.964716" lon="9.182615">
        <ele>214.276022</ele>
        <time>2024-10-22T10:04:42.684Z</time>
      </trkpt>
      <trkpt lat="51.964699" lon="9.182977">
        <ele>213.550939</ele>
        <time>2024-10-22T10:04:47.052Z</time>
      </trkpt>
      <trkpt lat="51.964715" lon="9.183545">
        <ele>212.415344</ele>
        <time>2024-10-22T10:04:53.737Z</time>
      </trkpt>
      <trkpt lat="51.964825" lon="9.184348">
        <ele>210.772435</ele>
        <time>2024-10-22T10:05:03.342Z</time>
      </trkpt>
      <trkpt lat="51.964923" lon="9.185151">
        <ele>209.314113</ele>
        <time>2024-10-22T10:05:14.333Z</time>
      </trkpt>
      <trkpt lat="51.964933" lon="9.185536">
        <ele>209.126795</ele>
        <time>2024-10-22T10:05:19.682Z</time>
      </trkpt>
      <trkpt lat="51.964890" lon="9.186183">
        <ele>208.810460</ele>
        <time>2024-10-22T10:05:29.491Z</time>
      </trkpt>
      <trkpt lat="51.964877" lon="9.186968">
        <ele>208.428728</ele>
        <time>2024-10-22T10:05:43.795Z</time>
      </trkpt>
      <trkpt lat="51.965015" lon="9.187131">
        <ele>208.294073</ele>
        <time>2024-10-22T10:05:49.752Z</time>
      </trkpt>
      <trkpt lat="51.964994" lon="9.187672">
        <ele>208.030569</ele>
        <time>2024-10-22T10:06:01.693Z</time>
      </trkpt>
      <trkpt lat="51.965100" lon="9.188677">
        <ele>206.680006</ele>
        <time>2024-10-22T10:06:21.496Z</time>
      </trkpt>
      <trkpt lat="51.965095" lon="9.189160">
        <ele>205.963705</ele>
        <time>2024-10-22T10:06:29.088Z</time>
      </trkpt>
      <trkpt lat="51.965117" lon="9.189609">
        <ele>205.295818</ele>
        <time>2024-10-22T10:06:35.400Z</time>
      </trkpt>
      <trkpt lat="51.964970" lon="9.189941">
        <ele>204.689592</ele>
        <time>2024-10-22T10:06:40.773Z</time>
      </trkpt>
      <trkpt lat="51.964929" lon="9.190114">
        <ele>204.414742</ele>
        <time>2024-10-22T10:06:43.152Z</time>
      </trkpt>
      <trkpt lat="51.964911" lon="9.190638">
        <ele>203.636536</ele>
        <time>2024-10-22T10:06:49.683Z</time>
      </trkpt>
      <trkpt lat="51.964536" lon="9.191952">
        <ele>198.702308</ele>
        <time>2024-10-22T10:07:07.313Z</time>
      </trkpt>
      <trkpt lat="51.964437" lon="9.192836">
        <ele>195.630053</ele>
        <time>2024-10-22T10:07:18.209Z</time>
      </trkpt>
      <trkpt lat="51.964318" lon="9.193342">
        <ele>193.778093</ele>
        <time>2024-10-22T10:07:25.016Z</time>
      </trkpt>
      <trkpt lat="51.964101" lon="9.194568">
        <ele>192.065254</ele>
        <time>2024-10-22T10:07:42.769Z</time>
      </trkpt>
      <trkpt lat="51.964049" lon="9.194661">
        <ele>191.905052</ele>
        <time>2024-10-22T10:07:44.719Z</time>
      </trkpt>
      <trkpt lat="51.964043" lon="9.194861">
        <ele>191.649617</ele>
        <time>2024-10-22T10:07:47.707Z</time>
      </trkpt>
      <trkpt lat="51.964019" lon="9.195124">
        <ele>191.310459</ele>
        <time>2024-10-22T10:07:52.047Z</time>
      </trkpt>
      <trkpt lat="51.963613" lon="9.196557">
        <ele>189.076825</ele>
        <time>2024-10-22T10:08:18.414Z</time>
      </trkpt>
      <trkpt lat="51.963587" lon="9.196953">
        <ele>188.386990</ele>
        <time>2024-10-22T10:08:24.236Z</time>
      </trkpt>
      <trkpt lat="51.963485" lon="9.197575">
        <ele>187.272055</ele>
        <time>2024-10-22T10:08:33.183Z</time>
      </trkpt>
      <trkpt lat="51.963410" lon="9.197876">
        <ele>186.709643</ele>
        <time>2024-10-22T10:08:37.569Z</time>
      </trkpt>
      <trkpt lat="51.963173" lon="9.198824">
        <ele>184.937488</ele>
        <time>2024-10-22T10:08:50.929Z</time>
      </trkpt>
      <trkpt lat="51.962895" lon="9.198826">
        <ele>183.910553</ele>
        <time>2024-10-22T10:08:56.825Z</time>
      </trkpt>
      <trkpt lat="51.962491" lon="9.198962">
        <ele>182.347022</ele>
        <time>2024-10-22T10:09:05.580Z</time>
      </trkpt>
      <trkpt lat="51.962277" lon="9.199230">
        <ele>181.322703</ele>
        <time>2024-10-22T10:09:11.364Z</time>
      </trkpt>
      <trkpt lat="51.962119" lon="9.199597">
        <ele>180.277315</ele>
        <time>2024-10-22T10:09:17.327Z</time>
      </trkpt>
      <trkpt lat="51.961983" lon="9.200296">
        <ele>178.565715</ele>
        <time>2024-10-22T10:09:27.044Z</time>
      </trkpt>
      <trkpt lat="51.961889" lon="9.202212">
        <ele>174.530063</ele>
        <time>2024-10-22T10:09:53.244Z</time>
      </trkpt>
      <trkpt lat="51.961820" lon="9.203082">
        <ele>172.715379</ele>
        <time>2024-10-22T10:10:05.481Z</time>
      </trkpt>
      <trkpt lat="51.961581" lon="9.204475">
        <ele>169.352595</ele>
        <time>2024-10-22T10:10:24.238Z</time>
      </trkpt>
      <trkpt lat="51.961241" lon="9.205657">
        <ele>166.214941</ele>
        <time>2024-10-22T10:10:41.251Z</time>
      </trkpt>
      <trkpt lat="51.961101" lon="9.206046">
        <ele>165.131348</ele>
        <time>2024-10-22T10:10:47.282Z</time>
      </trkpt>
      <trkpt lat="51.960997" lon="9.206240">
        <ele>164.644325</ele>
        <time>2024-10-22T10:10:50.715Z</time>
      </trkpt>
      <trkpt lat="51.960847" lon="9.206426">
        <ele>164.112472</ele>
        <time>2024-10-22T10:10:54.884Z</time>
      </trkpt>
      <trkpt lat="51.960584" lon="9.206611">
        <ele>163.304888</ele>
        <time>2024-10-22T10:11:01.451Z</time>
      </trkpt>
      <trkpt lat="51.960235" lon="9.206674">
        <ele>162.315556</ele>
        <time>2024-10-22T10:11:09.913Z</time>
      </trkpt>
      <trkpt lat="51.959228" lon="9.206614">
        <ele>159.346180</ele>
        <time>2024-10-22T10:11:32.893Z</time>
      </trkpt>
      <trkpt lat="51.959059" lon="9.206637">
        <ele>158.727262</ele>
        <time>2024-10-22T10:11:36.524Z</time>
      </trkpt>
      <trkpt lat="51.958927" lon="9.206713">
        <ele>158.216116</ele>
        <time>2024-10-22T10:11:39.512Z</time>
      </trkpt>
      <trkpt lat="51.958793" lon="9.206857">
        <ele>157.629588</ele>
        <time>2024-10-22T10:11:42.936Z</time>
      </trkpt>
      <trkpt lat="51.958693" lon="9.207001">
        <ele>157.141679</ele>
        <time>2024-10-22T10:11:45.787Z</time>
      </trkpt>
      <trkpt lat="51.958430" lon="9.207524">
        <ele>155.623590</ele>
        <time>2024-10-22T10:11:54.650Z</time>
      </trkpt>
      <trkpt lat="51.958331" lon="9.207875">
        <ele>154.755472</ele>
        <time>2024-10-22T10:11:59.756Z</time>
      </trkpt>
      <trkpt lat="51.958190" lon="9.208595">
        <ele>153.101326</ele>
        <time>2024-10-22T10:12:09.781Z</time>
      </trkpt>
      <trkpt lat="51.958141" lon="9.208990">
        <ele>152.331853</ele>
        <time>2024-10-22T10:12:15.159Z</time>
      </trkpt>
      <trkpt lat="51.958137" lon="9.209257">
        <ele>151.821807</ele>
        <time>2024-10-22T10:12:18.802Z</time>
      </trkpt>
      <trkpt lat="51.958269" lon="9.211249">
        <ele>147.995714</ele>
        <time>2024-10-22T10:12:46.639Z</time>
      </trkpt>
      <trkpt lat="51.958260" lon="9.211854">
        <ele>147.144118</ele>
        <time>2024-10-22T10:12:54.999Z</time>
      </trkpt>
      <trkpt lat="51.958141" lon="9.212473">
        <ele>146.306482</ele>
        <time>2024-10-22T10:13:03.909Z</time>
      </trkpt>
      <trkpt lat="51.957866" lon="9.213910">
        <ele>144.362698</ele>
        <time>2024-10-22T10:13:26.202Z</time>
      </trkpt>
      <trkpt lat="51.957783" lon="9.214131">
        <ele>144.028365</ele>
        <time>2024-10-22T10:13:30.396Z</time>
      </trkpt>
      <trkpt lat="51.957345" lon="9.215407">
        <ele>143.271676</ele>
        <time>2024-10-22T10:13:52.158Z</time>
      </trkpt>
      <trkpt lat="51.957174" lon="9.215836">
        <ele>143.010989</ele>
        <time>2024-10-22T10:14:00.518Z</time>
      </trkpt>
      <trkpt lat="51.957083" lon="9.215978">
        <ele>142.906460</ele>
        <time>2024-10-22T10:14:03.641Z</time>
      </trkpt>
      <trkpt lat="51.956895" lon="9.216398">
        <ele>142.641595</ele>
        <time>2024-10-22T10:14:11.449Z</time>
      </trkpt>
      <trkpt lat="51.956756" lon="9.217445">
        <ele>141.794714</ele>
        <time>2024-10-22T10:14:25.756Z</time>
      </trkpt>
      <trkpt lat="51.956669" lon="9.217784">
        <ele>141.474937</ele>
        <time>2024-10-22T10:14:30.389Z</time>
      </trkpt>
      <trkpt lat="51.956601" lon="9.217956">
        <ele>141.296987</ele>
        <time>2024-10-22T10:14:32.982Z</time>
      </trkpt>
      <trkpt lat="51.956442" lon="9.218257">
        <ele>140.951760</ele>
        <time>2024-10-22T10:14:37.918Z</time>
      </trkpt>
      <trkpt lat="51.955877" lon="9.217556">
        <ele>139.989389</ele>
        <time>2024-10-22T10:14:53.950Z</time>
      </trkpt>
      <trkpt lat="51.955773" lon="9.217543">
        <ele>140.038982</ele>
        <time>2024-10-22T10:14:57.078Z</time>
      </trkpt>
      <trkpt lat="51.955602" lon="9.217691">
        <ele>140.131124</ele>
        <time>2024-10-22T10:15:02.846Z</time>
      </trkpt>
      <trkpt lat="51.955444" lon="9.217677">
        <ele>140.206356</ele>
        <time>2024-10-22T10:15:07.547Z</time>
      </trkpt>
      <trkpt lat="51.955348" lon="9.217614">
        <ele>140.255590</ele>
        <time>2024-10-22T10:15:10.681Z</time>
      </trkpt>
      <trkpt lat="51.955270" lon="9.217560">
        <ele>140.295909</ele>
        <time>2024-10-22T10:15:13.442Z</time>
      </trkpt>
      <trkpt lat="51.954890" lon="9.217293">
        <ele>140.492787</ele>
        <time>2024-10-22T10:15:27.091Z</time>
      </trkpt>
      <trkpt lat="51.954861" lon="9.217239">
        <ele>140.513774</ele>
        <time>2024-10-22T10:15:28.762Z</time>
      </trkpt>
      <trkpt lat="51.954254" lon="9.218708">
        <ele>139.903732</ele>
        <time>2024-10-22T10:16:01.337Z</time>
      </trkpt>
      <trkpt lat="51.954089" lon="9.219501">
        <ele>138.752856</ele>
        <time>2024-10-22T10:16:11.527Z</time>
      </trkpt>
      <trkpt lat="51.953813" lon="9.221585">
        <ele>135.227992</ele>
        <time>2024-10-22T10:16:36.920Z</time>
      </trkpt>
      <trkpt lat="51.953752" lon="9.222334">
        <ele>133.571528</ele>
        <time>2024-10-22T10:16:45.827Z</time>
      </trkpt>
      <trkpt lat="51.953726" lon="9.222808">
        <ele>132.528171</ele>
        <time>2024-10-22T10:16:51.398Z</time>
      </trkpt>
      <trkpt lat="51.953756" lon="9.224778">
        <ele>128.926603</ele>
        <time>2024-10-22T10:17:14.719Z</time>
      </trkpt>
      <trkpt lat="51.953714" lon="9.225155">
        <ele>128.359363</ele>
        <time>2024-10-22T10:17:19.441Z</time>
      </trkpt>
      <trkpt lat="51.953574" lon="9.225945">
        <ele>127.142273</ele>
        <time>2024-10-22T10:17:30.003Z</time>
      </trkpt>
      <trkpt lat="51.953454" lon="9.226576">
        <ele>126.164528</ele>
        <time>2024-10-22T10:17:38.961Z</time>
      </trkpt>
      <trkpt lat="51.953172" lon="9.227476">
        <ele>126.266826</ele>
        <time>2024-10-22T10:17:54.804Z</time>
      </trkpt>
      <trkpt lat="51.952912" lon="9.228196">
        <ele>126.410107</ele>
        <time>2024-10-22T10:18:09.928Z</time>
      </trkpt>
      <trkpt lat="51.952662" lon="9.228957">
        <ele>126.558174</ele>
        <time>2024-10-22T10:18:26.900Z</time>
      </trkpt>
      <trkpt lat="51.952558" lon="9.229277">
        <ele>126.597576</ele>
        <time>2024-10-22T10:18:34.344Z</time>
      </trkpt>
      <trkpt lat="51.951987" lon="9.231033">
        <ele>126.516344</ele>
        <time>2024-10-22T10:19:10.533Z</time>
      </trkpt>
      <trkpt lat="51.951802" lon="9.233177">
        <ele>124.679535</ele>
        <time>2024-10-22T10:19:39.135Z</time>
      </trkpt>
      <trkpt lat="51.951705" lon="9.234143">
        <ele>123.361427</ele>
        <time>2024-10-22T10:19:51.321Z</time>
      </trkpt>
      <trkpt lat="51.951864" lon="9.235683">
        <ele>120.275782</ele>
        <time>2024-10-22T10:20:10.932Z</time>
      </trkpt>
      <trkpt lat="51.951945" lon="9.236760">
        <ele>117.704625</ele>
        <time>2024-10-22T10:20:23.533Z</time>
      </trkpt>
      <trkpt lat="51.951959" lon="9.237302">
        <ele>116.419092</ele>
        <time>2024-10-22T10:20:29.935Z</time>
      </trkpt>
      <trkpt lat="51.951973" lon="9.238062">
        <ele>114.400564</ele>
        <time>2024-10-22T10:20:38.721Z</time>
      </trkpt>
      <trkpt lat="51.952081" lon="9.239899">
        <ele>109.097792</ele>
        <time>2024-10-22T10:20:59.951Z</time>
      </trkpt>
      <trkpt lat="51.952140" lon="9.240391">
        <ele>107.657468</ele>
        <time>2024-10-22T10:21:06.216Z</time>
      </trkpt>
      <trkpt lat="51.952056" lon="9.240386">
        <ele>107.265554</ele>
        <time>2024-10-22T10:21:07.991Z</time>
      </trkpt>
      <trkpt lat="51.951709" lon="9.240210">
        <ele>107.103033</ele>
        <time>2024-10-22T10:21:16.163Z</time>
      </trkpt>
      <trkpt lat="51.951703" lon="9.240207">
        <ele>107.100466</ele>
        <time>2024-10-22T10:21:16.314Z</time>
      </trkpt>
      <trkpt lat="51.951503" lon="9.240061">
        <ele>107.010802</ele>
        <time>2024-10-22T10:21:21.602Z</time>
      </trkpt>
      <trkpt lat="51.951340" lon="9.239964">
        <ele>106.939819</ele>
        <time>2024-10-22T10:21:26.177Z</time>
      </trkpt>
      <trkpt lat="51.950861" lon="9.239401">
        <ele>106.697997</ele>
        <time>2024-10-22T10:21:44.326Z</time>
      </trkpt>
      <trkpt lat="51.950632" lon="9.239313">
        <ele>106.601782</ele>
        <time>2024-10-22T10:21:51.906Z</time>
      </trkpt>
      <trkpt lat="51.949708" lon="9.238790">
        <ele>107.301502</ele>
        <time>2024-10-22T10:22:23.580Z</time>
      </trkpt>
      <trkpt lat="51.948539" lon="9.238198">
        <ele>108.641741</ele>
        <time>2024-10-22T10:23:03.801Z</time>
      </trkpt>
      <trkpt lat="51.946675" lon="9.237217">
        <ele>111.614486</ele>
        <time>2024-10-22T10:24:10.564Z</time>
      </trkpt>
      <trkpt lat="51.944533" lon="9.236039">
        <ele>115.689660</ele>
        <time>2024-10-22T10:25:31.057Z</time>
      </trkpt>
      <trkpt lat="51.944338" lon="9.235915">
        <ele>116.075684</ele>
        <time>2024-10-22T10:25:38.757Z</time>
      </trkpt>
      <trkpt lat="51.943846" lon="9.235497">
        <ele>117.099307</ele>
        <time>2024-10-22T10:25:58.484Z</time>
      </trkpt>
      <trkpt lat="51.943637" lon="9.235294">
        <ele>117.559658</ele>
        <time>2024-10-22T10:26:06.904Z</time>
      </trkpt>
      <trkpt lat="51.943270" lon="9.235019">
        <ele>118.480868</ele>
        <time>2024-10-22T10:26:20.491Z</time>
      </trkpt>
      <trkpt lat="51.942805" lon="9.234871">
        <ele>119.560692</ele>
        <time>2024-10-22T10:26:36.471Z</time>
      </trkpt>
      <trkpt lat="51.942506" lon="9.234726">
        <ele>120.271834</ele>
        <time>2024-10-22T10:26:47.223Z</time>
      </trkpt>
      <trkpt lat="51.942239" lon="9.234587">
        <ele>120.910826</ele>
        <time>2024-10-22T10:26:57.767Z</time>
      </trkpt>
      <trkpt lat="51.942059" lon="9.234403">
        <ele>121.395649</ele>
        <time>2024-10-22T10:27:06.681Z</time>
      </trkpt>
      <trkpt lat="51.941636" lon="9.233842">
        <ele>124.414625</ele>
        <time>2024-10-22T10:27:33.605Z</time>
      </trkpt>
      <trkpt lat="51.941525" lon="9.233566">
        <ele>125.665711</ele>
        <time>2024-10-22T10:27:44.959Z</time>
      </trkpt>
      <trkpt lat="51.941315" lon="9.232890">
        <ele>128.539560</ele>
        <time>2024-10-22T10:28:12.651Z</time>
      </trkpt>
      <trkpt lat="51.941218" lon="9.232712">
        <ele>129.441511</ele>
        <time>2024-10-22T10:28:21.618Z</time>
      </trkpt>
      <trkpt lat="51.940806" lon="9.232241">
        <ele>132.545577</ele>
        <time>2024-10-22T10:28:53.149Z</time>
      </trkpt>
      <trkpt lat="51.940398" lon="9.231910">
        <ele>135.800739</ele>
        <time>2024-10-22T10:29:21.931Z</time>
      </trkpt>
      <trkpt lat="51.940150" lon="9.231561">
        <ele>138.159095</ele>
        <time>2024-10-22T10:29:42.589Z</time>
      </trkpt>
      <trkpt lat="51.939840" lon="9.230920">
        <ele>141.766818</ele>
        <time>2024-10-22T10:30:14.059Z</time>
      </trkpt>
      <trkpt lat="51.939761" lon="9.230660">
        <ele>143.050421</ele>
        <time>2024-10-22T10:30:25.464Z</time>
      </trkpt>
      <trkpt lat="51.939737" lon="9.230516">
        <ele>143.710989</ele>
        <time>2024-10-22T10:30:31.363Z</time>
      </trkpt>
      <trkpt lat="51.939749" lon="9.230433">
        <ele>144.088509</ele>
        <time>2024-10-22T10:30:34.783Z</time>
      </trkpt>
      <trkpt lat="51.939885" lon="9.230153">
        <ele>145.616154</ele>
        <time>2024-10-22T10:30:49.092Z</time>
      </trkpt>
      <trkpt lat="51.940602" lon="9.228932">
        <ele>147.778854</ele>
        <time>2024-10-22T10:31:38.789Z</time>
      </trkpt>
      <trkpt lat="51.940549" lon="9.228130">
        <ele>148.813330</ele>
        <time>2024-10-22T10:31:50.603Z</time>
      </trkpt>
      <trkpt lat="51.940562" lon="9.227835">
        <ele>149.192639</ele>
        <time>2024-10-22T10:31:54.315Z</time>
      </trkpt>
      <trkpt lat="51.940654" lon="9.227220">
        <ele>148.291311</ele>
        <time>2024-10-22T10:32:01.706Z</time>
      </trkpt>
      <trkpt lat="51.940690" lon="9.226819">
        <ele>147.476256</ele>
        <time>2024-10-22T10:32:06.223Z</time>
      </trkpt>
      <trkpt lat="51.940727" lon="9.226226">
        <ele>146.277438</ele>
        <time>2024-10-22T10:32:13.188Z</time>
      </trkpt>
      <trkpt lat="51.940784" lon="9.225295">
        <ele>144.395670</ele>
        <time>2024-10-22T10:32:24.623Z</time>
      </trkpt>
      <trkpt lat="51.940723" lon="9.225015">
        <ele>143.798363</ele>
        <time>2024-10-22T10:32:28.390Z</time>
      </trkpt>
      <trkpt lat="51.940564" lon="9.224651">
        <ele>142.520976</ele>
        <time>2024-10-22T10:32:34.043Z</time>
      </trkpt>
      <trkpt lat="51.940004" lon="9.223671">
        <ele>138.034451</ele>
        <time>2024-10-22T10:32:49.719Z</time>
      </trkpt>
      <trkpt lat="51.939799" lon="9.223222">
        <ele>136.158474</ele>
        <time>2024-10-22T10:32:55.719Z</time>
      </trkpt>
      <trkpt lat="51.939307" lon="9.222285">
        <ele>131.312235</ele>
        <time>2024-10-22T10:33:08.332Z</time>
      </trkpt>
      <trkpt lat="51.938923" lon="9.221054">
        <ele>124.672838</ele>
        <time>2024-10-22T10:33:22.319Z</time>
      </trkpt>
      <trkpt lat="51.938764" lon="9.220284">
        <ele>120.764844</ele>
        <time>2024-10-22T10:33:30.855Z</time>
      </trkpt>
      <trkpt lat="51.938303" lon="9.219371">
        <ele>119.357315</ele>
        <time>2024-10-22T10:33:44.573Z</time>
      </trkpt>
      <trkpt lat="51.938520" lon="9.219048">
        <ele>119.218207</ele>
        <time>2024-10-22T10:33:51.022Z</time>
      </trkpt>
      <trkpt lat="51.937322" lon="9.213256">
        <ele>119.824031</ele>
        <time>2024-10-22T10:35:54.341Z</time>
      </trkpt>
      <trkpt lat="51.937569" lon="9.212838">
        <ele>120.469129</ele>
        <time>2024-10-22T10:36:08.640Z</time>
      </trkpt>
      <trkpt lat="51.937794" lon="9.212319">
        <ele>121.176034</ele>
        <time>2024-10-22T10:36:26.405Z</time>
      </trkpt>
      <trkpt lat="51.938168" lon="9.211307">
        <ele>125.145452</ele>
        <time>2024-10-22T10:37:05.522Z</time>
      </trkpt>
      <trkpt lat="51.938400" lon="9.210483">
        <ele>128.205156</ele>
        <time>2024-10-22T10:37:39.816Z</time>
      </trkpt>
      <trkpt lat="51.938581" lon="9.209616">
        <ele>131.282332</ele>
        <time>2024-10-22T10:38:13.582Z</time>
      </trkpt>
      <trkpt lat="51.938639" lon="9.209083">
        <ele>133.007376</ele>
        <time>2024-10-22T10:38:32.098Z</time>
      </trkpt>
      <trkpt lat="51.938643" lon="9.208255">
        <ele>135.646467</ele>
        <time>2024-10-22T10:38:58.831Z</time>
      </trkpt>
      <trkpt lat="51.938563" lon="9.207675">
        <ele>137.540751</ele>
        <time>2024-10-22T10:39:18.655Z</time>
      </trkpt>
      <trkpt lat="51.938356" lon="9.207000">
        <ele>139.943590</ele>
        <time>2024-10-22T10:39:43.247Z</time>
      </trkpt>
      <trkpt lat="51.938291" lon="9.206474">
        <ele>141.279986</ele>
        <time>2024-10-22T10:40:00.998Z</time>
      </trkpt>
      <trkpt lat="51.938033" lon="9.205271">
        <ele>144.188251</ele>
        <time>2024-10-22T10:40:45.089Z</time>
      </trkpt>
      <trkpt lat="51.937924" lon="9.204866">
        <ele>145.197267</ele>
        <time>2024-10-22T10:41:00.093Z</time>
      </trkpt>
      <trkpt lat="51.937736" lon="9.204313">
        <ele>146.639191</ele>
        <time>2024-10-22T10:41:16.396Z</time>
      </trkpt>
      <trkpt lat="51.937603" lon="9.203758">
        <ele>145.026173</ele>
        <time>2024-10-22T10:41:25.976Z</time>
      </trkpt>
      <trkpt lat="51.937544" lon="9.203279">
        <ele>142.828241</ele>
        <time>2024-10-22T10:41:32.347Z</time>
      </trkpt>
      <trkpt lat="51.937547" lon="9.203090">
        <ele>141.977523</ele>
        <time>2024-10-22T10:41:34.661Z</time>
      </trkpt>
      <trkpt lat="51.937032" lon="9.203183">
        <ele>138.195578</ele>
        <time>2024-10-22T10:41:44.339Z</time>
      </trkpt>
      <trkpt lat="51.936186" lon="9.203485">
        <ele>132.068653</ele>
        <time>2024-10-22T10:41:59.726Z</time>
      </trkpt>
      <trkpt lat="51.935373" lon="9.203882">
        <ele>126.477983</ele>
        <time>2024-10-22T10:42:15.779Z</time>
      </trkpt>
      <trkpt lat="51.935320" lon="9.203482">
        <ele>124.817001</ele>
        <time>2024-10-22T10:42:21.269Z</time>
      </trkpt>
      <trkpt lat="51.935170" lon="9.202356">
        <ele>121.901862</ele>
        <time>2024-10-22T10:42:40.371Z</time>
      </trkpt>
      <trkpt lat="51.935061" lon="9.201104">
        <ele>121.560546</ele>
        <time>2024-10-22T10:43:07.342Z</time>
      </trkpt>
      <trkpt lat="51.935044" lon="9.200709">
        <ele>121.453661</ele>
        <time>2024-10-22T10:43:14.110Z</time>
      </trkpt>
      <trkpt lat="51.935065" lon="9.200021">
        <ele>121.267715</ele>
        <time>2024-10-22T10:43:24.784Z</time>
      </trkpt>
      <trkpt lat="51.935108" lon="9.199326">
        <ele>120.930221</ele>
        <time>2024-10-22T10:43:35.272Z</time>
      </trkpt>
      <trkpt lat="51.935166" lon="9.199188">
        <ele>120.843351</ele>
        <time>2024-10-22T10:43:37.758Z</time>
      </trkpt>
      <trkpt lat="51.935159" lon="9.198970">
        <ele>120.729806</ele>
        <time>2024-10-22T10:43:41.035Z</time>
      </trkpt>
      <trkpt lat="51.935230" lon="9.198484">
        <ele>120.470019</ele>
        <time>2024-10-22T10:43:48.709Z</time>
      </trkpt>
      <trkpt lat="51.935328" lon="9.198048">
        <ele>120.228639</ele>
        <time>2024-10-22T10:43:56.161Z</time>
      </trkpt>
      <trkpt lat="51.935474" lon="9.197601">
        <ele>119.965528</ele>
        <time>2024-10-22T10:44:04.789Z</time>
      </trkpt>
      <trkpt lat="51.935564" lon="9.197432">
        <ele>119.849374</ele>
        <time>2024-10-22T10:44:08.844Z</time>
      </trkpt>
      <trkpt lat="51.936442" lon="9.196299">
        <ele>120.343813</ele>
        <time>2024-10-22T10:44:46.155Z</time>
      </trkpt>
      <trkpt lat="51.936554" lon="9.196047">
        <ele>120.466299</ele>
        <time>2024-10-22T10:44:52.888Z</time>
      </trkpt>
      <trkpt lat="51.936620" lon="9.195648">
        <ele>120.629182</ele>
        <time>2024-10-22T10:45:01.689Z</time>
      </trkpt>
      <trkpt lat="51.936828" lon="9.193947">
        <ele>122.209901</ele>
        <time>2024-10-22T10:45:35.576Z</time>
      </trkpt>
      <trkpt lat="51.936876" lon="9.192067">
        <ele>124.562399</ele>
        <time>2024-10-22T10:46:23.022Z</time>
      </trkpt>
      <trkpt lat="51.936905" lon="9.191798">
        <ele>125.224107</ele>
        <time>2024-10-22T10:46:32.058Z</time>
      </trkpt>
      <trkpt lat="51.936933" lon="9.191740">
        <ele>125.402606</ele>
        <time>2024-10-22T10:46:34.613Z</time>
      </trkpt>
      <trkpt lat="51.937092" lon="9.191509">
        <ele>126.241546</ele>
        <time>2024-10-22T10:46:46.238Z</time>
      </trkpt>
      <trkpt lat="51.937627" lon="9.190986">
        <ele>128.696597</ele>
        <time>2024-10-22T10:47:21.123Z</time>
      </trkpt>
      <trkpt lat="51.938094" lon="9.190504">
        <ele>130.872103</ele>
        <time>2024-10-22T10:47:49.948Z</time>
      </trkpt>
      <trkpt lat="51.938159" lon="9.190385">
        <ele>131.257336</ele>
        <time>2024-10-22T10:47:53.861Z</time>
      </trkpt>
      <trkpt lat="51.938011" lon="9.190067">
        <ele>131.377829</ele>
        <time>2024-10-22T10:48:01.580Z</time>
      </trkpt>
      <trkpt lat="51.937573" lon="9.189398">
        <ele>131.202632</ele>
        <time>2024-10-22T10:48:15.204Z</time>
      </trkpt>
      <trkpt lat="51.937294" lon="9.188968">
        <ele>131.090558</ele>
        <time>2024-10-22T10:48:24.354Z</time>
      </trkpt>
      <trkpt lat="51.937137" lon="9.188648">
        <ele>131.017136</ele>
        <time>2024-10-22T10:48:30.507Z</time>
      </trkpt>
      <trkpt lat="51.937062" lon="9.188409">
        <ele>130.968989</ele>
        <time>2024-10-22T10:48:34.402Z</time>
      </trkpt>
      <trkpt lat="51.936984" lon="9.187995">
        <ele>130.785755</ele>
        <time>2024-10-22T10:48:40.614Z</time>
      </trkpt>
      <trkpt lat="51.936825" lon="9.187354">
        <ele>130.040676</ele>
        <time>2024-10-22T10:48:49.770Z</time>
      </trkpt>
      <trkpt lat="51.936493" lon="9.186612">
        <ele>129.052014</ele>
        <time>2024-10-22T10:49:01.793Z</time>
      </trkpt>
      <trkpt lat="51.936335" lon="9.186203">
        <ele>128.531531</ele>
        <time>2024-10-22T10:49:08.333Z</time>
      </trkpt>
      <trkpt lat="51.936271" lon="9.186123">
        <ele>128.390203</ele>
        <time>2024-10-22T10:49:10.146Z</time>
      </trkpt>
      <trkpt lat="51.936238" lon="9.186130">
        <ele>128.331992</ele>
        <time>2024-10-22T10:49:10.831Z</time>
      </trkpt>
      <trkpt lat="51.936159" lon="9.186238">
        <ele>128.151278</ele>
        <time>2024-10-22T10:49:13.041Z</time>
      </trkpt>
      <trkpt lat="51.936088" lon="9.186310">
        <ele>128.004818</ele>
        <time>2024-10-22T10:49:14.705Z</time>
      </trkpt>
      <trkpt lat="51.936484" lon="9.187166">
        <ele>126.735310</ele>
        <time>2024-10-22T10:49:28.406Z</time>
      </trkpt>
      <trkpt lat="51.936712" lon="9.187798">
        <ele>125.846109</ele>
        <time>2024-10-22T10:49:38.245Z</time>
      </trkpt>
      <trkpt lat="51.936863" lon="9.188539">
        <ele>124.898404</ele>
        <time>2024-10-22T10:49:49.593Z</time>
      </trkpt>
      <trkpt lat="51.936890" lon="9.188975">
        <ele>124.366288</ele>
        <time>2024-10-22T10:49:55.116Z</time>
      </trkpt>
      <trkpt lat="51.936883" lon="9.189229">
        <ele>123.972628</ele>
        <time>2024-10-22T10:49:58.159Z</time>
      </trkpt>
      <trkpt lat="51.936798" lon="9.189845">
        <ele>122.814333</ele>
        <time>2024-10-22T10:50:05.541Z</time>
      </trkpt>
      <trkpt lat="51.936741" lon="9.190067">
        <ele>122.373059</ele>
        <time>2024-10-22T10:50:08.401Z</time>
      </trkpt>
      <trkpt lat="51.936585" lon="9.190461">
        <ele>121.513837</ele>
        <time>2024-10-22T10:50:14.028Z</time>
      </trkpt>
      <trkpt lat="51.936287" lon="9.190945">
        <ele>120.258686</ele>
        <time>2024-10-22T10:50:22.248Z</time>
      </trkpt>
      <trkpt lat="51.936291" lon="9.190807">
        <ele>120.005180</ele>
        <time>2024-10-22T10:50:23.921Z</time>
      </trkpt>
      <trkpt lat="51.936394" lon="9.190454">
        <ele>119.288556</ele>
        <time>2024-10-22T10:50:28.673Z</time>
      </trkpt>
      <trkpt lat="51.936446" lon="9.190277">
        <ele>118.928777</ele>
        <time>2024-10-22T10:50:31.090Z</time>
      </trkpt>
      <trkpt lat="51.936445" lon="9.190102">
        <ele>118.774897</ele>
        <time>2024-10-22T10:50:33.263Z</time>
      </trkpt>
      <trkpt lat="51.936411" lon="9.189897">
        <ele>118.633267</ele>
        <time>2024-10-22T10:50:35.940Z</time>
      </trkpt>
      <trkpt lat="51.936335" lon="9.189464">
        <ele>118.332908</ele>
        <time>2024-10-22T10:50:41.877Z</time>
      </trkpt>
      <trkpt lat="51.936243" lon="9.189094">
        <ele>118.066740</ele>
        <time>2024-10-22T10:50:47.633Z</time>
      </trkpt>
      <trkpt lat="51.936204" lon="9.188945">
        <ele>117.958745</ele>
        <time>2024-10-22T10:50:50.014Z</time>
      </trkpt>
      <trkpt lat="51.936144" lon="9.188713">
        <ele>117.790897</ele>
        <time>2024-10-22T10:50:53.705Z</time>
      </trkpt>
      <trkpt lat="51.936074" lon="9.188432">
        <ele>117.588700</ele>
        <time>2024-10-22T10:50:58.113Z</time>
      </trkpt>
      <trkpt lat="51.935828" lon="9.187541">
        <ele>116.937373</ele>
        <time>2024-10-22T10:51:13.413Z</time>
      </trkpt>
      <trkpt lat="51.935630" lon="9.186676">
        <ele>117.013685</ele>
        <time>2024-10-22T10:51:29.243Z</time>
      </trkpt>
      <trkpt lat="51.935474" lon="9.186208">
        <ele>117.066466</ele>
        <time>2024-10-22T10:51:38.436Z</time>
      </trkpt>
      <trkpt lat="51.935033" lon="9.185232">
        <ele>117.186514</ele>
        <time>2024-10-22T10:51:59.198Z</time>
      </trkpt>
      <trkpt lat="51.934939" lon="9.184934">
        <ele>117.221208</ele>
        <time>2024-10-22T10:52:04.830Z</time>
      </trkpt>
      <trkpt lat="51.934858" lon="9.184376">
        <ele>117.291741</ele>
        <time>2024-10-22T10:52:14.422Z</time>
      </trkpt>
      <trkpt lat="51.934843" lon="9.184270">
        <ele>117.305122</ele>
        <time>2024-10-22T10:52:16.254Z</time>
      </trkpt>
      <trkpt lat="51.934714" lon="9.183739">
        <ele>117.375344</ele>
        <time>2024-10-22T10:52:26.014Z</time>
      </trkpt>
      <trkpt lat="51.934357" lon="9.182838">
        <ele>117.507119</ele>
        <time>2024-10-22T10:52:44.675Z</time>
      </trkpt>
      <trkpt lat="51.933927" lon="9.181356">
        <ele>117.547292</ele>
        <time>2024-10-22T10:53:11.827Z</time>
      </trkpt>
      <trkpt lat="51.933759" lon="9.180979">
        <ele>117.536711</ele>
        <time>2024-10-22T10:53:19.250Z</time>
      </trkpt>
      <trkpt lat="51.932881" lon="9.178487">
        <ele>117.765983</ele>
        <time>2024-10-22T10:54:05.498Z</time>
      </trkpt>
      <trkpt lat="51.932356" lon="9.176850">
        <ele>118.102412</ele>
        <time>2024-10-22T10:54:40.074Z</time>
      </trkpt>
      <trkpt lat="51.931991" lon="9.175847">
        <ele>118.357380</ele>
        <time>2024-10-22T10:55:01.377Z</time>
      </trkpt>
      <trkpt lat="51.931170" lon="9.174056">
        <ele>118.601057</ele>
        <time>2024-10-22T10:55:37.793Z</time>
      </trkpt>
      <trkpt lat="51.931095" lon="9.173924">
        <ele>118.593204</ele>
        <time>2024-10-22T10:55:40.665Z</time>
      </trkpt>
      <trkpt lat="51.930948" lon="9.173664">
        <ele>118.577771</ele>
        <time>2024-10-22T10:55:46.292Z</time>
      </trkpt>
      <trkpt lat="51.930700" lon="9.173471">
        <ele>118.558253</ele>
        <time>2024-10-22T10:55:53.421Z</time>
      </trkpt>
      <trkpt lat="51.930490" lon="9.173232">
        <ele>118.540050</ele>
        <time>2024-10-22T10:56:00.080Z</time>
      </trkpt>
      <trkpt lat="51.930311" lon="9.172728">
        <ele>118.514603</ele>
        <time>2024-10-22T10:56:09.595Z</time>
      </trkpt>
      <trkpt lat="51.929958" lon="9.172024">
        <ele>118.578755</ele>
        <time>2024-10-22T10:56:24.546Z</time>
      </trkpt>
      <trkpt lat="51.929204" lon="9.170863">
        <ele>118.699819</ele>
        <time>2024-10-22T10:56:53.403Z</time>
      </trkpt>
      <trkpt lat="51.928938" lon="9.170318">
        <ele>118.709970</ele>
        <time>2024-10-22T10:57:05.158Z</time>
      </trkpt>
      <trkpt lat="51.928570" lon="9.169428">
        <ele>118.669579</ele>
        <time>2024-10-22T10:57:22.773Z</time>
      </trkpt>
      <trkpt lat="51.928244" lon="9.168934">
        <ele>118.642306</ele>
        <time>2024-10-22T10:57:34.443Z</time>
      </trkpt>
      <trkpt lat="51.927579" lon="9.167781">
        <ele>118.675153</ele>
        <time>2024-10-22T10:57:59.356Z</time>
      </trkpt>
      <trkpt lat="51.927132" lon="9.167075">
        <ele>118.750967</ele>
        <time>2024-10-22T10:58:15.988Z</time>
      </trkpt>
      <trkpt lat="51.927062" lon="9.166991">
        <ele>118.761548</ele>
        <time>2024-10-22T10:58:18.351Z</time>
      </trkpt>
      <trkpt lat="51.926798" lon="9.166796">
        <ele>118.796795</ele>
        <time>2024-10-22T10:58:26.711Z</time>
      </trkpt>
      <trkpt lat="51.926589" lon="9.166499">
        <ele>118.830559</ele>
        <time>2024-10-22T10:58:34.891Z</time>
      </trkpt>
      <trkpt lat="51.926411" lon="9.166100">
        <ele>119.042745</ele>
        <time>2024-10-22T10:58:43.971Z</time>
      </trkpt>
      <trkpt lat="51.926373" lon="9.165793">
        <ele>119.183000</ele>
        <time>2024-10-22T10:58:49.808Z</time>
      </trkpt>
      <trkpt lat="51.926353" lon="9.165635">
        <ele>119.255248</ele>
        <time>2024-10-22T10:58:52.921Z</time>
      </trkpt>
      <trkpt lat="51.926233" lon="9.165301">
        <ele>119.428394</ele>
        <time>2024-10-22T10:59:00.292Z</time>
      </trkpt>
      <trkpt lat="51.925487" lon="9.164009">
        <ele>120.111805</ele>
        <time>2024-10-22T10:59:34.189Z</time>
      </trkpt>
      <trkpt lat="51.925211" lon="9.163481">
        <ele>120.010721</ele>
        <time>2024-10-22T10:59:45.824Z</time>
      </trkpt>
      <trkpt lat="51.925123" lon="9.163381">
        <ele>119.985273</ele>
        <time>2024-10-22T10:59:48.675Z</time>
      </trkpt>
      <trkpt lat="51.924749" lon="9.163282">
        <ele>119.895531</ele>
        <time>2024-10-22T10:59:58.530Z</time>
      </trkpt>
      <trkpt lat="51.924381" lon="9.162988">
        <ele>119.798379</ele>
        <time>2024-10-22T11:00:08.492Z</time>
      </trkpt>
      <trkpt lat="51.924176" lon="9.162523">
        <ele>119.714900</ele>
        <time>2024-10-22T11:00:16.643Z</time>
      </trkpt>
      <trkpt lat="51.924044" lon="9.162300">
        <ele>119.596546</ele>
        <time>2024-10-22T11:00:20.951Z</time>
      </trkpt>
      <trkpt lat="51.923265" lon="9.161229">
        <ele>118.942834</ele>
        <time>2024-10-22T11:00:44.785Z</time>
      </trkpt>
      <trkpt lat="51.923162" lon="9.161039">
        <ele>118.842977</ele>
        <time>2024-10-22T11:00:48.537Z</time>
      </trkpt>
      <trkpt lat="51.923157" lon="9.161021">
        <ele>118.835185</ele>
        <time>2024-10-22T11:00:48.840Z</time>
      </trkpt>
      <trkpt lat="51.923119" lon="9.160881">
        <ele>118.774805</ele>
        <time>2024-10-22T11:00:51.117Z</time>
      </trkpt>
      <trkpt lat="51.923118" lon="9.160714">
        <ele>118.708881</ele>
        <time>2024-10-22T11:00:53.736Z</time>
      </trkpt>
      <trkpt lat="51.923148" lon="9.160536">
        <ele>118.636041</ele>
        <time>2024-10-22T11:00:56.729Z</time>
      </trkpt>
      <trkpt lat="51.923032" lon="9.160265">
        <ele>118.577374</ele>
        <time>2024-10-22T11:01:03.940Z</time>
      </trkpt>
      <trkpt lat="51.922745" lon="9.159389">
        <ele>118.688969</ele>
        <time>2024-10-22T11:01:26.795Z</time>
      </trkpt>
      <trkpt lat="51.922586" lon="9.158605">
        <ele>118.781817</ele>
        <time>2024-10-22T11:01:45.930Z</time>
      </trkpt>
      <trkpt lat="51.922152" lon="9.156216">
        <ele>118.718818</ele>
        <time>2024-10-22T11:02:26.899Z</time>
      </trkpt>
      <trkpt lat="51.922056" lon="9.155824">
        <ele>118.671807</ele>
        <time>2024-10-22T11:02:33.502Z</time>
      </trkpt>
      <trkpt lat="51.921987" lon="9.155662">
        <ele>118.649862</ele>
        <time>2024-10-22T11:02:36.663Z</time>
      </trkpt>
      <trkpt lat="51.921956" lon="9.155591">
        <ele>118.640166</ele>
        <time>2024-10-22T11:02:38.053Z</time>
      </trkpt>
      <trkpt lat="51.921877" lon="9.155425">
        <ele>118.616795</ele>
        <time>2024-10-22T11:02:41.501Z</time>
      </trkpt>
      <trkpt lat="51.921769" lon="9.155149">
        <ele>118.580363</ele>
        <time>2024-10-22T11:02:46.460Z</time>
      </trkpt>
      <trkpt lat="51.921684" lon="9.154899">
        <ele>118.493770</ele>
        <time>2024-10-22T11:02:50.708Z</time>
      </trkpt>
      <trkpt lat="51.921670" lon="9.154844">
        <ele>118.464441</ele>
        <time>2024-10-22T11:02:51.590Z</time>
      </trkpt>
      <trkpt lat="51.921657" lon="9.154803">
        <ele>118.441717</ele>
        <time>2024-10-22T11:02:52.296Z</time>
      </trkpt>
      <trkpt lat="51.921454" lon="9.153834">
        <ele>117.937268</ele>
        <time>2024-10-22T11:03:07.200Z</time>
      </trkpt>
      <trkpt lat="51.921444" lon="9.153788">
        <ele>117.913226</ele>
        <time>2024-10-22T11:03:07.891Z</time>
      </trkpt>
      <trkpt lat="51.921244" lon="9.153861">
        <ele>117.749377</ele>
        <time>2024-10-22T11:03:12.650Z</time>
      </trkpt>
      <trkpt lat="51.921174" lon="9.153096">
        <ele>117.368158</ele>
        <time>2024-10-22T11:03:23.705Z</time>
      </trkpt>
      <trkpt lat="51.921112" lon="9.152774">
        <ele>117.201879</ele>
        <time>2024-10-22T11:03:28.477Z</time>
      </trkpt>
      <trkpt lat="51.920778" lon="9.151497">
        <ele>117.196674</ele>
        <time>2024-10-22T11:03:49.423Z</time>
      </trkpt>
      <trkpt lat="51.920673" lon="9.150791">
        <ele>117.237644</ele>
        <time>2024-10-22T11:04:02.180Z</time>
      </trkpt>
      <trkpt lat="51.920705" lon="9.150492">
        <ele>117.254764</ele>
        <time>2024-10-22T11:04:07.754Z</time>
      </trkpt>
      <trkpt lat="51.920848" lon="9.150045">
        <ele>117.283172</ele>
        <time>2024-10-22T11:04:17.244Z</time>
      </trkpt>
      <trkpt lat="51.920822" lon="9.149857">
        <ele>117.309340</ele>
        <time>2024-10-22T11:04:20.965Z</time>
      </trkpt>
      <trkpt lat="51.920719" lon="9.149737">
        <ele>117.391216</ele>
        <time>2024-10-22T11:04:24.968Z</time>
      </trkpt>
      <trkpt lat="51.920796" lon="9.149648">
        <ele>117.452260</ele>
        <time>2024-10-22T11:04:27.973Z</time>
      </trkpt>
      <trkpt lat="51.920861" lon="9.149627">
        <ele>117.495045</ele>
        <time>2024-10-22T11:04:30.051Z</time>
      </trkpt>
      <trkpt lat="51.920849" lon="9.149542">
        <ele>117.529762</ele>
        <time>2024-10-22T11:04:31.718Z</time>
      </trkpt>
      <trkpt lat="51.920893" lon="9.149530">
        <ele>117.558565</ele>
        <time>2024-10-22T11:04:33.109Z</time>
      </trkpt>
      <trkpt lat="51.921069" lon="9.147819">
        <ele>118.249186</ele>
        <time>2024-10-22T11:05:04.590Z</time>
      </trkpt>
      <trkpt lat="51.921560" lon="9.143040">
        <ele>121.057062</ele>
        <time>2024-10-22T11:06:31.621Z</time>
      </trkpt>
      <trkpt lat="51.921795" lon="9.142843">
        <ele>121.570159</ele>
        <time>2024-10-22T11:06:41.580Z</time>
      </trkpt>
      <trkpt lat="51.921843" lon="9.142685">
        <ele>121.780838</ele>
        <time>2024-10-22T11:06:45.911Z</time>
      </trkpt>
      <trkpt lat="51.921848" lon="9.142532">
        <ele>121.964108</ele>
        <time>2024-10-22T11:06:49.739Z</time>
      </trkpt>
      <trkpt lat="51.921751" lon="9.141788">
        <ele>122.905699</ele>
        <time>2024-10-22T11:07:10.397Z</time>
      </trkpt>
      <trkpt lat="51.921794" lon="9.140835">
        <ele>125.583780</ele>
        <time>2024-10-22T11:07:38.148Z</time>
      </trkpt>
      <trkpt lat="51.921775" lon="9.140661">
        <ele>126.079028</ele>
        <time>2024-10-22T11:07:43.578Z</time>
      </trkpt>
      <trkpt lat="51.921683" lon="9.140271">
        <ele>127.249297</ele>
        <time>2024-10-22T11:07:56.438Z</time>
      </trkpt>
      <trkpt lat="51.921717" lon="9.140036">
        <ele>127.925806</ele>
        <time>2024-10-22T11:08:03.879Z</time>
      </trkpt>
      <trkpt lat="51.921781" lon="9.139864">
        <ele>128.488805</ele>
        <time>2024-10-22T11:08:10.026Z</time>
      </trkpt>
      <trkpt lat="51.922035" lon="9.139086">
        <ele>130.955942</ele>
        <time>2024-10-22T11:08:37.056Z</time>
      </trkpt>
      <trkpt lat="51.922106" lon="9.138396">
        <ele>133.262297</ele>
        <time>2024-10-22T11:08:58.580Z</time>
      </trkpt>
      <trkpt lat="51.922233" lon="9.137488">
        <ele>136.348405</ele>
        <time>2024-10-22T11:09:28.899Z</time>
      </trkpt>
      <trkpt lat="51.922490" lon="9.136362">
        <ele>140.328045</ele>
        <time>2024-10-22T11:10:08.987Z</time>
      </trkpt>
      <trkpt lat="51.922481" lon="9.135229">
        <ele>143.996778</ele>
        <time>2024-10-22T11:10:46.824Z</time>
      </trkpt>
      <trkpt lat="51.922428" lon="9.134576">
        <ele>146.123892</ele>
        <time>2024-10-22T11:11:08.251Z</time>
      </trkpt>
      <trkpt lat="51.922253" lon="9.132437">
        <ele>152.250981</ele>
        <time>2024-10-22T11:12:14.682Z</time>
      </trkpt>
      <trkpt lat="51.921543" lon="9.128122">
        <ele>160.009779</ele>
        <time>2024-10-22T11:14:10.572Z</time>
      </trkpt>
      <trkpt lat="51.921757" lon="9.127818">
        <ele>160.551848</ele>
        <time>2024-10-22T11:14:16.907Z</time>
      </trkpt>
      <trkpt lat="51.922519" lon="9.127217">
        <ele>159.016632</ele>
        <time>2024-10-22T11:14:33.753Z</time>
      </trkpt>
      <trkpt lat="51.923008" lon="9.126648">
        <ele>157.926171</ele>
        <time>2024-10-22T11:14:45.983Z</time>
      </trkpt>
      <trkpt lat="51.923451" lon="9.126256">
        <ele>157.252373</ele>
        <time>2024-10-22T11:14:57.555Z</time>
      </trkpt>
      <trkpt lat="51.923528" lon="9.126141">
        <ele>157.213962</ele>
        <time>2024-10-22T11:15:00.268Z</time>
      </trkpt>
      <trkpt lat="51.923749" lon="9.125611">
        <ele>157.069190</ele>
        <time>2024-10-22T11:15:11.377Z</time>
      </trkpt>
      <trkpt lat="51.924074" lon="9.123196">
        <ele>155.346342</ele>
        <time>2024-10-22T11:15:52.122Z</time>
      </trkpt>
      <trkpt lat="51.924552" lon="9.121528">
        <ele>151.558918</ele>
        <time>2024-10-22T11:16:13.955Z</time>
      </trkpt>
      <trkpt lat="51.924557" lon="9.121507">
        <ele>151.512565</ele>
        <time>2024-10-22T11:16:14.195Z</time>
      </trkpt>
      <trkpt lat="51.924649" lon="9.121106">
        <ele>150.611827</ele>
        <time>2024-10-22T11:16:18.797Z</time>
      </trkpt>
      <trkpt lat="51.924711" lon="9.120711">
        <ele>148.754033</ele>
        <time>2024-10-22T11:16:23.099Z</time>
      </trkpt>
      <trkpt lat="51.924850" lon="9.120179">
        <ele>146.120554</ele>
        <time>2024-10-22T11:16:29.116Z</time>
      </trkpt>
      <trkpt lat="51.924934" lon="9.119956">
        <ele>144.929526</ele>
        <time>2024-10-22T11:16:31.794Z</time>
      </trkpt>
      <trkpt lat="51.925152" lon="9.119609">
        <ele>142.671765</ele>
        <time>2024-10-22T11:16:36.861Z</time>
      </trkpt>
      <trkpt lat="51.925211" lon="9.119441">
        <ele>141.790577</ele>
        <time>2024-10-22T11:16:38.845Z</time>
      </trkpt>
      <trkpt lat="51.925220" lon="9.118728">
        <ele>138.540112</ele>
        <time>2024-10-22T11:16:46.238Z</time>
      </trkpt>
      <trkpt lat="51.925166" lon="9.117863">
        <ele>136.440553</ele>
        <time>2024-10-22T11:16:55.606Z</time>
      </trkpt>
      <trkpt lat="51.925254" lon="9.117416">
        <ele>135.736886</ele>
        <time>2024-10-22T11:17:01.024Z</time>
      </trkpt>
      <trkpt lat="51.925394" lon="9.116683">
        <ele>134.586139</ele>
        <time>2024-10-22T11:17:10.909Z</time>
      </trkpt>
      <trkpt lat="51.925387" lon="9.115965">
        <ele>133.509268</ele>
        <time>2024-10-22T11:17:22.611Z</time>
      </trkpt>
      <trkpt lat="51.925472" lon="9.115413">
        <ele>133.273273</ele>
        <time>2024-10-22T11:17:34.363Z</time>
      </trkpt>
      <trkpt lat="51.926136" lon="9.113111">
        <ele>136.716550</ele>
        <time>2024-10-22T11:18:34.042Z</time>
      </trkpt>
      <trkpt lat="51.926273" lon="9.112846">
        <ele>137.226255</ele>
        <time>2024-10-22T11:18:42.764Z</time>
      </trkpt>
      <trkpt lat="51.926419" lon="9.112671">
        <ele>137.690071</ele>
        <time>2024-10-22T11:18:50.415Z</time>
      </trkpt>
      <trkpt lat="51.927099" lon="9.112175">
        <ele>139.594906</ele>
        <time>2024-10-22T11:19:21.885Z</time>
      </trkpt>
      <trkpt lat="51.927577" lon="9.111588">
        <ele>141.126680</ele>
        <time>2024-10-22T11:19:45.341Z</time>
      </trkpt>
      <trkpt lat="51.927511" lon="9.111456">
        <ele>141.394396</ele>
        <time>2024-10-22T11:19:48.991Z</time>
      </trkpt>
      <trkpt lat="51.927508" lon="9.111281">
        <ele>141.456865</ele>
        <time>2024-10-22T11:19:52.736Z</time>
      </trkpt>
      <trkpt lat="51.927670" lon="9.110747">
        <ele>140.997466</ele>
        <time>2024-10-22T11:20:04.082Z</time>
      </trkpt>
      <trkpt lat="51.927703" lon="9.110568">
        <ele>140.853246</ele>
        <time>2024-10-22T11:20:07.197Z</time>
      </trkpt>
      <trkpt lat="51.927798" lon="9.109754">
        <ele>140.213735</ele>
        <time>2024-10-22T11:20:18.703Z</time>
      </trkpt>
      <trkpt lat="51.927780" lon="9.109454">
        <ele>139.981060</ele>
        <time>2024-10-22T11:20:22.514Z</time>
      </trkpt>
      <trkpt lat="51.927645" lon="9.108823">
        <ele>139.465484</ele>
        <time>2024-10-22T11:20:30.529Z</time>
      </trkpt>
      <trkpt lat="51.927549" lon="9.108527">
        <ele>139.156778</ele>
        <time>2024-10-22T11:20:34.452Z</time>
      </trkpt>
      <trkpt lat="51.927467" lon="9.108395">
        <ele>138.904868</ele>
        <time>2024-10-22T11:20:36.636Z</time>
      </trkpt>
      <trkpt lat="51.927192" lon="9.108099">
        <ele>138.185239</ele>
        <time>2024-10-22T11:20:42.961Z</time>
      </trkpt>
      <trkpt lat="51.926849" lon="9.107789">
        <ele>137.329104</ele>
        <time>2024-10-22T11:20:50.718Z</time>
      </trkpt>
      <trkpt lat="51.926692" lon="9.107505">
        <ele>136.816298</ele>
        <time>2024-10-22T11:20:55.597Z</time>
      </trkpt>
      <trkpt lat="51.926621" lon="9.107378">
        <ele>136.585823</ele>
        <time>2024-10-22T11:20:57.825Z</time>
      </trkpt>
      <trkpt lat="51.926397" lon="9.106600">
        <ele>135.431402</ele>
        <time>2024-10-22T11:21:09.687Z</time>
      </trkpt>
      <trkpt lat="51.926320" lon="9.105925">
        <ele>135.550868</ele>
        <time>2024-10-22T11:21:21.874Z</time>
      </trkpt>
      <trkpt lat="51.926322" lon="9.105642">
        <ele>135.639501</ele>
        <time>2024-10-22T11:21:27.430Z</time>
      </trkpt>
      <trkpt lat="51.926300" lon="9.105486">
        <ele>135.689617</ele>
        <time>2024-10-22T11:21:30.713Z</time>
      </trkpt>
      <trkpt lat="51.926217" lon="9.105401">
        <ele>135.739470</ele>
        <time>2024-10-22T11:21:33.872Z</time>
      </trkpt>
      <trkpt lat="51.926101" lon="9.105344">
        <ele>135.801024</ele>
        <time>2024-10-22T11:21:37.714Z</time>
      </trkpt>
      <trkpt lat="51.926301" lon="9.104493">
        <ele>136.086233</ele>
        <time>2024-10-22T11:21:56.708Z</time>
      </trkpt>
      <trkpt lat="51.926461" lon="9.104024">
        <ele>136.254087</ele>
        <time>2024-10-22T11:22:07.036Z</time>
      </trkpt>
      <trkpt lat="51.926794" lon="9.103341">
        <ele>136.787155</ele>
        <time>2024-10-22T11:22:24.984Z</time>
      </trkpt>
      <trkpt lat="51.927174" lon="9.102811">
        <ele>137.297208</ele>
        <time>2024-10-22T11:22:41.538Z</time>
      </trkpt>
      <trkpt lat="51.927316" lon="9.102665">
        <ele>137.468309</ele>
        <time>2024-10-22T11:22:47.222Z</time>
      </trkpt>
      <trkpt lat="51.927843" lon="9.102268">
        <ele>138.059640</ele>
        <time>2024-10-22T11:23:08.074Z</time>
      </trkpt>
      <trkpt lat="51.928224" lon="9.102138">
        <ele>138.689496</ele>
        <time>2024-10-22T11:23:23.000Z</time>
      </trkpt>
      <trkpt lat="51.928741" lon="9.102087">
        <ele>139.560457</ele>
        <time>2024-10-22T11:23:43.501Z</time>
      </trkpt>
      <trkpt lat="51.929549" lon="9.102178">
        <ele>140.922411</ele>
        <time>2024-10-22T11:24:14.129Z</time>
      </trkpt>
      <trkpt lat="51.930027" lon="9.102259">
        <ele>141.566368</ele>
        <time>2024-10-22T11:24:31.149Z</time>
      </trkpt>
      <trkpt lat="51.930678" lon="9.102279">
        <ele>142.365749</ele>
        <time>2024-10-22T11:24:53.999Z</time>
      </trkpt>
      <trkpt lat="51.933964" lon="9.101930">
        <ele>145.837318</ele>
        <time>2024-10-22T11:26:50.537Z</time>
      </trkpt>
      <trkpt lat="51.935276" lon="9.101792">
        <ele>146.679681</ele>
        <time>2024-10-22T11:27:25.755Z</time>
      </trkpt>
      <trkpt lat="51.935466" lon="9.101750">
        <ele>146.888450</ele>
        <time>2024-10-22T11:27:31.635Z</time>
      </trkpt>
      <trkpt lat="51.935753" lon="9.101621">
        <ele>147.212690</ele>
        <time>2024-10-22T11:27:41.241Z</time>
      </trkpt>
      <trkpt lat="51.936164" lon="9.101340">
        <ele>147.698284</ele>
        <time>2024-10-22T11:27:56.447Z</time>
      </trkpt>
      <trkpt lat="51.936387" lon="9.101185">
        <ele>147.962423</ele>
        <time>2024-10-22T11:28:04.859Z</time>
      </trkpt>
      <trkpt lat="51.936742" lon="9.100675">
        <ele>148.392334</ele>
        <time>2024-10-22T11:28:20.708Z</time>
      </trkpt>
      <trkpt lat="51.936861" lon="9.100449">
        <ele>148.390348</ele>
        <time>2024-10-22T11:28:26.856Z</time>
      </trkpt>
      <trkpt lat="51.937069" lon="9.099934">
        <ele>148.386235</ele>
        <time>2024-10-22T11:28:38.521Z</time>
      </trkpt>
      <trkpt lat="51.937084" lon="9.099553">
        <ele>148.383685</ele>
        <time>2024-10-22T11:28:44.966Z</time>
      </trkpt>
      <trkpt lat="51.937224" lon="9.099123">
        <ele>148.380436</ele>
        <time>2024-10-22T11:28:52.434Z</time>
      </trkpt>
      <trkpt lat="51.937270" lon="9.099099">
        <ele>148.379913</ele>
        <time>2024-10-22T11:28:53.568Z</time>
      </trkpt>
      <trkpt lat="51.937354" lon="9.099056">
        <ele>148.378958</ele>
        <time>2024-10-22T11:28:55.688Z</time>
      </trkpt>
      <trkpt lat="51.937309" lon="9.098864">
        <ele>148.377586</ele>
        <time>2024-10-22T11:28:59.630Z</time>
      </trkpt>
      <trkpt lat="51.937285" lon="9.098737">
        <ele>148.376699</ele>
        <time>2024-10-22T11:29:02.158Z</time>
      </trkpt>
      <trkpt lat="51.937273" lon="9.098677">
        <ele>148.376277</ele>
        <time>2024-10-22T11:29:03.360Z</time>
      </trkpt>
      <trkpt lat="51.937329" lon="9.098587">
        <ele>148.375423</ele>
        <time>2024-10-22T11:29:05.833Z</time>
      </trkpt>
      <trkpt lat="51.937365" lon="9.098409">
        <ele>148.374172</ele>
        <time>2024-10-22T11:29:09.397Z</time>
      </trkpt>
      <trkpt lat="51.937391" lon="9.098259">
        <ele>148.321106</ele>
        <time>2024-10-22T11:29:12.320Z</time>
      </trkpt>
      <trkpt lat="51.937520" lon="9.097854">
        <ele>148.037607</ele>
        <time>2024-10-22T11:29:20.862Z</time>
      </trkpt>
      <trkpt lat="51.938212" lon="9.095672">
        <ele>146.610585</ele>
        <time>2024-10-22T11:30:07.260Z</time>
      </trkpt>
      <trkpt lat="51.938382" lon="9.095156">
        <ele>147.001057</ele>
        <time>2024-10-22T11:30:20.246Z</time>
      </trkpt>
      <trkpt lat="51.939060" lon="9.093030">
        <ele>148.573733</ele>
        <time>2024-10-22T11:31:23.549Z</time>
      </trkpt>
      <trkpt lat="51.939364" lon="9.092247">
        <ele>149.024813</ele>
        <time>2024-10-22T11:31:49.109Z</time>
      </trkpt>
      <trkpt lat="51.939490" lon="9.091924">
        <ele>149.211141</ele>
        <time>2024-10-22T11:31:58.682Z</time>
      </trkpt>
      <trkpt lat="51.939628" lon="9.091562">
        <ele>149.418619</ele>
        <time>2024-10-22T11:32:08.597Z</time>
      </trkpt>
      <trkpt lat="51.939832" lon="9.091052">
        <ele>149.714975</ele>
        <time>2024-10-22T11:32:21.425Z</time>
      </trkpt>
      <trkpt lat="51.939852" lon="9.091008">
        <ele>149.741623</ele>
        <time>2024-10-22T11:32:22.516Z</time>
      </trkpt>
      <trkpt lat="51.940281" lon="9.089884">
        <ele>150.115332</ele>
        <time>2024-10-22T11:32:50.025Z</time>
      </trkpt>
      <trkpt lat="51.940343" lon="9.089659">
        <ele>150.164355</ele>
        <time>2024-10-22T11:32:54.996Z</time>
      </trkpt>
      <trkpt lat="51.940356" lon="9.089446">
        <ele>150.206931</ele>
        <time>2024-10-22T11:32:59.345Z</time>
      </trkpt>
      <trkpt lat="51.940387" lon="9.089448">
        <ele>150.216941</ele>
        <time>2024-10-22T11:33:00.068Z</time>
      </trkpt>
      <trkpt lat="51.940437" lon="9.089448">
        <ele>150.233074</ele>
        <time>2024-10-22T11:33:01.303Z</time>
      </trkpt>
      <trkpt lat="51.940478" lon="9.089448">
        <ele>150.246303</ele>
        <time>2024-10-22T11:33:02.447Z</time>
      </trkpt>
      <trkpt lat="51.940458" lon="9.089223">
        <ele>150.291521</ele>
        <time>2024-10-22T11:33:05.951Z</time>
      </trkpt>
      <trkpt lat="51.940427" lon="9.089089">
        <ele>150.319991</ele>
        <time>2024-10-22T11:33:08.112Z</time>
      </trkpt>
      <trkpt lat="51.940362" lon="9.088904">
        <ele>150.362347</ele>
        <time>2024-10-22T11:33:11.654Z</time>
      </trkpt>
      <trkpt lat="51.940095" lon="9.088123">
        <ele>150.822659</ele>
        <time>2024-10-22T11:33:34.497Z</time>
      </trkpt>
      <trkpt lat="51.939757" lon="9.087106">
        <ele>153.153338</ele>
        <time>2024-10-22T11:34:10.652Z</time>
      </trkpt>
      <trkpt lat="51.939746" lon="9.087021">
        <ele>153.328543</ele>
        <time>2024-10-22T11:34:13.444Z</time>
      </trkpt>
      <trkpt lat="51.939701" lon="9.086905">
        <ele>153.605019</ele>
        <time>2024-10-22T11:34:17.860Z</time>
      </trkpt>
      <trkpt lat="51.939653" lon="9.086780">
        <ele>153.902093</ele>
        <time>2024-10-22T11:34:22.774Z</time>
      </trkpt>
      <trkpt lat="51.939566" lon="9.086561">
        <ele>154.427653</ele>
        <time>2024-10-22T11:34:30.099Z</time>
      </trkpt>
      <trkpt lat="51.938606" lon="9.083977">
        <ele>159.706170</ele>
        <time>2024-10-22T11:35:54.978Z</time>
      </trkpt>
      <trkpt lat="51.938170" lon="9.082723">
        <ele>160.027979</ele>
        <time>2024-10-22T11:36:19.922Z</time>
      </trkpt>
      <trkpt lat="51.937762" lon="9.081663">
        <ele>157.595017</ele>
        <time>2024-10-22T11:36:35.215Z</time>
      </trkpt>
      <trkpt lat="51.937331" lon="9.080697">
        <ele>155.119939</ele>
        <time>2024-10-22T11:36:48.448Z</time>
      </trkpt>
      <trkpt lat="51.936696" lon="9.079498">
        <ele>149.307950</ele>
        <time>2024-10-22T11:37:05.216Z</time>
      </trkpt>
      <trkpt lat="51.936662" lon="9.079315">
        <ele>148.605167</ele>
        <time>2024-10-22T11:37:07.241Z</time>
      </trkpt>
      <trkpt lat="51.936238" lon="9.078575">
        <ele>144.890546</ele>
        <time>2024-10-22T11:37:18.733Z</time>
      </trkpt>
      <trkpt lat="51.936106" lon="9.078209">
        <ele>144.439254</ele>
        <time>2024-10-22T11:37:23.804Z</time>
      </trkpt>
      <trkpt lat="51.936038" lon="9.078213">
        <ele>144.357450</ele>
        <time>2024-10-22T11:37:25.578Z</time>
      </trkpt>
      <trkpt lat="51.935936" lon="9.078059">
        <ele>144.189919</ele>
        <time>2024-10-22T11:37:28.305Z</time>
      </trkpt>
      <trkpt lat="51.935592" lon="9.077084">
        <ele>143.357265</ele>
        <time>2024-10-22T11:37:44.222Z</time>
      </trkpt>
      <trkpt lat="51.935422" lon="9.076421">
        <ele>142.825031</ele>
        <time>2024-10-22T11:37:58.811Z</time>
      </trkpt>
      <trkpt lat="51.935395" lon="9.076060">
        <ele>142.557124</ele>
        <time>2024-10-22T11:38:06.915Z</time>
      </trkpt>
      <trkpt lat="51.935159" lon="9.074464">
        <ele>143.129457</ele>
        <time>2024-10-22T11:38:39.639Z</time>
      </trkpt>
      <trkpt lat="51.935476" lon="9.074227">
        <ele>143.326880</ele>
        <time>2024-10-22T11:38:48.763Z</time>
      </trkpt>
      <trkpt lat="51.935818" lon="9.073868">
        <ele>143.557288</ele>
        <time>2024-10-22T11:38:59.025Z</time>
      </trkpt>
      <trkpt lat="51.935849" lon="9.073817">
        <ele>143.574466</ele>
        <time>2024-10-22T11:39:00.127Z</time>
      </trkpt>
      <trkpt lat="51.936124" lon="9.073363">
        <ele>143.589610</ele>
        <time>2024-10-22T11:39:09.694Z</time>
      </trkpt>
      <trkpt lat="51.936476" lon="9.072393">
        <ele>143.616390</ele>
        <time>2024-10-22T11:39:27.488Z</time>
      </trkpt>
      <trkpt lat="51.936810" lon="9.071278">
        <ele>143.687324</ele>
        <time>2024-10-22T11:39:49.625Z</time>
      </trkpt>
      <trkpt lat="51.937021" lon="9.070763">
        <ele>143.938657</ele>
        <time>2024-10-22T11:40:01.365Z</time>
      </trkpt>
      <trkpt lat="51.937365" lon="9.070291">
        <ele>144.235706</ele>
        <time>2024-10-22T11:40:15.474Z</time>
      </trkpt>
      <trkpt lat="51.937841" lon="9.069930">
        <ele>144.582128</ele>
        <time>2024-10-22T11:40:31.399Z</time>
      </trkpt>
      <trkpt lat="51.938106" lon="9.069604">
        <ele>144.801397</ele>
        <time>2024-10-22T11:40:41.021Z</time>
      </trkpt>
      <trkpt lat="51.938328" lon="9.069192">
        <ele>144.782144</ele>
        <time>2024-10-22T11:40:50.512Z</time>
      </trkpt>
      <trkpt lat="51.938857" lon="9.068766">
        <ele>144.688242</ele>
        <time>2024-10-22T11:41:05.948Z</time>
      </trkpt>
      <trkpt lat="51.940720" lon="9.067394">
        <ele>144.128401</ele>
        <time>2024-10-22T11:41:56.917Z</time>
      </trkpt>
      <trkpt lat="51.940789" lon="9.067216">
        <ele>144.080966</ele>
        <time>2024-10-22T11:42:00.186Z</time>
      </trkpt>
      <trkpt lat="51.941007" lon="9.066111">
        <ele>143.908453</ele>
        <time>2024-10-22T11:42:18.230Z</time>
      </trkpt>
      <trkpt lat="51.941090" lon="9.065824">
        <ele>143.934065</ele>
        <time>2024-10-22T11:42:23.227Z</time>
      </trkpt>
      <trkpt lat="51.941557" lon="9.064552">
        <ele>144.053678</ele>
        <time>2024-10-22T11:42:48.487Z</time>
      </trkpt>
      <trkpt lat="51.941598" lon="9.064282">
        <ele>144.076144</ele>
        <time>2024-10-22T11:42:53.454Z</time>
      </trkpt>
      <trkpt lat="51.941598" lon="9.063810">
        <ele>144.114278</ele>
        <time>2024-10-22T11:43:01.946Z</time>
      </trkpt>
      <trkpt lat="51.941673" lon="9.063597">
        <ele>144.098489</ele>
        <time>2024-10-22T11:43:06.201Z</time>
      </trkpt>
      <trkpt lat="51.941944" lon="9.063313">
        <ele>144.028796</ele>
        <time>2024-10-22T11:43:15.084Z</time>
      </trkpt>
      <trkpt lat="51.942294" lon="9.062947">
        <ele>143.938844</ele>
        <time>2024-10-22T11:43:26.248Z</time>
      </trkpt>
      <trkpt lat="51.942416" lon="9.062885">
        <ele>143.911228</ele>
        <time>2024-10-22T11:43:29.522Z</time>
      </trkpt>
      <trkpt lat="51.942501" lon="9.062924">
        <ele>143.892146</ele>
        <time>2024-10-22T11:43:31.707Z</time>
      </trkpt>
      <trkpt lat="51.942973" lon="9.062036">
        <ele>143.736013</ele>
        <time>2024-10-22T11:43:49.112Z</time>
      </trkpt>
      <trkpt lat="51.943517" lon="9.061377">
        <ele>144.204802</ele>
        <time>2024-10-22T11:44:05.815Z</time>
      </trkpt>
      <trkpt lat="51.943565" lon="9.061259">
        <ele>144.267130</ele>
        <time>2024-10-22T11:44:08.210Z</time>
      </trkpt>
      <trkpt lat="51.943727" lon="9.060571">
        <ele>144.591818</ele>
        <time>2024-10-22T11:44:21.936Z</time>
      </trkpt>
      <trkpt lat="51.943818" lon="9.060065">
        <ele>144.824193</ele>
        <time>2024-10-22T11:44:32.850Z</time>
      </trkpt>
      <trkpt lat="51.943909" lon="9.057120">
        <ele>148.565757</ele>
        <time>2024-10-22T11:45:43.396Z</time>
      </trkpt>
      <trkpt lat="51.942949" lon="9.053924">
        <ele>152.366789</ele>
        <time>2024-10-22T11:47:00.157Z</time>
      </trkpt>
      <trkpt lat="51.942755" lon="9.053212">
        <ele>152.731741</ele>
        <time>2024-10-22T11:47:15.977Z</time>
      </trkpt>
      <trkpt lat="51.942118" lon="9.050274">
        <ele>154.126549</ele>
        <time>2024-10-22T11:48:10.513Z</time>
      </trkpt>
      <trkpt lat="51.942936" lon="9.049994">
        <ele>154.688719</ele>
        <time>2024-10-22T11:48:33.560Z</time>
      </trkpt>
      <trkpt lat="51.943348" lon="9.049813">
        <ele>155.249939</ele>
        <time>2024-10-22T11:48:48.742Z</time>
      </trkpt>
      <trkpt lat="51.944106" lon="9.049379">
        <ele>156.862181</ele>
        <time>2024-10-22T11:49:22.920Z</time>
      </trkpt>
      <trkpt lat="51.944346" lon="9.049158">
        <ele>157.415694</ele>
        <time>2024-10-22T11:49:34.595Z</time>
      </trkpt>
      <trkpt lat="51.944592" lon="9.048867">
        <ele>158.026342</ele>
        <time>2024-10-22T11:49:46.557Z</time>
      </trkpt>
      <trkpt lat="51.946157" lon="9.046680">
        <ele>156.425606</ele>
        <time>2024-10-22T11:50:33.766Z</time>
      </trkpt>
      <trkpt lat="51.946731" lon="9.046360">
        <ele>154.929392</ele>
        <time>2024-10-22T11:50:45.694Z</time>
      </trkpt>
      <trkpt lat="51.947335" lon="9.046139">
        <ele>153.403041</ele>
        <time>2024-10-22T11:50:57.899Z</time>
      </trkpt>
      <trkpt lat="51.947759" lon="9.045829">
        <ele>152.256580</ele>
        <time>2024-10-22T11:51:07.513Z</time>
      </trkpt>
      <trkpt lat="51.947778" lon="9.045767">
        <ele>152.151372</ele>
        <time>2024-10-22T11:51:08.379Z</time>
      </trkpt>
      <trkpt lat="51.947663" lon="9.044928">
        <ele>152.207702</ele>
        <time>2024-10-22T11:51:19.854Z</time>
      </trkpt>
      <trkpt lat="51.947663" lon="9.044719">
        <ele>152.225573</ele>
        <time>2024-10-22T11:51:23.093Z</time>
      </trkpt>
      <trkpt lat="51.947680" lon="9.044698">
        <ele>152.228537</ele>
        <time>2024-10-22T11:51:23.605Z</time>
      </trkpt>
      <trkpt lat="51.947756" lon="9.044590">
        <ele>152.242552</ele>
        <time>2024-10-22T11:51:26.427Z</time>
      </trkpt>
      <trkpt lat="51.948053" lon="9.044999">
        <ele>152.296593</ele>
        <time>2024-10-22T11:51:38.274Z</time>
      </trkpt>
      <trkpt lat="51.948108" lon="9.044912">
        <ele>152.307249</ele>
        <time>2024-10-22T11:51:41.604Z</time>
      </trkpt>
      <trkpt lat="51.948328" lon="9.044514">
        <ele>152.352960</ele>
        <time>2024-10-22T11:51:55.431Z</time>
      </trkpt>
      <trkpt lat="51.948505" lon="9.044195">
        <ele>152.415539</ele>
        <time>2024-10-22T11:52:06.650Z</time>
      </trkpt>
      <trkpt lat="51.949304" lon="9.044044">
        <ele>153.101917</ele>
        <time>2024-10-22T11:52:43.034Z</time>
      </trkpt>
      <trkpt lat="51.950179" lon="9.043694">
        <ele>153.870890</ele>
        <time>2024-10-22T11:53:15.871Z</time>
      </trkpt>
      <trkpt lat="51.950303" lon="9.044077">
        <ele>153.628247</ele>
        <time>2024-10-22T11:53:22.227Z</time>
      </trkpt>
      <trkpt lat="51.950398" lon="9.044608">
        <ele>153.155402</ele>
        <time>2024-10-22T11:53:30.026Z</time>
      </trkpt>
      <trkpt lat="51.950526" lon="9.044544">
        <ele>152.969559</ele>
        <time>2024-10-22T11:53:32.965Z</time>
      </trkpt>
      <trkpt lat="51.951023" lon="9.044330">
        <ele>152.256099</ele>
        <time>2024-10-22T11:53:43.718Z</time>
      </trkpt>
      <trkpt lat="51.951016" lon="9.044198">
        <ele>152.142800</ele>
        <time>2024-10-22T11:53:45.429Z</time>
      </trkpt>
      <trkpt lat="51.951077" lon="9.043891">
        <ele>151.866957</ele>
        <time>2024-10-22T11:53:49.552Z</time>
      </trkpt>
      <trkpt lat="51.951299" lon="9.043256">
        <ele>151.378887</ele>
        <time>2024-10-22T11:53:59.437Z</time>
      </trkpt>
      <trkpt lat="51.951431" lon="9.042981">
        <ele>151.305046</ele>
        <time>2024-10-22T11:54:04.320Z</time>
      </trkpt>
      <trkpt lat="51.951661" lon="9.042862">
        <ele>151.222068</ele>
        <time>2024-10-22T11:54:10.043Z</time>
      </trkpt>
      <trkpt lat="51.951703" lon="9.042779">
        <ele>151.199318</ele>
        <time>2024-10-22T11:54:11.575Z</time>
      </trkpt>
      <trkpt lat="51.951833" lon="9.042327">
        <ele>151.093651</ele>
        <time>2024-10-22T11:54:19.098Z</time>
      </trkpt>
      <trkpt lat="51.952071" lon="9.041505">
        <ele>150.901258</ele>
        <time>2024-10-22T11:54:34.532Z</time>
      </trkpt>
      <trkpt lat="51.952442" lon="9.040304">
        <ele>151.215259</ele>
        <time>2024-10-22T11:54:59.985Z</time>
      </trkpt>
      <trkpt lat="51.953240" lon="9.038166">
        <ele>152.392278</ele>
        <time>2024-10-22T11:55:46.711Z</time>
      </trkpt>
      <trkpt lat="51.953461" lon="9.037633">
        <ele>152.725871</ele>
        <time>2024-10-22T11:55:58.407Z</time>
      </trkpt>
      <trkpt lat="51.953465" lon="9.037373">
        <ele>152.860928</ele>
        <time>2024-10-22T11:56:03.288Z</time>
      </trkpt>
      <trkpt lat="51.953320" lon="9.035865">
        <ele>153.653493</ele>
        <time>2024-10-22T11:56:33.509Z</time>
      </trkpt>
      <trkpt lat="51.953287" lon="9.035799">
        <ele>153.682246</ele>
        <time>2024-10-22T11:56:35.024Z</time>
      </trkpt>
      <trkpt lat="51.953306" lon="9.035422">
        <ele>153.792941</ele>
        <time>2024-10-22T11:56:42.203Z</time>
      </trkpt>
      <trkpt lat="51.953792" lon="9.031680">
        <ele>154.499230</ele>
        <time>2024-10-22T11:57:48.699Z</time>
      </trkpt>
      <trkpt lat="51.954201" lon="9.030711">
        <ele>154.484269</ele>
        <time>2024-10-22T11:58:07.238Z</time>
      </trkpt>
      <trkpt lat="51.955396" lon="9.027878">
        <ele>153.662812</ele>
        <time>2024-10-22T11:59:00.011Z</time>
      </trkpt>
      <trkpt lat="51.955439" lon="9.027832">
        <ele>153.632322</ele>
        <time>2024-10-22T11:59:01.276Z</time>
      </trkpt>
      <trkpt lat="51.956745" lon="9.031644">
        <ele>152.148276</ele>
        <time>2024-10-22T12:00:06.305Z</time>
      </trkpt>
      <trkpt lat="51.957055" lon="9.030912">
        <ele>151.881961</ele>
        <time>2024-10-22T12:00:19.993Z</time>
      </trkpt>
      <trkpt lat="51.957149" lon="9.030629">
        <ele>151.785565</ele>
        <time>2024-10-22T12:00:25.042Z</time>
      </trkpt>
      <trkpt lat="51.957488" lon="9.028034">
        <ele>151.922171</ele>
        <time>2024-10-22T12:01:08.884Z</time>
      </trkpt>
      <trkpt lat="51.957591" lon="9.026600">
        <ele>152.877863</ele>
        <time>2024-10-22T12:01:35.458Z</time>
      </trkpt>
      <trkpt lat="51.958368" lon="9.024111">
        <ele>155.997797</ele>
        <time>2024-10-22T12:02:36.484Z</time>
      </trkpt>
      <trkpt lat="51.958430" lon="9.024023">
        <ele>156.215529</ele>
        <time>2024-10-22T12:02:39.878Z</time>
      </trkpt>
      <trkpt lat="51.958533" lon="9.024011">
        <ele>156.488496</ele>
        <time>2024-10-22T12:02:44.174Z</time>
      </trkpt>
      <trkpt lat="51.959281" lon="9.024030">
        <ele>158.465974</ele>
        <time>2024-10-22T12:03:16.759Z</time>
      </trkpt>
      <trkpt lat="51.960162" lon="9.024052">
        <ele>159.772988</ele>
        <time>2024-10-22T12:03:50.676Z</time>
      </trkpt>
      <trkpt lat="51.960193" lon="9.024776">
        <ele>160.224501</ele>
        <time>2024-10-22T12:04:04.738Z</time>
      </trkpt>
      <trkpt lat="51.960313" lon="9.025758">
        <ele>160.847334</ele>
        <time>2024-10-22T12:04:20.753Z</time>
      </trkpt>
      <trkpt lat="51.960879" lon="9.028049">
        <ele>159.897770</ele>
        <time>2024-10-22T12:04:56.357Z</time>
      </trkpt>
      <trkpt lat="51.961190" lon="9.030878">
        <ele>159.327395</ele>
        <time>2024-10-22T12:05:39.595Z</time>
      </trkpt>
      <trkpt lat="51.961866" lon="9.030486">
        <ele>159.427976</ele>
        <time>2024-10-22T12:06:00.979Z</time>
      </trkpt>
      <trkpt lat="51.962018" lon="9.030886">
        <ele>159.604116</ele>
        <time>2024-10-22T12:06:11.232Z</time>
      </trkpt>
      <trkpt lat="51.962227" lon="9.031409">
        <ele>159.837756</ele>
        <time>2024-10-22T12:06:24.597Z</time>
      </trkpt>
      <trkpt lat="51.962266" lon="9.031506">
        <ele>159.881167</ele>
        <time>2024-10-22T12:06:27.109Z</time>
      </trkpt>
      <trkpt lat="51.962466" lon="9.031822">
        <ele>160.050954</ele>
        <time>2024-10-22T12:06:35.497Z</time>
      </trkpt>
      <trkpt lat="51.962796" lon="9.032055">
        <ele>160.269858</ele>
        <time>2024-10-22T12:06:45.132Z</time>
      </trkpt>
      <trkpt lat="51.963063" lon="9.032069">
        <ele>160.255573</ele>
        <time>2024-10-22T12:06:52.336Z</time>
      </trkpt>
      <trkpt lat="51.964355" lon="9.032139">
        <ele>159.575941</ele>
        <time>2024-10-22T12:07:25.697Z</time>
      </trkpt>
      <trkpt lat="51.965098" lon="9.032145">
        <ele>159.064003</ele>
        <time>2024-10-22T12:07:43.621Z</time>
      </trkpt>
      <trkpt lat="51.967053" lon="9.031346">
        <ele>157.392775</ele>
        <time>2024-10-22T12:08:33.551Z</time>
      </trkpt>
      <trkpt lat="51.967251" lon="9.031255">
        <ele>157.224775</ele>
        <time>2024-10-22T12:08:39.004Z</time>
      </trkpt>
      <trkpt lat="51.968428" lon="9.030740">
        <ele>155.963146</ele>
        <time>2024-10-22T12:09:09.549Z</time>
      </trkpt>
      <trkpt lat="51.968805" lon="9.030447">
        <ele>155.151036</ele>
        <time>2024-10-22T12:09:18.810Z</time>
      </trkpt>
      <trkpt lat="51.969809" lon="9.029262">
        <ele>152.823139</ele>
        <time>2024-10-22T12:09:45.417Z</time>
      </trkpt>
      <trkpt lat="51.970100" lon="9.029088">
        <ele>152.488387</ele>
        <time>2024-10-22T12:09:52.177Z</time>
      </trkpt>
      <trkpt lat="51.970199" lon="9.029143">
        <ele>152.375436</ele>
        <time>2024-10-22T12:09:54.553Z</time>
      </trkpt>
      <trkpt lat="51.970372" lon="9.028123">
        <ele>151.671888</ele>
        <time>2024-10-22T12:10:09.792Z</time>
      </trkpt>
      <trkpt lat="51.970405" lon="9.027889">
        <ele>151.512251</ele>
        <time>2024-10-22T12:10:13.574Z</time>
      </trkpt>
      <trkpt lat="51.970416" lon="9.027815">
        <ele>151.461628</ele>
        <time>2024-10-22T12:10:14.730Z</time>
      </trkpt>
      <trkpt lat="51.970441" lon="9.027634">
        <ele>151.338273</ele>
        <time>2024-10-22T12:10:17.753Z</time>
      </trkpt>
      <trkpt lat="51.970475" lon="9.026928">
        <ele>150.947004</ele>
        <time>2024-10-22T12:10:29.109Z</time>
      </trkpt>
      <trkpt lat="51.970458" lon="9.025984">
        <ele>150.738586</ele>
        <time>2024-10-22T12:10:43.988Z</time>
      </trkpt>
      <trkpt lat="51.970482" lon="9.025709">
        <ele>150.677292</ele>
        <time>2024-10-22T12:10:48.458Z</time>
      </trkpt>
      <trkpt lat="51.970535" lon="9.025405">
        <ele>150.607568</ele>
        <time>2024-10-22T12:10:53.399Z</time>
      </trkpt>
      <trkpt lat="51.971008" lon="9.024164">
        <ele>150.282236</ele>
        <time>2024-10-22T12:11:15.423Z</time>
      </trkpt>
      <trkpt lat="51.971096" lon="9.023972">
        <ele>150.226366</ele>
        <time>2024-10-22T12:11:19.056Z</time>
      </trkpt>
      <trkpt lat="51.971680" lon="9.022723">
        <ele>149.860295</ele>
        <time>2024-10-22T12:11:43.490Z</time>
      </trkpt>
      <trkpt lat="51.971767" lon="9.022565">
        <ele>149.810821</ele>
        <time>2024-10-22T12:11:46.816Z</time>
      </trkpt>
      <trkpt lat="51.971949" lon="9.022234">
        <ele>149.707243</ele>
        <time>2024-10-22T12:11:53.551Z</time>
      </trkpt>
      <trkpt lat="51.972216" lon="9.021439">
        <ele>149.631349</ele>
        <time>2024-10-22T12:12:07.490Z</time>
      </trkpt>
      <trkpt lat="51.972320" lon="9.020787">
        <ele>149.603400</ele>
        <time>2024-10-22T12:12:18.014Z</time>
      </trkpt>
      <trkpt lat="51.972348" lon="9.020615">
        <ele>149.596018</ele>
        <time>2024-10-22T12:12:20.738Z</time>
      </trkpt>
      <trkpt lat="51.972552" lon="9.019858">
        <ele>149.561730</ele>
        <time>2024-10-22T12:12:34.087Z</time>
      </trkpt>
      <trkpt lat="51.972601" lon="9.019646">
        <ele>149.552333</ele>
        <time>2024-10-22T12:12:37.799Z</time>
      </trkpt>
      <trkpt lat="51.972709" lon="9.018721">
        <ele>150.461023</ele>
        <time>2024-10-22T12:12:55.077Z</time>
      </trkpt>
      <trkpt lat="51.972712" lon="9.018472">
        <ele>150.824319</ele>
        <time>2024-10-22T12:13:00.448Z</time>
      </trkpt>
      <trkpt lat="51.972676" lon="9.018142">
        <ele>151.313192</ele>
        <time>2024-10-22T12:13:07.895Z</time>
      </trkpt>
      <trkpt lat="51.972577" lon="9.017707">
        <ele>151.989663</ele>
        <time>2024-10-22T12:13:18.902Z</time>
      </trkpt>
      <trkpt lat="51.972538" lon="9.017619">
        <ele>152.147800</ele>
        <time>2024-10-22T12:13:21.554Z</time>
      </trkpt>
      <trkpt lat="51.972749" lon="9.017677">
        <ele>152.654548</ele>
        <time>2024-10-22T12:13:30.698Z</time>
      </trkpt>
      <trkpt lat="51.973067" lon="9.017782">
        <ele>153.422974</ele>
        <time>2024-10-22T12:13:45.059Z</time>
      </trkpt>
      <trkpt lat="51.973282" lon="9.017779">
        <ele>154.012491</ele>
        <time>2024-10-22T12:13:54.835Z</time>
      </trkpt>
      <trkpt lat="51.973424" lon="9.017693">
        <ele>154.587434</ele>
        <time>2024-10-22T12:14:01.925Z</time>
      </trkpt>
      <trkpt lat="51.973582" lon="9.017500">
        <ele>155.337542</ele>
        <time>2024-10-22T12:14:11.552Z</time>
      </trkpt>
      <trkpt lat="51.974718" lon="9.015475">
        <ele>161.429426</ele>
        <time>2024-10-22T12:15:27.531Z</time>
      </trkpt>
      <trkpt lat="51.976131" lon="9.012956">
        <ele>166.909026</ele>
        <time>2024-10-22T12:16:48.247Z</time>
      </trkpt>
      <trkpt lat="51.976228" lon="9.012776">
        <ele>167.243595</ele>
        <time>2024-10-22T12:16:53.707Z</time>
      </trkpt>
      <trkpt lat="51.977064" lon="9.011271">
        <ele>169.897069</ele>
        <time>2024-10-22T12:17:40.169Z</time>
      </trkpt>
      <trkpt lat="51.977820" lon="9.009911">
        <ele>171.388582</ele>
        <time>2024-10-22T12:18:20.203Z</time>
      </trkpt>
      <trkpt lat="51.978108" lon="9.009463">
        <ele>171.915794</ele>
        <time>2024-10-22T12:18:32.310Z</time>
      </trkpt>
      <trkpt lat="51.979676" lon="9.007513">
        <ele>169.989260</ele>
        <time>2024-10-22T12:19:17.772Z</time>
      </trkpt>
      <trkpt lat="51.980120" lon="9.007048">
        <ele>168.887205</ele>
        <time>2024-10-22T12:19:28.310Z</time>
      </trkpt>
      <trkpt lat="51.980527" lon="9.006549">
        <ele>167.823424</ele>
        <time>2024-10-22T12:19:38.721Z</time>
      </trkpt>
      <trkpt lat="51.980720" lon="9.006381">
        <ele>167.366658</ele>
        <time>2024-10-22T12:19:43.243Z</time>
      </trkpt>
      <trkpt lat="51.980679" lon="9.006196">
        <ele>167.114072</ele>
        <time>2024-10-22T12:19:45.786Z</time>
      </trkpt>
      <trkpt lat="51.980680" lon="9.005954">
        <ele>166.803169</ele>
        <time>2024-10-22T12:19:48.930Z</time>
      </trkpt>
      <trkpt lat="51.980709" lon="9.005775">
        <ele>166.565386</ele>
        <time>2024-10-22T12:19:51.378Z</time>
      </trkpt>
      <trkpt lat="51.980773" lon="9.005590">
        <ele>166.354514</ele>
        <time>2024-10-22T12:19:54.207Z</time>
      </trkpt>
      <trkpt lat="51.980926" lon="9.005320">
        <ele>166.082504</ele>
        <time>2024-10-22T12:19:59.259Z</time>
      </trkpt>
      <trkpt lat="51.981069" lon="9.005146">
        <ele>165.867396</ele>
        <time>2024-10-22T12:20:03.390Z</time>
      </trkpt>
      <trkpt lat="51.982019" lon="9.004058">
        <ele>164.467992</ele>
        <time>2024-10-22T12:20:50.662Z</time>
      </trkpt>
      <trkpt lat="51.982373" lon="9.003524">
        <ele>163.952982</ele>
        <time>2024-10-22T12:21:09.664Z</time>
      </trkpt>
      <trkpt lat="51.982596" lon="9.003106">
        <ele>163.613528</ele>
        <time>2024-10-22T12:21:23.258Z</time>
      </trkpt>
      <trkpt lat="51.982780" lon="9.002655">
        <ele>163.281464</ele>
        <time>2024-10-22T12:21:36.677Z</time>
      </trkpt>
      <trkpt lat="51.983067" lon="9.001717">
        <ele>162.638561</ele>
        <time>2024-10-22T12:22:03.462Z</time>
      </trkpt>
      <trkpt lat="51.983552" lon="9.000218">
        <ele>161.100075</ele>
        <time>2024-10-22T12:22:31.261Z</time>
      </trkpt>
      <trkpt lat="51.983649" lon="8.999982">
        <ele>160.827348</ele>
        <time>2024-10-22T12:22:35.568Z</time>
      </trkpt>
      <trkpt lat="51.985007" lon="8.997335">
        <ele>156.223420</ele>
        <time>2024-10-22T12:23:24.213Z</time>
      </trkpt>
      <trkpt lat="51.985227" lon="8.996926">
        <ele>155.388842</ele>
        <time>2024-10-22T12:23:31.187Z</time>
      </trkpt>
      <trkpt lat="51.985384" lon="8.997193">
        <ele>154.759552</ele>
        <time>2024-10-22T12:23:35.944Z</time>
      </trkpt>
      <trkpt lat="51.985542" lon="8.997582">
        <ele>153.921508</ele>
        <time>2024-10-22T12:23:41.853Z</time>
      </trkpt>
      <trkpt lat="51.985610" lon="8.997695">
        <ele>153.637375</ele>
        <time>2024-10-22T12:23:43.816Z</time>
      </trkpt>
      <trkpt lat="51.985737" lon="8.997536">
        <ele>153.169069</ele>
        <time>2024-10-22T12:23:47.055Z</time>
      </trkpt>
      <trkpt lat="51.985534" lon="8.997235">
        <ele>152.366291</ele>
        <time>2024-10-22T12:23:52.637Z</time>
      </trkpt>
      <trkpt lat="51.985388" lon="8.996775">
        <ele>151.435606</ele>
        <time>2024-10-22T12:23:59.119Z</time>
      </trkpt>
      <trkpt lat="51.985318" lon="8.996353">
        <ele>150.649614</ele>
        <time>2024-10-22T12:24:04.310Z</time>
      </trkpt>
      <trkpt lat="51.985295" lon="8.995909">
        <ele>149.819645</ele>
        <time>2024-10-22T12:24:09.455Z</time>
      </trkpt>
      <trkpt lat="51.985300" lon="8.995520">
        <ele>148.883424</ele>
        <time>2024-10-22T12:24:13.938Z</time>
      </trkpt>
      <trkpt lat="51.985994" lon="8.995260">
        <ele>146.100691</ele>
        <time>2024-10-22T12:24:32.075Z</time>
      </trkpt>
      <trkpt lat="51.986197" lon="8.995077">
        <ele>145.193526</ele>
        <time>2024-10-22T12:24:38.042Z</time>
      </trkpt>
      <trkpt lat="51.986718" lon="8.994833">
        <ele>143.074976</ele>
        <time>2024-10-22T12:24:52.329Z</time>
      </trkpt>
      <trkpt lat="51.986744" lon="8.994732">
        <ele>142.891548</ele>
        <time>2024-10-22T12:24:54.133Z</time>
      </trkpt>
      <trkpt lat="51.986746" lon="8.994449">
        <ele>142.789621</ele>
        <time>2024-10-22T12:24:58.874Z</time>
      </trkpt>
      <trkpt lat="51.986762" lon="8.994372">
        <ele>142.760354</ele>
        <time>2024-10-22T12:25:00.260Z</time>
      </trkpt>
      <trkpt lat="51.986805" lon="8.994335">
        <ele>142.731895</ele>
        <time>2024-10-22T12:25:01.575Z</time>
      </trkpt>
      <trkpt lat="51.986975" lon="8.994343">
        <ele>142.632438</ele>
        <time>2024-10-22T12:25:06.341Z</time>
      </trkpt>
      <trkpt lat="51.987026" lon="8.994424">
        <ele>142.590719</ele>
        <time>2024-10-22T12:25:08.412Z</time>
      </trkpt>
      <trkpt lat="51.987075" lon="8.994510">
        <ele>142.548525</ele>
        <time>2024-10-22T12:25:11.138Z</time>
      </trkpt>
      <trkpt lat="51.987083" lon="8.994524">
        <ele>142.541647</ele>
        <time>2024-10-22T12:25:11.584Z</time>
      </trkpt>
      <trkpt lat="51.987199" lon="8.994853">
        <ele>142.405116</ele>
        <time>2024-10-22T12:25:20.821Z</time>
      </trkpt>
      <trkpt lat="51.987400" lon="8.994568">
        <ele>142.249067</ele>
        <time>2024-10-22T12:25:32.082Z</time>
      </trkpt>
      <trkpt lat="51.987654" lon="8.994399">
        <ele>142.088543</ele>
        <time>2024-10-22T12:25:45.087Z</time>
      </trkpt>
      <trkpt lat="51.987740" lon="8.994011">
        <ele>141.940036</ele>
        <time>2024-10-22T12:25:53.909Z</time>
      </trkpt>
      <trkpt lat="51.987823" lon="8.993771">
        <ele>141.922351</ele>
        <time>2024-10-22T12:26:00.286Z</time>
      </trkpt>
      <trkpt lat="51.988003" lon="8.993906">
        <ele>142.539630</ele>
        <time>2024-10-22T12:26:11.616Z</time>
      </trkpt>
      <trkpt lat="51.988260" lon="8.993952">
        <ele>143.344593</ele>
        <time>2024-10-22T12:26:27.037Z</time>
      </trkpt>
      <trkpt lat="51.988335" lon="8.994122">
        <ele>143.745531</ele>
        <time>2024-10-22T12:26:34.834Z</time>
      </trkpt>
      <trkpt lat="51.988379" lon="8.994362">
        <ele>144.225625</ele>
        <time>2024-10-22T12:26:44.315Z</time>
      </trkpt>
      <trkpt lat="51.988422" lon="8.994501">
        <ele>144.523855</ele>
        <time>2024-10-22T12:26:50.160Z</time>
      </trkpt>
      <trkpt lat="51.988492" lon="8.994730">
        <ele>145.014014</ele>
        <time>2024-10-22T12:26:59.964Z</time>
      </trkpt>
      <trkpt lat="51.988553" lon="8.994670">
        <ele>145.236047</ele>
        <time>2024-10-22T12:27:03.170Z</time>
      </trkpt>
      <trkpt lat="51.988928" lon="8.994380">
        <ele>146.529164</ele>
        <time>2024-10-22T12:27:21.474Z</time>
      </trkpt>
      <trkpt lat="51.989250" lon="8.994225">
        <ele>147.552328</ele>
        <time>2024-10-22T12:27:35.978Z</time>
      </trkpt>
      <trkpt lat="51.989817" lon="8.994072">
        <ele>149.010719</ele>
        <time>2024-10-22T12:27:59.306Z</time>
      </trkpt>
      <trkpt lat="51.989856" lon="8.994062">
        <ele>149.110900</ele>
        <time>2024-10-22T12:28:00.835Z</time>
      </trkpt>
      <trkpt lat="51.991036" lon="8.993878">
        <ele>152.111450</ele>
        <time>2024-10-22T12:28:45.238Z</time>
      </trkpt>
      <trkpt lat="51.992737" lon="8.993540">
        <ele>156.148291</ele>
        <time>2024-10-22T12:29:49.058Z</time>
      </trkpt>
      <trkpt lat="51.992833" lon="8.993526">
        <ele>156.429688</ele>
        <time>2024-10-22T12:29:53.016Z</time>
      </trkpt>
      <trkpt lat="51.993392" lon="8.993502">
        <ele>158.337927</ele>
        <time>2024-10-22T12:30:16.678Z</time>
      </trkpt>
      <trkpt lat="51.994281" lon="8.993551">
        <ele>161.373362</ele>
        <time>2024-10-22T12:30:56.229Z</time>
      </trkpt>
      <trkpt lat="51.994385" lon="8.993558">
        <ele>161.728563</ele>
        <time>2024-10-22T12:31:00.824Z</time>
      </trkpt>
      <trkpt lat="51.994625" lon="8.993574">
        <ele>162.589067</ele>
        <time>2024-10-22T12:31:11.419Z</time>
      </trkpt>
      <trkpt lat="51.995088" lon="8.993605">
        <ele>164.583590</ele>
        <time>2024-10-22T12:31:32.123Z</time>
      </trkpt>
      <trkpt lat="51.995525" lon="8.993678">
        <ele>166.474436</ele>
        <time>2024-10-22T12:31:51.441Z</time>
      </trkpt>
      <trkpt lat="51.995687" lon="8.993782">
        <ele>167.224208</ele>
        <time>2024-10-22T12:31:59.445Z</time>
      </trkpt>
      <trkpt lat="51.995726" lon="8.993807">
        <ele>167.404672</ele>
        <time>2024-10-22T12:32:01.415Z</time>
      </trkpt>
      <trkpt lat="51.995813" lon="8.993863">
        <ele>167.807472</ele>
        <time>2024-10-22T12:32:05.929Z</time>
      </trkpt>
      <trkpt lat="51.996203" lon="8.994092">
        <ele>169.592435</ele>
        <time>2024-10-22T12:32:26.280Z</time>
      </trkpt>
      <trkpt lat="51.996465" lon="8.994249">
        <ele>171.121350</ele>
        <time>2024-10-22T12:32:40.825Z</time>
      </trkpt>
      <trkpt lat="51.997398" lon="8.994774">
        <ele>177.474077</ele>
        <time>2024-10-22T12:33:39.584Z</time>
      </trkpt>
      <trkpt lat="51.997620" lon="8.994923">
        <ele>179.019513</ele>
        <time>2024-10-22T12:33:54.695Z</time>
      </trkpt>
      <trkpt lat="51.997937" lon="8.995112">
        <ele>181.192078</ele>
        <time>2024-10-22T12:34:15.248Z</time>
      </trkpt>
      <trkpt lat="51.998125" lon="8.995170">
        <ele>182.109240</ele>
        <time>2024-10-22T12:34:26.283Z</time>
      </trkpt>
      <trkpt lat="51.998673" lon="8.995248">
        <ele>184.099665</ele>
        <time>2024-10-22T12:34:55.578Z</time>
      </trkpt>
      <trkpt lat="51.999302" lon="8.995346">
        <ele>186.386019</ele>
        <time>2024-10-22T12:35:22.738Z</time>
      </trkpt>
      <trkpt lat="52.000130" lon="8.995368">
        <ele>187.740634</ele>
        <time>2024-10-22T12:35:49.159Z</time>
      </trkpt>
      <trkpt lat="52.000853" lon="8.995336">
        <ele>186.681258</ele>
        <time>2024-10-22T12:36:07.171Z</time>
      </trkpt>
      <trkpt lat="52.001342" lon="8.995305">
        <ele>185.964472</ele>
        <time>2024-10-22T12:36:17.217Z</time>
      </trkpt>
      <trkpt lat="52.001366" lon="8.995302">
        <ele>185.929215</ele>
        <time>2024-10-22T12:36:17.660Z</time>
      </trkpt>
      <trkpt lat="52.002073" lon="8.995265">
        <ele>182.358201</ele>
        <time>2024-10-22T12:36:30.445Z</time>
      </trkpt>
      <trkpt lat="52.002105" lon="8.995263">
        <ele>182.137995</ele>
        <time>2024-10-22T12:36:31.006Z</time>
      </trkpt>
      <trkpt lat="52.002336" lon="8.994136">
        <ele>177.109586</ele>
        <time>2024-10-22T12:36:43.984Z</time>
      </trkpt>
      <trkpt lat="52.002761" lon="8.992234">
        <ele>168.595350</ele>
        <time>2024-10-22T12:37:05.928Z</time>
      </trkpt>
      <trkpt lat="52.003010" lon="8.990973">
        <ele>163.051107</ele>
        <time>2024-10-22T12:37:20.766Z</time>
      </trkpt>
      <trkpt lat="52.003127" lon="8.990123">
        <ele>159.930601</ele>
        <time>2024-10-22T12:37:30.840Z</time>
      </trkpt>
      <trkpt lat="52.003272" lon="8.987869">
        <ele>153.611959</ele>
        <time>2024-10-22T12:37:57.911Z</time>
      </trkpt>
      <trkpt lat="52.003333" lon="8.986921">
        <ele>151.612183</ele>
        <time>2024-10-22T12:38:09.655Z</time>
      </trkpt>
      <trkpt lat="52.003405" lon="8.986181">
        <ele>150.254662</ele>
        <time>2024-10-22T12:38:19.084Z</time>
      </trkpt>
      <trkpt lat="52.003658" lon="8.985750">
        <ele>149.175562</ele>
        <time>2024-10-22T12:38:32.221Z</time>
      </trkpt>
      <trkpt lat="52.004460" lon="8.983946">
        <ele>146.142599</ele>
        <time>2024-10-22T12:39:24.118Z</time>
      </trkpt>
      <trkpt lat="52.004472" lon="8.983712">
        <ele>145.894576</ele>
        <time>2024-10-22T12:39:29.785Z</time>
      </trkpt>
      <trkpt lat="52.004734" lon="8.982739">
        <ele>144.772812</ele>
        <time>2024-10-22T12:39:55.478Z</time>
      </trkpt>
      <trkpt lat="52.004861" lon="8.981905">
        <ele>143.773514</ele>
        <time>2024-10-22T12:40:16.230Z</time>
      </trkpt>
      <trkpt lat="52.005210" lon="8.979590">
        <ele>140.856807</ele>
        <time>2024-10-22T12:40:48.579Z</time>
      </trkpt>
      <trkpt lat="52.005296" lon="8.979269">
        <ele>140.315867</ele>
        <time>2024-10-22T12:40:53.097Z</time>
      </trkpt>
      <trkpt lat="52.005563" lon="8.978897">
        <ele>139.432944</ele>
        <time>2024-10-22T12:41:00.555Z</time>
      </trkpt>
      <trkpt lat="52.005981" lon="8.978306">
        <ele>138.041988</ele>
        <time>2024-10-22T12:41:12.310Z</time>
      </trkpt>
      <trkpt lat="52.006074" lon="8.978097">
        <ele>137.643515</ele>
        <time>2024-10-22T12:41:15.699Z</time>
      </trkpt>
      <trkpt lat="52.006504" lon="8.976454">
        <ele>135.259236</ele>
        <time>2024-10-22T12:41:39.121Z</time>
      </trkpt>
      <trkpt lat="52.006594" lon="8.976266">
        <ele>134.984015</ele>
        <time>2024-10-22T12:41:42.391Z</time>
      </trkpt>
      <trkpt lat="52.006987" lon="8.975658">
        <ele>133.965205</ele>
        <time>2024-10-22T12:41:54.495Z</time>
      </trkpt>
      <trkpt lat="52.007501" lon="8.974802">
        <ele>133.235467</ele>
        <time>2024-10-22T12:42:11.295Z</time>
      </trkpt>
      <trkpt lat="52.007806" lon="8.974051">
        <ele>133.850369</ele>
        <time>2024-10-22T12:42:28.061Z</time>
      </trkpt>
      <trkpt lat="52.007806" lon="8.973580">
        <ele>134.172264</ele>
        <time>2024-10-22T12:42:38.192Z</time>
      </trkpt>
      <trkpt lat="52.007748" lon="8.973267">
        <ele>134.395660</ele>
        <time>2024-10-22T12:42:45.686Z</time>
      </trkpt>
      <trkpt lat="52.007487" lon="8.972810">
        <ele>134.821713</ele>
        <time>2024-10-22T12:43:00.952Z</time>
      </trkpt>
      <trkpt lat="52.007011" lon="8.969501">
        <ele>140.378428</ele>
        <time>2024-10-22T12:44:29.722Z</time>
      </trkpt>
      <trkpt lat="52.006865" lon="8.968462">
        <ele>141.237026</ele>
        <time>2024-10-22T12:44:54.098Z</time>
      </trkpt>
      <trkpt lat="52.006648" lon="8.968144">
        <ele>141.619514</ele>
        <time>2024-10-22T12:45:04.072Z</time>
      </trkpt>
      <trkpt lat="52.006427" lon="8.967890">
        <ele>141.973825</ele>
        <time>2024-10-22T12:45:12.482Z</time>
      </trkpt>
      <trkpt lat="52.006160" lon="8.967585">
        <ele>142.401018</ele>
        <time>2024-10-22T12:45:21.604Z</time>
      </trkpt>
      <trkpt lat="52.005953" lon="8.967348">
        <ele>142.362323</ele>
        <time>2024-10-22T12:45:28.036Z</time>
      </trkpt>
      <trkpt lat="52.006718" lon="8.965860">
        <ele>140.801881</ele>
        <time>2024-10-22T12:45:54.910Z</time>
      </trkpt>
      <trkpt lat="52.006882" lon="8.965541">
        <ele>140.467354</ele>
        <time>2024-10-22T12:46:00.317Z</time>
      </trkpt>
      <trkpt lat="52.007124" lon="8.965071">
        <ele>139.586933</ele>
        <time>2024-10-22T12:46:08.145Z</time>
      </trkpt>
      <trkpt lat="52.007163" lon="8.964995">
        <ele>139.367959</ele>
        <time>2024-10-22T12:46:09.402Z</time>
      </trkpt>
      <trkpt lat="52.007406" lon="8.964524">
        <ele>138.007895</ele>
        <time>2024-10-22T12:46:17.060Z</time>
      </trkpt>
      <trkpt lat="52.007556" lon="8.964232">
        <ele>137.166213</ele>
        <time>2024-10-22T12:46:21.736Z</time>
      </trkpt>
      <trkpt lat="52.008374" lon="8.962709">
        <ele>131.971366</ele>
        <time>2024-10-22T12:46:44.758Z</time>
      </trkpt>
      <trkpt lat="52.007967" lon="8.961844">
        <ele>127.883201</ele>
        <time>2024-10-22T12:46:56.473Z</time>
      </trkpt>
      <trkpt lat="52.007599" lon="8.961021">
        <ele>124.063645</ele>
        <time>2024-10-22T12:47:07.285Z</time>
      </trkpt>
      <trkpt lat="52.008020" lon="8.960766">
        <ele>121.553654</ele>
        <time>2024-10-22T12:47:14.980Z</time>
      </trkpt>
      <trkpt lat="52.008242" lon="8.960507">
        <ele>120.154714</ele>
        <time>2024-10-22T12:47:19.725Z</time>
      </trkpt>
      <trkpt lat="52.008681" lon="8.959858">
        <ele>117.116631</ele>
        <time>2024-10-22T12:47:30.374Z</time>
      </trkpt>
      <trkpt lat="52.008888" lon="8.959673">
        <ele>115.907379</ele>
        <time>2024-10-22T12:47:34.651Z</time>
      </trkpt>
      <trkpt lat="52.009125" lon="8.959504">
        <ele>114.582604</ele>
        <time>2024-10-22T12:47:39.426Z</time>
      </trkpt>
      <trkpt lat="52.009402" lon="8.959383">
        <ele>113.473236</ele>
        <time>2024-10-22T12:47:45.043Z</time>
      </trkpt>
      <trkpt lat="52.009798" lon="8.959167">
        <ele>113.092490</ele>
        <time>2024-10-22T12:47:54.066Z</time>
      </trkpt>
      <trkpt lat="52.009926" lon="8.959092">
        <ele>112.968465</ele>
        <time>2024-10-22T12:47:57.283Z</time>
      </trkpt>
      <trkpt lat="52.009986" lon="8.959055">
        <ele>112.909969</ele>
        <time>2024-10-22T12:47:58.798Z</time>
      </trkpt>
      <trkpt lat="52.010116" lon="8.959272">
        <ele>112.740080</ele>
        <time>2024-10-22T12:48:03.403Z</time>
      </trkpt>
      <trkpt lat="52.010170" lon="8.959354">
        <ele>112.672708</ele>
        <time>2024-10-22T12:48:05.334Z</time>
      </trkpt>
      <trkpt lat="52.011052" lon="8.959998">
        <ele>111.830014</ele>
        <time>2024-10-22T12:48:32.220Z</time>
      </trkpt>
      <trkpt lat="52.011156" lon="8.960020">
        <ele>111.765183</ele>
        <time>2024-10-22T12:48:35.463Z</time>
      </trkpt>
      <trkpt lat="52.012576" lon="8.959539">
        <ele>110.868521</ele>
        <time>2024-10-22T12:49:11.088Z</time>
      </trkpt>
      <trkpt lat="52.012968" lon="8.959397">
        <ele>110.494174</ele>
        <time>2024-10-22T12:49:19.412Z</time>
      </trkpt>
      <trkpt lat="52.013041" lon="8.959328">
        <ele>110.405288</ele>
        <time>2024-10-22T12:49:21.160Z</time>
      </trkpt>
      <trkpt lat="52.013070" lon="8.959293">
        <ele>110.367267</ele>
        <time>2024-10-22T12:49:21.917Z</time>
      </trkpt>
      <trkpt lat="52.013104" lon="8.959240">
        <ele>110.317676</ele>
        <time>2024-10-22T12:49:22.923Z</time>
      </trkpt>
      <trkpt lat="52.013731" lon="8.958756">
        <ele>109.587080</ele>
        <time>2024-10-22T12:49:37.691Z</time>
      </trkpt>
      <trkpt lat="52.013714" lon="8.958698">
        <ele>109.545466</ele>
        <time>2024-10-22T12:49:38.586Z</time>
      </trkpt>
      <trkpt lat="52.014409" lon="8.958185">
        <ele>108.932054</ele>
        <time>2024-10-22T12:49:58.325Z</time>
      </trkpt>
      <trkpt lat="52.014511" lon="8.958127">
        <ele>108.949597</ele>
        <time>2024-10-22T12:50:01.849Z</time>
      </trkpt>
      <trkpt lat="52.014573" lon="8.958131">
        <ele>108.959670</ele>
        <time>2024-10-22T12:50:03.893Z</time>
      </trkpt>
      <trkpt lat="52.014634" lon="8.958136">
        <ele>108.969585</ele>
        <time>2024-10-22T12:50:05.951Z</time>
      </trkpt>
      <trkpt lat="52.014890" lon="8.958351">
        <ele>109.016366</ele>
        <time>2024-10-22T12:50:15.962Z</time>
      </trkpt>
      <trkpt lat="52.015172" lon="8.958648">
        <ele>109.070920</ele>
        <time>2024-10-22T12:50:26.876Z</time>
      </trkpt>
      <trkpt lat="52.015429" lon="8.959025">
        <ele>109.127127</ele>
        <time>2024-10-22T12:50:36.258Z</time>
      </trkpt>
      <trkpt lat="52.015745" lon="8.959603">
        <ele>109.152797</ele>
        <time>2024-10-22T12:50:47.512Z</time>
      </trkpt>
      <trkpt lat="52.015881" lon="8.959682">
        <ele>108.964941</ele>
        <time>2024-10-22T12:50:50.710Z</time>
      </trkpt>
      <trkpt lat="52.016032" lon="8.959662">
        <ele>108.767888</ele>
        <time>2024-10-22T12:50:54.004Z</time>
      </trkpt>
      <trkpt lat="52.016008" lon="8.959613">
        <ele>108.717759</ele>
        <time>2024-10-22T12:50:54.844Z</time>
      </trkpt>
      <trkpt lat="52.016097" lon="8.959567">
        <ele>108.596284</ele>
        <time>2024-10-22T12:50:56.813Z</time>
      </trkpt>
      <trkpt lat="52.016214" lon="8.959424">
        <ele>108.405859</ele>
        <time>2024-10-22T12:50:59.942Z</time>
      </trkpt>
      <trkpt lat="52.016835" lon="8.958846">
        <ele>107.475011</ele>
        <time>2024-10-22T12:51:15.248Z</time>
      </trkpt>
      <trkpt lat="52.017559" lon="8.957962">
        <ele>106.597172</ele>
        <time>2024-10-22T12:51:36.921Z</time>
      </trkpt>
      <trkpt lat="52.017632" lon="8.957631">
        <ele>106.465972</ele>
        <time>2024-10-22T12:51:42.390Z</time>
      </trkpt>
      <trkpt lat="52.017710" lon="8.957134">
        <ele>106.274588</ele>
        <time>2024-10-22T12:51:50.299Z</time>
      </trkpt>
      <trkpt lat="52.017767" lon="8.956864">
        <ele>106.168078</ele>
        <time>2024-10-22T12:51:54.609Z</time>
      </trkpt>
      <trkpt lat="52.018360" lon="8.955781">
        <ele>105.663350</ele>
        <time>2024-10-22T12:52:16.032Z</time>
      </trkpt>
      <trkpt lat="52.018710" lon="8.955161">
        <ele>105.429680</ele>
        <time>2024-10-22T12:52:28.828Z</time>
      </trkpt>
      <trkpt lat="52.019016" lon="8.954617">
        <ele>105.224989</ele>
        <time>2024-10-22T12:52:40.261Z</time>
      </trkpt>
      <trkpt lat="52.019210" lon="8.953868">
        <ele>104.999294</ele>
        <time>2024-10-22T12:52:57.225Z</time>
      </trkpt>
      <trkpt lat="52.020083" lon="8.950095">
        <ele>104.133613</ele>
        <time>2024-10-22T12:54:20.047Z</time>
      </trkpt>
      <trkpt lat="52.020173" lon="8.949818">
        <ele>104.100604</ele>
        <time>2024-10-22T12:54:26.431Z</time>
      </trkpt>
      <trkpt lat="52.020351" lon="8.949569">
        <ele>104.060385</ele>
        <time>2024-10-22T12:54:34.264Z</time>
      </trkpt>
      <trkpt lat="52.020506" lon="8.949153">
        <ele>104.009139</ele>
        <time>2024-10-22T12:54:44.357Z</time>
      </trkpt>
      <trkpt lat="52.020619" lon="8.948769">
        <ele>103.964285</ele>
        <time>2024-10-22T12:54:53.692Z</time>
      </trkpt>
      <trkpt lat="52.020618" lon="8.948597">
        <ele>103.946160</ele>
        <time>2024-10-22T12:54:57.585Z</time>
      </trkpt>
      <trkpt lat="52.020504" lon="8.948397">
        <ele>103.943160</ele>
        <time>2024-10-22T12:55:03.762Z</time>
      </trkpt>
      <trkpt lat="52.020476" lon="8.948242">
        <ele>103.975474</ele>
        <time>2024-10-22T12:55:07.411Z</time>
      </trkpt>
      <trkpt lat="52.020660" lon="8.947575">
        <ele>104.121694</ele>
        <time>2024-10-22T12:55:24.093Z</time>
      </trkpt>
      <trkpt lat="52.020792" lon="8.947540">
        <ele>104.165170</ele>
        <time>2024-10-22T12:55:29.086Z</time>
      </trkpt>
      <trkpt lat="52.020867" lon="8.947526">
        <ele>104.189711</ele>
        <time>2024-10-22T12:55:31.970Z</time>
      </trkpt>
      <trkpt lat="52.020960" lon="8.947411">
        <ele>104.227699</ele>
        <time>2024-10-22T12:55:36.378Z</time>
      </trkpt>
      <trkpt lat="52.021558" lon="8.945002">
        <ele>104.330685</ele>
        <time>2024-10-22T12:56:34.418Z</time>
      </trkpt>
      <trkpt lat="52.022363" lon="8.941686">
        <ele>103.607081</ele>
        <time>2024-10-22T12:57:46.379Z</time>
      </trkpt>
      <trkpt lat="52.022409" lon="8.941242">
        <ele>103.494021</ele>
        <time>2024-10-22T12:57:55.693Z</time>
      </trkpt>
      <trkpt lat="52.022576" lon="8.940836">
        <ele>103.371393</ele>
        <time>2024-10-22T12:58:05.941Z</time>
      </trkpt>
      <trkpt lat="52.023341" lon="8.937702">
        <ele>103.134554</ele>
        <time>2024-10-22T12:59:18.418Z</time>
      </trkpt>
      <trkpt lat="52.023487" lon="8.937003">
        <ele>102.997377</ele>
        <time>2024-10-22T12:59:34.057Z</time>
      </trkpt>
      <trkpt lat="52.023562" lon="8.936590">
        <ele>102.917355</ele>
        <time>2024-10-22T12:59:43.110Z</time>
      </trkpt>
      <trkpt lat="52.023661" lon="8.935800">
        <ele>102.767534</ele>
        <time>2024-10-22T12:59:59.834Z</time>
      </trkpt>
      <trkpt lat="52.023682" lon="8.935457">
        <ele>102.703479</ele>
        <time>2024-10-22T13:00:06.851Z</time>
      </trkpt>
      <trkpt lat="52.023721" lon="8.934431">
        <ele>102.371640</ele>
        <time>2024-10-22T13:00:27.407Z</time>
      </trkpt>
      <trkpt lat="52.023679" lon="8.933537">
        <ele>102.027737</ele>
        <time>2024-10-22T13:00:45.079Z</time>
      </trkpt>
      <trkpt lat="52.023411" lon="8.931762">
        <ele>101.576369</ele>
        <time>2024-10-22T13:01:21.751Z</time>
      </trkpt>
      <trkpt lat="52.023207" lon="8.930864">
        <ele>101.674713</ele>
        <time>2024-10-22T13:01:41.691Z</time>
      </trkpt>
      <trkpt lat="52.023002" lon="8.930207">
        <ele>101.750393</ele>
        <time>2024-10-22T13:01:58.256Z</time>
      </trkpt>
      <trkpt lat="52.022736" lon="8.929755">
        <ele>101.814648</ele>
        <time>2024-10-22T13:02:13.808Z</time>
      </trkpt>
      <trkpt lat="52.022360" lon="8.929237">
        <ele>102.100886</ele>
        <time>2024-10-22T13:02:34.104Z</time>
      </trkpt>
      <trkpt lat="52.022118" lon="8.928939">
        <ele>102.293161</ele>
        <time>2024-10-22T13:02:46.010Z</time>
      </trkpt>
      <trkpt lat="52.022040" lon="8.928829">
        <ele>102.358562</ele>
        <time>2024-10-22T13:02:50.016Z</time>
      </trkpt>
      <trkpt lat="52.021977" lon="8.928629">
        <ele>102.446115</ele>
        <time>2024-10-22T13:02:55.357Z</time>
      </trkpt>
      <trkpt lat="52.021767" lon="8.928278">
        <ele>102.636885</ele>
        <time>2024-10-22T13:03:07.144Z</time>
      </trkpt>
      <trkpt lat="52.021749" lon="8.928032">
        <ele>102.733422</ele>
        <time>2024-10-22T13:03:12.982Z</time>
      </trkpt>
      <trkpt lat="52.021876" lon="8.927141">
        <ele>102.774770</ele>
        <time>2024-10-22T13:03:33.013Z</time>
      </trkpt>
      <trkpt lat="52.021900" lon="8.926571">
        <ele>102.444628</ele>
        <time>2024-10-22T13:03:44.233Z</time>
      </trkpt>
      <trkpt lat="52.021956" lon="8.925406">
        <ele>101.769389</ele>
        <time>2024-10-22T13:04:05.898Z</time>
      </trkpt>
      <trkpt lat="52.021950" lon="8.925180">
        <ele>101.638674</ele>
        <time>2024-10-22T13:04:10.167Z</time>
      </trkpt>
      <trkpt lat="52.021943" lon="8.924896">
        <ele>101.474435</ele>
        <time>2024-10-22T13:04:15.538Z</time>
      </trkpt>
      <trkpt lat="52.021759" lon="8.924048">
        <ele>101.238170</ele>
        <time>2024-10-22T13:04:32.690Z</time>
      </trkpt>
      <trkpt lat="52.021519" lon="8.922997">
        <ele>101.165549</ele>
        <time>2024-10-22T13:04:55.159Z</time>
      </trkpt>
      <trkpt lat="52.021523" lon="8.922926">
        <ele>101.160930</ele>
        <time>2024-10-22T13:04:56.699Z</time>
      </trkpt>
      <trkpt lat="52.021566" lon="8.922226">
        <ele>101.115358</ele>
        <time>2024-10-22T13:05:13.005Z</time>
      </trkpt>
      <trkpt lat="52.020753" lon="8.922363">
        <ele>101.614629</ele>
        <time>2024-10-22T13:05:39.830Z</time>
      </trkpt>
      <trkpt lat="52.020564" lon="8.922395">
        <ele>101.806425</ele>
        <time>2024-10-22T13:05:46.026Z</time>
      </trkpt>
      <trkpt lat="52.020448" lon="8.922408">
        <ele>101.923785</ele>
        <time>2024-10-22T13:05:49.871Z</time>
      </trkpt>
      <trkpt lat="52.020275" lon="8.922458">
        <ele>102.101139</ele>
        <time>2024-10-22T13:05:55.550Z</time>
      </trkpt>
      <trkpt lat="52.020175" lon="8.922496">
        <ele>102.204795</ele>
        <time>2024-10-22T13:05:58.885Z</time>
      </trkpt>
      <trkpt lat="52.019955" lon="8.920705">
        <ele>102.762170</ele>
        <time>2024-10-22T13:06:33.200Z</time>
      </trkpt>
      <trkpt lat="52.019857" lon="8.920077">
        <ele>102.635856</ele>
        <time>2024-10-22T13:06:43.951Z</time>
      </trkpt>
      <trkpt lat="52.019578" lon="8.918906">
        <ele>102.391036</ele>
        <time>2024-10-22T13:07:02.201Z</time>
      </trkpt>
      <trkpt lat="52.019493" lon="8.918215">
        <ele>102.051919</ele>
        <time>2024-10-22T13:07:11.874Z</time>
      </trkpt>
      <trkpt lat="52.019523" lon="8.917940">
        <ele>101.853929</ele>
        <time>2024-10-22T13:07:15.652Z</time>
      </trkpt>
      <trkpt lat="52.019497" lon="8.917567">
        <ele>101.587813</ele>
        <time>2024-10-22T13:07:20.698Z</time>
      </trkpt>
      <trkpt lat="52.019484" lon="8.917161">
        <ele>101.299605</ele>
        <time>2024-10-22T13:07:26.158Z</time>
      </trkpt>
      <trkpt lat="52.019520" lon="8.915910">
        <ele>100.411786</ele>
        <time>2024-10-22T13:07:43.825Z</time>
      </trkpt>
      <trkpt lat="52.019495" lon="8.915612">
        <ele>100.239487</ele>
        <time>2024-10-22T13:07:48.410Z</time>
      </trkpt>
      <trkpt lat="52.019462" lon="8.915227">
        <ele>100.153013</ele>
        <time>2024-10-22T13:07:54.330Z</time>
      </trkpt>
      <trkpt lat="52.019473" lon="8.915070">
        <ele>100.117861</ele>
        <time>2024-10-22T13:07:56.747Z</time>
      </trkpt>
      <trkpt lat="52.019646" lon="8.915129">
        <ele>100.053960</ele>
        <time>2024-10-22T13:08:01.133Z</time>
      </trkpt>
      <trkpt lat="52.019780" lon="8.915176">
        <ele>100.004404</ele>
        <time>2024-10-22T13:08:04.570Z</time>
      </trkpt>
      <trkpt lat="52.020022" lon="8.913835">
        <ele>99.693524</ele>
        <time>2024-10-22T13:08:26.841Z</time>
      </trkpt>
      <trkpt lat="52.020346" lon="8.912897">
        <ele>99.588918</ele>
        <time>2024-10-22T13:08:43.563Z</time>
      </trkpt>
      <trkpt lat="52.020443" lon="8.912355">
        <ele>99.573337</ele>
        <time>2024-10-22T13:08:52.594Z</time>
      </trkpt>
      <trkpt lat="52.020756" lon="8.911525">
        <ele>99.546467</ele>
        <time>2024-10-22T13:09:08.693Z</time>
      </trkpt>
      <trkpt lat="52.020783" lon="8.911477">
        <ele>99.544671</ele>
        <time>2024-10-22T13:09:09.748Z</time>
      </trkpt>
      <trkpt lat="52.020823" lon="8.911402">
        <ele>99.541932</ele>
        <time>2024-10-22T13:09:11.397Z</time>
      </trkpt>
      <trkpt lat="52.020836" lon="8.911377">
        <ele>99.541028</ele>
        <time>2024-10-22T13:09:11.940Z</time>
      </trkpt>
      <trkpt lat="52.021805" lon="8.908717">
        <ele>99.940391</ele>
        <time>2024-10-22T13:10:05.475Z</time>
      </trkpt>
      <trkpt lat="52.021859" lon="8.908524">
        <ele>99.974146</ele>
        <time>2024-10-22T13:10:09.263Z</time>
      </trkpt>
      <trkpt lat="52.022052" lon="8.907828">
        <ele>99.811310</ele>
        <time>2024-10-22T13:10:21.878Z</time>
      </trkpt>
      <trkpt lat="52.022055" lon="8.907815">
        <ele>99.807418</ele>
        <time>2024-10-22T13:10:22.099Z</time>
      </trkpt>
      <trkpt lat="52.022158" lon="8.907265">
        <ele>99.646249</ele>
        <time>2024-10-22T13:10:30.962Z</time>
      </trkpt>
      <trkpt lat="52.022224" lon="8.906914">
        <ele>99.543358</ele>
        <time>2024-10-22T13:10:36.434Z</time>
      </trkpt>
      <trkpt lat="52.022509" lon="8.906907">
        <ele>99.413504</ele>
        <time>2024-10-22T13:10:43.279Z</time>
      </trkpt>
      <trkpt lat="52.022675" lon="8.906666">
        <ele>99.312096</ele>
        <time>2024-10-22T13:10:48.686Z</time>
      </trkpt>
      <trkpt lat="52.022703" lon="8.906665">
        <ele>99.299337</ele>
        <time>2024-10-22T13:10:49.367Z</time>
      </trkpt>
      <trkpt lat="52.022848" lon="8.906660">
        <ele>99.233263</ele>
        <time>2024-10-22T13:10:52.925Z</time>
      </trkpt>
      <trkpt lat="52.023063" lon="8.906691">
        <ele>99.173269</ele>
        <time>2024-10-22T13:10:58.062Z</time>
      </trkpt>
      <trkpt lat="52.023389" lon="8.906748">
        <ele>99.173269</ele>
        <time>2024-10-22T13:11:05.415Z</time>
      </trkpt>
      <trkpt lat="52.023541" lon="8.906738">
        <ele>99.173269</ele>
        <time>2024-10-22T13:11:08.859Z</time>
      </trkpt>
      <trkpt lat="52.023647" lon="8.906621">
        <ele>99.173269</ele>
        <time>2024-10-22T13:11:11.860Z</time>
      </trkpt>
      <trkpt lat="52.023941" lon="8.906803">
        <ele>99.173269</ele>
        <time>2024-10-22T13:11:20.230Z</time>
      </trkpt>
      <trkpt lat="52.024033" lon="8.906855">
        <ele>99.173269</ele>
        <time>2024-10-22T13:11:27.020Z</time>
      </trkpt>
      <trkpt lat="52.024153" lon="8.906922">
        <ele>99.173269</ele>
        <time>2024-10-22T13:11:35.838Z</time>
      </trkpt>
      <trkpt lat="52.024216" lon="8.906957">
        <ele>99.173269</ele>
        <time>2024-10-22T13:11:40.464Z</time>
      </trkpt>
      <trkpt lat="52.024398" lon="8.907059">
        <ele>99.173269</ele>
        <time>2024-10-22T13:11:53.863Z</time>
      </trkpt>
      <trkpt lat="52.024501" lon="8.907135">
        <ele>99.173269</ele>
        <time>2024-10-22T13:11:56.718Z</time>
      </trkpt>
      <trkpt lat="52.024446" lon="8.907343">
        <ele>99.173269</ele>
        <time>2024-10-22T13:12:00.187Z</time>
      </trkpt>
    </trkseg>
  </trk>
</gpx>